Provisional Data: Nanticoke Creek near Maine, NY


Please select a monitoring station.
Please select start date.
Please select start date.

Toggle Unit: C/F Toggle Unit: C/F
Sample Time Temperature (C) Temperature (F) Specific Conductivity (mS/cm) pH   Turbidity (NTU+) DO (mg/L)
6/22/2021 12:00:00 AM 23.12 73.616 0.189 7.29 5.99 6.87
6/22/2021 12:15:00 AM 23.1 73.58 0.189 7.28 5.88 6.86
6/22/2021 12:30:00 AM 23.07 73.526 0.19 7.28 6.15 6.83
6/22/2021 12:45:00 AM 23.04 73.472 0.191 7.28 6.09 6.82
6/22/2021 1:00:00 AM 23 73.4 0.191 7.27 6.11 6.82
6/22/2021 1:15:00 AM 22.96 73.328 0.192 7.26 6.26 6.79
6/22/2021 1:30:00 AM 22.91 73.238 0.193 7.25 6.55 6.8
6/22/2021 1:45:00 AM 22.86 73.148 0.193 7.25 6.15 6.79
6/22/2021 2:00:00 AM 22.81 73.058 0.194 7.26 6.38 6.8
6/22/2021 2:15:00 AM 22.74 72.932 0.195 7.25 6.35 6.78
6/22/2021 2:30:00 AM 22.67 72.806 0.195 7.25 6.2 6.79
6/22/2021 2:45:00 AM 22.6 72.68 0.196 7.26 6.49 6.81
6/22/2021 3:00:00 AM 22.52 72.536 0.196 7.24 6.32 6.82
6/22/2021 3:15:00 AM 22.44 72.392 0.196 7.25 6.17 6.83
6/22/2021 3:30:00 AM 22.37 72.266 0.196 7.24 6.47 6.82
6/22/2021 3:45:00 AM 22.28 72.104 0.197 7.24 6.26 6.83
6/22/2021 4:00:00 AM 22.2 71.96 0.197 7.24 6.63 6.83
6/22/2021 4:15:00 AM 22.12 71.816 0.197 7.24 6.57 6.84
6/22/2021 4:30:00 AM 22.03 71.654 0.197 7.23 6.62 6.84
6/22/2021 4:45:00 AM 21.93 71.474 0.196 7.23 6.51 6.87
6/22/2021 5:00:00 AM 21.85 71.33 0.196 7.23 6.83 6.87
6/22/2021 5:15:00 AM 21.76 71.168 0.196 7.23 6.98 6.87
6/22/2021 5:30:00 AM 21.67 71.006 0.196 7.22 6.76 6.88
6/22/2021 5:45:00 AM 21.58 70.844 0.196 7.22 6.86 6.89
6/22/2021 6:00:00 AM 21.49 70.682 0.196 7.22 6.8 6.92
6/22/2021 6:15:00 AM 21.41 70.538 0.196 7.22 6.45 6.95
6/22/2021 6:30:00 AM 21.32 70.376 0.195 7.23 6.28 7.01
6/22/2021 6:45:00 AM 21.22 70.196 0.195 7.22 7.41 7.04
6/22/2021 7:00:00 AM 21.14 70.052 0.195 7.23 6.34 7.08
6/22/2021 7:15:00 AM 21.05 69.89 0.194 7.23 6.24 7.12
6/22/2021 7:30:00 AM 20.97 69.746 0.194 7.23 6 7.18
6/22/2021 7:45:00 AM 20.9 69.62 0.194 7.24 6.08 7.24
6/22/2021 8:00:00 AM 20.82 69.476 0.193 7.25 6.05 7.33
6/22/2021 8:15:00 AM 20.75 69.35 0.193 7.25 6.03 7.4
6/22/2021 8:30:00 AM 20.68 69.224 0.192 7.26 6.04 7.53
6/22/2021 8:45:00 AM 20.61 69.098 0.192 7.27 6.15 7.58
6/22/2021 9:00:00 AM 20.54 68.972 0.191 7.28 5.88 7.7
6/22/2021 9:15:00 AM 20.49 68.882 0.191 7.29 5.65 7.82
6/22/2021 9:30:00 AM 20.44 68.792 0.19 7.31 5.8 7.94
6/22/2021 9:45:00 AM 20.38 68.684 0.19 7.32 5.52 8.04
6/22/2021 10:00:00 AM 20.36 68.648 0.189 7.35 5.83 8.22
6/22/2021 10:15:00 AM 20.32 68.576 0.189 7.36 5.67 8.3
6/22/2021 10:30:00 AM 20.28 68.504 0.188 7.38 5.25 8.43
6/22/2021 10:45:00 AM 20.28 68.504 0.188 7.41 5.59 8.58
6/22/2021 11:00:00 AM 20.25 68.45 0.188 7.43 5.54 8.69
6/22/2021 11:15:00 AM 20.25 68.45 0.187 7.46 5.33 8.83
6/22/2021 11:30:00 AM 20.23 68.414 0.187 7.49 5.32 8.94
6/22/2021 11:45:00 AM 20.19 68.342 0.187 7.49 5.19 8.99
6/22/2021 12:00:00 PM 20.18 68.324 0.186 7.53 5.26 9.1
6/22/2021 12:15:00 PM 20.15 68.27 0.186 7.56 5.06 9.18
6/22/2021 12:30:00 PM 20.12 68.216 0.185 7.57 5.04 9.24
6/22/2021 12:45:00 PM 20.08 68.144 0.185 7.59 5.04 9.29
6/22/2021 1:00:00 PM 20.05 68.09 0.185 7.6 4.96 9.33
6/22/2021 1:15:00 PM 20.04 68.07201 0.185 7.62 4.89 9.38
6/22/2021 1:30:00 PM 19.96 67.92799 0.185 7.62 4.94 9.34
6/22/2021 1:45:00 PM 19.94 67.892 0.185 7.63 4.86 9.37
6/22/2021 2:00:00 PM 19.88 67.784 0.184 7.63 4.87 9.34
6/22/2021 2:15:00 PM 19.87 67.766 0.184 7.63 4.78 9.4
6/22/2021 2:30:00 PM 19.81 67.658 0.184 7.64 4.72 9.38
6/22/2021 2:45:00 PM 19.77 67.586 0.184 7.65 4.82 9.45
6/22/2021 3:00:00 PM 19.71 67.478 0.184 7.66 4.91 9.45
6/22/2021 3:15:00 PM 19.64 67.352 0.184 7.65 4.67 9.37
6/22/2021 3:30:00 PM 19.58 67.244 0.184 7.63 4.52 9.34
6/22/2021 3:45:00 PM 19.51 67.118 0.184 7.61 4.65 9.26
6/22/2021 4:00:00 PM 19.44 66.992 0.184 7.6 4.85 9.22
6/22/2021 4:15:00 PM 19.39 66.902 0.184 7.6 4.79 9.26
6/22/2021 4:30:00 PM 19.32 66.776 0.184 7.59 4.81 9.22
6/22/2021 4:45:00 PM 19.3 66.74 0.184 7.61 4.82 9.3
6/22/2021 5:00:00 PM 19.27 66.686 0.184 7.62 4.63 9.33
6/22/2021 5:15:00 PM 19.23 66.614 0.184 7.63 4.67 9.37
6/22/2021 5:30:00 PM 19.26 66.668 0.184 7.67 4.69 9.49
6/22/2021 5:45:00 PM 19.23 66.614 0.184 7.69 4.61 9.58
6/22/2021 6:00:00 PM 19.24 66.632 0.184 7.71 4.75 9.64
6/22/2021 6:15:00 PM 19.22 66.596 0.184 7.72 4.82 9.69
6/22/2021 6:30:00 PM 19.2 66.56 0.184 7.74 4.61 9.7
6/22/2021 6:45:00 PM 19.16 66.488 0.184 7.74 4.4 9.69
6/22/2021 7:00:00 PM 19.1 66.38 0.184 7.73 4.61 9.59
6/22/2021 7:15:00 PM 19.03 66.254 0.185 7.69 4.67 9.5
6/22/2021 7:30:00 PM 18.97 66.146 0.184 7.68 4.67 9.43
6/22/2021 7:45:00 PM 18.89 66.002 0.184 7.65 4.49 9.32
6/22/2021 8:00:00 PM 18.81 65.858 0.185 7.61 4.69 9.22
6/22/2021 8:15:00 PM 18.73 65.714 0.185 7.59 4.71 9.13
6/22/2021 8:30:00 PM 18.64 65.552 0.185 7.56 4.54 9.05
6/22/2021 8:45:00 PM 18.56 65.408 0.185 7.54 4.59 8.98
6/22/2021 9:00:00 PM 18.46 65.228 0.185 7.5 4.79 8.88
6/22/2021 9:15:00 PM 18.37 65.066 0.185 7.48 5.09 8.79
6/22/2021 9:30:00 PM 18.27 64.886 0.185 7.46 5.11 8.7
6/22/2021 9:45:00 PM 18.16 64.688 0.185 7.43 5.4 8.61
6/22/2021 10:00:00 PM 18.05 64.49 0.185 7.41 5.45 8.55
6/22/2021 10:15:00 PM 17.93 64.274 0.185 7.38 5.33 8.48
6/22/2021 10:30:00 PM 17.81 64.058 0.185 7.37 5.14 8.43
6/22/2021 10:45:00 PM 17.7 63.86 0.185 7.35 5.43 8.38
6/22/2021 11:00:00 PM 17.59 63.662 0.185 7.34 5.47 8.35
6/22/2021 11:15:00 PM 17.48 63.464 0.185 7.33 5.18 8.32
6/22/2021 11:30:00 PM 17.39 63.302 0.185 7.31 5.85 8.29
6/22/2021 11:45:00 PM 17.28 63.104 0.185 7.3 5.68 8.27
6/23/2021 12:00:00 AM 17.21 62.978 0.185 7.3 5.7 8.26
6/23/2021 12:15:00 AM 17.12 62.816 0.185 7.29 5.53 8.23
6/23/2021 12:30:00 AM 17.05 62.69 0.184 7.28 5.8 8.24
6/23/2021 12:45:00 AM 16.98 62.564 0.184 7.27 5.68 8.23
6/23/2021 1:00:00 AM 16.91 62.438 0.185 7.27 5.65 8.22
6/23/2021 1:15:00 AM 16.83 62.294 0.184 7.26 5.83 8.21
6/23/2021 1:30:00 AM 16.77 62.186 0.184 7.25 5.88 8.21
6/23/2021 1:45:00 AM 16.7 62.06 0.185 7.24 6.05 8.19
6/23/2021 2:00:00 AM 16.63 61.934 0.185 7.24 5.85 8.18
6/23/2021 2:15:00 AM 16.55 61.79 0.184 7.24 6.02 8.18
6/23/2021 2:30:00 AM 16.47 61.646 0.184 7.23 5.8 8.19
6/23/2021 2:45:00 AM 16.4 61.52 0.184 7.23 5.74 8.21
6/23/2021 3:00:00 AM 16.33 61.394 0.184 7.22 5.63 8.21
6/23/2021 3:15:00 AM 16.26 61.268 0.184 7.22 5.59 8.22
6/23/2021 3:30:00 AM 16.18 61.124 0.184 7.22 5.82 8.23
6/23/2021 3:45:00 AM 16.11 60.998 0.185 7.22 6.03 8.24
6/23/2021 4:00:00 AM 16.04 60.872 0.184 7.22 5.66 8.28
6/23/2021 4:15:00 AM 15.96 60.728 0.184 7.21 5.77 8.27
6/23/2021 4:30:00 AM 15.9 60.62 0.185 7.21 6 8.27
6/23/2021 4:45:00 AM 15.83 60.494 0.185 7.2 5.88 8.28
6/23/2021 5:00:00 AM 15.77 60.386 0.185 7.21 6.03 8.29
6/23/2021 5:15:00 AM 15.7 60.26 0.185 7.2 5.75 8.3
6/23/2021 5:30:00 AM 15.63 60.134 0.184 7.2 5.84 8.34
6/23/2021 5:45:00 AM 15.56 60.008 0.184 7.2 5.83 8.36
6/23/2021 6:00:00 AM 15.5 59.9 0.185 7.21 6.21 8.37
6/23/2021 6:15:00 AM 15.43 59.774 0.184 7.2 5.5 8.43
6/23/2021 6:30:00 AM 15.38 59.684 0.185 7.2 5.53 8.48
6/23/2021 6:45:00 AM 15.33 59.594 0.185 7.21 5.43 8.54
6/23/2021 7:00:00 AM 15.28 59.504 0.184 7.22 5.39 8.65
6/23/2021 7:15:00 AM 15.25 59.45 0.185 7.23 5.61 8.68
6/23/2021 7:30:00 AM 15.23 59.414 0.184 7.24 5.42 8.89
6/23/2021 7:45:00 AM 15.2 59.36 0.184 7.25 5.16 9.01
6/23/2021 8:00:00 AM 15.18 59.324 0.184 7.26 5.38 9.11
6/23/2021 8:15:00 AM 15.15 59.27 0.184 7.29 5.35 9.22
6/23/2021 8:30:00 AM 15.14 59.252 0.184 7.31 5.06 9.37
6/23/2021 8:45:00 AM 15.16 59.288 0.184 7.32 5.18 9.43
6/23/2021 9:00:00 AM 15.22 59.396 0.184 7.35 5.04 9.55
6/23/2021 9:15:00 AM 15.31 59.558 0.184 7.37 4.8 9.64
6/23/2021 9:30:00 AM 15.42 59.756 0.184 7.4 4.76 9.7
6/23/2021 9:45:00 AM 15.55 59.99 0.184 7.42 4.5 9.79
6/23/2021 10:00:00 AM 15.72 60.296 0.184 7.45 4.56 9.88
6/23/2021 10:15:00 AM 15.9 60.62 0.184 7.48 4.63 9.96
6/23/2021 10:30:00 AM 16.05 60.89 0.184 7.48 4.62 10.04
6/23/2021 10:45:00 AM 16.25 61.25 0.184 7.51 4.46 10.12
6/23/2021 11:00:00 AM 16.48 61.664 0.184 7.55 4.6 10.19
6/23/2021 11:15:00 AM 16.6 61.88 0.184 7.56 4.14 10.27
6/23/2021 11:30:00 AM 16.84 62.312 0.185 7.59 4.28 10.33
6/23/2021 11:45:00 AM 17.04 62.672 0.185 7.62 4.45 10.4
6/23/2021 12:00:00 PM 17.09 62.762 0.185 7.62 4.24 10.48
6/23/2021 12:15:00 PM 17.36 63.248 0.184 7.69 4.12 10.55
6/23/2021 12:30:00 PM 17.71 63.878 0.185 7.72 4.1 10.61
6/23/2021 12:45:00 PM 17.75 63.95 0.185 7.72 4.44 10.62
6/23/2021 1:00:00 PM 17.92 64.256 0.185 7.76 4.11 10.68
6/23/2021 1:15:00 PM 18.07 64.526 0.185 7.79 4.13 10.69
6/23/2021 1:30:00 PM 18.16 64.688 0.185 7.78 4.14 10.69
6/23/2021 1:45:00 PM 18.23 64.814 0.184 7.8 4.34 10.69
6/23/2021 2:00:00 PM 18.5 65.3 0.185 7.85 4.05 10.73
6/23/2021 2:15:00 PM 18.73 65.714 0.185 7.86 4.01 10.76
6/23/2021 2:30:00 PM 18.91 66.038 0.185 7.89 4.06 10.78
6/23/2021 2:45:00 PM 19.1 66.38 0.185 7.92 4.15 10.82
6/23/2021 3:00:00 PM 19.46 67.028 0.185 7.97 4.21 10.87
6/23/2021 3:15:00 PM 19.53 67.154 0.185 7.95 4.33 10.83
6/23/2021 3:30:00 PM 19.58 67.244 0.185 7.97 4.18 10.8
6/23/2021 3:45:00 PM 19.71 67.478 0.185 7.99 4.04 10.76
6/23/2021 4:00:00 PM 19.91 67.838 0.185 7.99 3.87 10.77
6/23/2021 4:15:00 PM 19.99 67.982 0.185 8.01 4.02 10.75
6/23/2021 4:30:00 PM 20.07 68.126 0.185 8 4.03 10.7
6/23/2021 4:45:00 PM 20.18 68.324 0.185 8.02 4.2 10.7
6/23/2021 5:00:00 PM 20.22 68.396 0.185 7.99 4.05 10.63
6/23/2021 5:15:00 PM 20.19 68.342 0.185 7.97 3.96 10.52
6/23/2021 5:30:00 PM 20.25 68.45 0.185 7.97 3.96 10.46
6/23/2021 5:45:00 PM 20.25 68.45 0.186 7.94 4.29 10.38
6/23/2021 6:00:00 PM 20.23 68.414 0.185 7.93 4.07 10.29
6/23/2021 6:15:00 PM 20.16 68.288 0.186 7.89 4.18 10.21
6/23/2021 6:30:00 PM 20.09 68.162 0.185 7.87 4.01 10.1
6/23/2021 6:45:00 PM 20 68 0.185 7.82 3.99 9.98
6/23/2021 7:00:00 PM 19.93 67.874 0.185 7.8 4.08 9.88
6/23/2021 7:15:00 PM 19.87 67.766 0.185 7.78 3.93 9.85
6/23/2021 7:30:00 PM 19.82 67.676 0.185 7.76 3.97 9.77
6/23/2021 7:45:00 PM 19.76 67.568 0.185 7.73 4 9.67
6/23/2021 8:00:00 PM 19.69 67.442 0.185 7.7 4.16 9.56
6/23/2021 8:15:00 PM 19.62 67.316 0.185 7.67 4.2 9.47
6/23/2021 8:30:00 PM 19.54 67.172 0.185 7.63 4.19 9.37
6/23/2021 8:45:00 PM 19.45 67.01 0.185 7.6 4.33 9.26
6/23/2021 9:00:00 PM 19.35 66.83 0.186 7.58 4.46 9.13
6/23/2021 9:15:00 PM 19.23 66.614 0.186 7.54 4.46 9.01
6/23/2021 9:30:00 PM 19.11 66.398 0.186 7.51 4.72 8.89
6/23/2021 9:45:00 PM 18.99 66.182 0.186 7.48 5.05 8.78
6/23/2021 10:00:00 PM 18.86 65.948 0.186 7.45 5.07 8.68
6/23/2021 10:15:00 PM 18.73 65.714 0.186 7.42 5.14 8.59
6/23/2021 10:30:00 PM 18.6 65.48 0.186 7.4 5.19 8.53
6/23/2021 10:45:00 PM 18.48 65.264 0.186 7.38 5.23 8.45
6/23/2021 11:00:00 PM 18.36 65.048 0.187 7.37 4.88 8.39
6/23/2021 11:15:00 PM 18.24 64.832 0.187 7.35 4.95 8.34
6/23/2021 11:30:00 PM 18.12 64.616 0.187 7.34 9.18 8.3
6/23/2021 11:45:00 PM 18.01 64.418 0.187 7.32 4.7 8.26
6/24/2021 12:00:00 AM 17.89 64.202 0.187 7.31 4.82 8.23
6/24/2021 12:15:00 AM 17.79 64.022 0.187 7.29 4.88 8.19
6/24/2021 12:30:00 AM 17.69 63.842 0.188 7.29 4.96 8.17
6/24/2021 12:45:00 AM 17.59 63.662 0.188 7.28 4.97 8.11
6/24/2021 1:00:00 AM 17.49 63.482 0.188 7.27 4.97 8.11
6/24/2021 1:15:00 AM 17.39 63.302 0.188 7.26 4.63 8.09
6/24/2021 1:30:00 AM 17.31 63.158 0.188 7.25 5.12 8.07
6/24/2021 1:45:00 AM 17.22 62.996 0.189 7.24 5.03 8.04
6/24/2021 2:00:00 AM 17.13 62.834 0.189 7.24 5.02 8.04
6/24/2021 2:15:00 AM 17.05 62.69 0.189 7.23 4.88 8.03
6/24/2021 2:30:00 AM 16.96 62.528 0.188 7.23 5.35 8.01
6/24/2021 2:45:00 AM 16.88 62.384 0.189 7.22 5.22 8.02
6/24/2021 3:00:00 AM 16.8 62.24 0.189 7.21 7.17 8.01
6/24/2021 3:15:00 AM 16.73 62.114 0.188 7.22 6.36 8.02
6/24/2021 3:30:00 AM 16.65 61.97 0.188 7.2 5.85 8.04
6/24/2021 3:45:00 AM 16.57 61.826 0.188 7.2 5.59 8.04
6/24/2021 4:00:00 AM 16.5 61.7 0.189 7.2 5.87 8.02
6/24/2021 4:15:00 AM 16.42 61.556 0.188 7.19 5.47 8.04
6/24/2021 4:30:00 AM 16.34 61.412 0.189 7.19 5.85 8.04
6/24/2021 4:45:00 AM 16.27 61.286 0.189 7.19 5.29 8.06
6/24/2021 5:00:00 AM 16.2 61.16 0.189 7.19 5.77 8.06
6/24/2021 5:15:00 AM 16.13 61.034 0.188 7.19 5.34 8.1
6/24/2021 5:30:00 AM 16.05 60.89 0.188 7.19 5.46 8.09
6/24/2021 5:45:00 AM 15.98 60.764 0.188 7.19 5.18 8.13
6/24/2021 6:00:00 AM 15.91 60.638 0.188 7.19 5.42 8.13
6/24/2021 6:15:00 AM 15.84 60.512 0.188 7.19 5.27 8.15
6/24/2021 6:30:00 AM 15.76 60.368 0.188 7.19 4.75 8.19
6/24/2021 6:45:00 AM 15.71 60.278 0.188 7.19 4.86 8.25
6/24/2021 7:00:00 AM 15.65 60.17 0.188 7.2 5.04 8.33
6/24/2021 7:15:00 AM 15.6 60.08 0.188 7.2 4.85 8.41
6/24/2021 7:30:00 AM 15.56 60.008 0.188 7.21 4.77 8.51
6/24/2021 7:45:00 AM 15.54 59.972 0.188 7.22 4.77 8.61
6/24/2021 8:00:00 AM 15.53 59.954 0.187 7.23 4.75 8.73
6/24/2021 8:15:00 AM 15.53 59.954 0.187 7.24 4.77 8.83
6/24/2021 8:30:00 AM 15.57 60.026 0.187 7.27 4.5 8.96
6/24/2021 8:45:00 AM 15.62 60.116 0.187 7.29 4.64 9.08
6/24/2021 9:00:00 AM 15.69 60.242 0.187 7.31 4.76 9.19
6/24/2021 9:15:00 AM 15.81 60.458 0.186 7.33 4.49 9.29
6/24/2021 9:30:00 AM 15.95 60.71 0.186 7.37 4.93 9.4
6/24/2021 9:45:00 AM 16.13 61.034 0.187 7.39 4.74 9.51
6/24/2021 10:00:00 AM 16.33 61.394 0.187 7.41 4.23 9.62
6/24/2021 10:15:00 AM 16.54 61.772 0.187 7.43 4.28 9.72
6/24/2021 10:30:00 AM 16.76 62.168 0.187 7.45 4.24 9.83
6/24/2021 10:45:00 AM 16.97 62.546 0.188 7.48 4.57 9.91
6/24/2021 11:00:00 AM 17.23 63.014 0.187 7.51 4.26 10.02
6/24/2021 11:15:00 AM 17.45 63.41 0.188 7.53 4.35 10.09
6/24/2021 11:30:00 AM 17.78 64.004 0.188 7.57 4.1 10.19
6/24/2021 11:45:00 AM 18.05 64.49 0.188 7.6 4.05 10.29
6/24/2021 12:00:00 PM 18.39 65.102 0.188 7.64 3.92 10.37
6/24/2021 12:15:00 PM 18.71 65.67799 0.188 7.66 4.12 10.44
6/24/2021 12:30:00 PM 19.03 66.254 0.188 7.7 4.09 10.49
6/24/2021 12:45:00 PM 19.32 66.776 0.188 7.73 4.15 10.56
6/24/2021 1:00:00 PM 19.65 67.37 0.187 7.77 4.03 10.6
6/24/2021 1:15:00 PM 19.97 67.946 0.187 7.81 3.81 10.63
6/24/2021 1:30:00 PM 20.2 68.36 0.188 7.83 3.95 10.68
6/24/2021 1:45:00 PM 20.5 68.9 0.188 7.89 4.02 10.71
6/24/2021 2:00:00 PM 20.76 69.368 0.188 7.91 4.09 10.74
6/24/2021 2:15:00 PM 21.02 69.836 0.188 7.92 4.15 10.78
6/24/2021 2:30:00 PM 21.23 70.214 0.188 7.96 3.96 10.79
6/24/2021 2:45:00 PM 21.44 70.592 0.188 7.99 3.92 10.8
6/24/2021 3:00:00 PM 21.65 70.97 0.188 8.01 4.1 10.83
6/24/2021 3:15:00 PM 21.8 71.24 0.188 8.04 3.82 10.8
6/24/2021 3:30:00 PM 22 71.6 0.188 8.06 3.86 10.78
6/24/2021 3:45:00 PM 22.09 71.762 0.188 8.07 3.98 10.72
6/24/2021 4:00:00 PM 22.2 71.96 0.188 8.07 3.88 10.68
6/24/2021 4:15:00 PM 22.27 72.086 0.188 8.08 4.13 10.64
6/24/2021 4:30:00 PM 22.34 72.212 0.189 8.09 3.82 10.57
6/24/2021 4:45:00 PM 22.34 72.212 0.189 8.07 3.81 10.5
6/24/2021 5:00:00 PM 22.3 72.14 0.189 8.05 3.9 10.4
6/24/2021 5:15:00 PM 22.33 72.194 0.189 8.04 4.02 10.33
6/24/2021 5:30:00 PM 22.36 72.248 0.19 8.03 3.87 10.25
6/24/2021 5:45:00 PM 22.28 72.104 0.19 7.99 4.2 10.14
6/24/2021 6:00:00 PM 22.19 71.942 0.19 7.97 4.35 10.05
6/24/2021 6:15:00 PM 22.05 71.69 0.19 7.91 4.07 9.92
6/24/2021 6:30:00 PM 21.94 71.492 0.19 7.87 3.97 9.78
6/24/2021 6:45:00 PM 21.82 71.276 0.191 7.84 4.44 9.66
6/24/2021 7:00:00 PM 21.7 71.06 0.191 7.79 4.26 9.54
6/24/2021 7:15:00 PM 21.58 70.844 0.191 7.76 4.03 9.45
6/24/2021 7:30:00 PM 21.44 70.592 0.191 7.72 4 9.33
6/24/2021 7:45:00 PM 21.33 70.394 0.192 7.69 4.07 9.21
6/24/2021 8:00:00 PM 21.23 70.214 0.192 7.66 4.2 9.11
6/24/2021 8:15:00 PM 21.14 70.052 0.192 7.63 4.23 9.01
6/24/2021 8:30:00 PM 21.05 69.89 0.192 7.6 4.29 8.9
6/24/2021 8:45:00 PM 20.95 69.71 0.193 7.56 4.7 8.78
6/24/2021 9:00:00 PM 20.85 69.53 0.193 7.53 4.85 8.69
6/24/2021 9:15:00 PM 20.77 69.386 0.193 7.53 4.66 8.61
6/24/2021 9:30:00 PM 20.66 69.188 0.193 7.49 4.77 8.49
6/24/2021 9:45:00 PM 20.55 68.99 0.193 7.47 5.27 8.37
6/24/2021 10:00:00 PM 20.43 68.774 0.194 7.44 5.11 8.27
6/24/2021 10:15:00 PM 20.3 68.54 0.194 7.42 4.93 8.17
6/24/2021 10:30:00 PM 20.17 68.306 0.194 7.39 6.36 8.07
6/24/2021 10:45:00 PM 20.05 68.09 0.194 7.38 5.82 8.01
6/24/2021 11:00:00 PM 19.92 67.856 0.194 7.37 5.77 7.97
6/24/2021 11:15:00 PM 19.77 67.586 0.195 7.34 7.26 7.89
6/24/2021 11:30:00 PM 19.65 67.37 0.195 7.33 5.3 7.86
6/24/2021 11:45:00 PM 19.52 67.136 0.195 7.32 5.27 7.82
6/25/2021 12:00:00 AM 19.38 66.884 0.195 7.31 5.1 7.79
6/25/2021 12:15:00 AM 19.25 66.65 0.195 7.29 5.14 7.75
6/25/2021 12:30:00 AM 19.13 66.434 0.195 7.28 5.25 7.72
6/25/2021 12:45:00 AM 19.01 66.218 0.195 7.27 5.25 7.7
6/25/2021 1:00:00 AM 18.89 66.002 0.196 7.27 5.26 7.68
6/25/2021 1:15:00 AM 18.77 65.786 0.196 7.26 5.4 7.66
6/25/2021 1:30:00 AM 18.65 65.57 0.196 7.24 5.23 7.65
6/25/2021 1:45:00 AM 18.54 65.372 0.196 7.24 5.17 7.63
6/25/2021 2:00:00 AM 18.43 65.174 0.197 7.23 6.41 7.61
6/25/2021 2:15:00 AM 18.33 64.994 0.197 7.23 5.17 7.6
6/25/2021 2:30:00 AM 18.24 64.832 0.197 7.22 5.12 7.6
6/25/2021 2:45:00 AM 18.15 64.67 0.197 7.22 5.48 7.58
6/25/2021 3:00:00 AM 18.05 64.49 0.197 7.21 5.72 7.6
6/25/2021 3:15:00 AM 17.96 64.328 0.197 7.22 5.5 7.61
6/25/2021 3:30:00 AM 17.86 64.148 0.198 7.2 5.16 7.59
6/25/2021 3:45:00 AM 17.77 63.986 0.198 7.2 5.7 7.58
6/25/2021 4:00:00 AM 17.69 63.842 0.198 7.19 6.23 7.57
6/25/2021 4:15:00 AM 17.6 63.68 0.198 7.19 5.73 7.57
6/25/2021 4:30:00 AM 17.51 63.518 0.198 7.19 5.8 7.6
6/25/2021 4:45:00 AM 17.42 63.356 0.198 7.19 5.75 7.61
6/25/2021 5:00:00 AM 17.35 63.23 0.198 7.18 6.64 7.6
6/25/2021 5:15:00 AM 17.26 63.068 0.198 7.18 6.24 7.58
6/25/2021 5:30:00 AM 17.19 62.942 0.199 7.17 6 7.59
6/25/2021 5:45:00 AM 17.12 62.816 0.198 7.17 5.92 7.6
6/25/2021 6:00:00 AM 17.04 62.672 0.198 7.18 5.47 7.66
6/25/2021 6:15:00 AM 16.97 62.546 0.198 7.18 5.5 7.7
6/25/2021 6:30:00 AM 16.91 62.438 0.198 7.18 5.53 7.72
6/25/2021 6:45:00 AM 16.85 62.33 0.198 7.18 5.18 7.76
6/25/2021 7:00:00 AM 16.8 62.24 0.198 7.18 5 7.82
6/25/2021 7:15:00 AM 16.77 62.186 0.197 7.2 5.2 7.96
6/25/2021 7:30:00 AM 16.74 62.132 0.197 7.21 4.99 8.08
6/25/2021 7:45:00 AM 16.73 62.114 0.197 7.22 5.09 8.19
6/25/2021 8:00:00 AM 16.74 62.132 0.196 7.24 5.24 8.38
6/25/2021 8:15:00 AM 16.77 62.186 0.196 7.26 5 8.55
6/25/2021 8:30:00 AM 16.81 62.258 0.195 7.29 4.97 8.73
6/25/2021 8:45:00 AM 16.87 62.366 0.196 7.31 4.63 8.88
6/25/2021 9:00:00 AM 16.94 62.492 0.195 7.34 5 9.04
6/25/2021 9:15:00 AM 17.05 62.69 0.195 7.37 5.62 9.22
6/25/2021 9:30:00 AM 17.17 62.906 0.195 7.41 5.17 9.36
6/25/2021 9:45:00 AM 17.32 63.176 0.195 7.45 4.95 9.53
6/25/2021 10:00:00 AM 17.48 63.464 0.195 7.48 4.78 9.66
6/25/2021 10:15:00 AM 17.66 63.788 0.195 7.51 4.62 9.79
6/25/2021 10:30:00 AM 17.88 64.184 0.195 7.55 4.5 9.93
6/25/2021 10:45:00 AM 18.15 64.67 0.195 7.6 4.48 10.05
6/25/2021 11:00:00 AM 18.31 64.958 0.195 7.61 4.27 10.16
6/25/2021 11:15:00 AM 18.53 65.354 0.196 7.64 4.48 10.24
6/25/2021 11:30:00 AM 18.84 65.912 0.196 7.7 4.71 10.35
6/25/2021 11:45:00 AM 19.15 66.47 0.196 7.74 4.29 10.46
6/25/2021 12:00:00 PM 19.36 66.848 0.196 7.75 4.47 10.54
6/25/2021 12:15:00 PM 19.66 67.388 0.196 7.81 4.27 10.61
6/25/2021 12:30:00 PM 19.94 67.892 0.196 7.84 4.44 10.67
6/25/2021 12:45:00 PM 20.24 68.432 0.196 7.9 4.29 10.74
6/25/2021 1:00:00 PM 20.48 68.864 0.196 7.91 4.34 10.8
6/25/2021 1:15:00 PM 20.76 69.368 0.196 7.98 4.14 10.86
6/25/2021 1:30:00 PM 21.03 69.854 0.197 8 4.29 10.93
6/25/2021 1:45:00 PM 21.3 70.34 0.196 8.04 4.14 10.96
6/25/2021 2:00:00 PM 21.54 70.772 0.196 8.1 4.06 10.99
6/25/2021 2:15:00 PM 21.75 71.15 0.197 8.1 4.22 11.04
6/25/2021 2:30:00 PM 21.96 71.528 0.197 8.14 4.01 11.07
6/25/2021 2:45:00 PM 22.05 71.69 0.196 8.17 4.2 11.08
6/25/2021 3:00:00 PM 22.17 71.906 0.196 8.21 3.99 11.11
6/25/2021 3:15:00 PM 22.31 72.158 0.196 8.25 3.87 11.12
6/25/2021 3:30:00 PM 22.51 72.518 0.196 8.3 3.97 11.12
6/25/2021 3:45:00 PM 22.53 72.554 0.195 8.3 3.78 11.1
6/25/2021 4:00:00 PM 22.56 72.608 0.195 8.3 3.87 11.06
6/25/2021 4:15:00 PM 22.67 72.806 0.195 8.33 3.77 11.07
6/25/2021 4:30:00 PM 22.71 72.878 0.196 8.33 4.04 11.01
6/25/2021 4:45:00 PM 22.83 73.094 0.196 8.33 4.01 11.01
6/25/2021 5:00:00 PM 22.85 73.13 0.195 8.34 3.86 10.93
6/25/2021 5:15:00 PM 22.77 72.986 0.195 8.31 4.11 10.8
6/25/2021 5:30:00 PM 22.75 72.95 0.195 8.3 3.74 10.71
6/25/2021 5:45:00 PM 22.79 73.022 0.196 8.29 4 10.64
6/25/2021 6:00:00 PM 22.77 72.986 0.196 8.26 4.12 10.5
6/25/2021 6:15:00 PM 22.74 72.932 0.196 8.23 3.84 10.4
6/25/2021 6:30:00 PM 22.62 72.716 0.196 8.18 4.1 10.21
6/25/2021 6:45:00 PM 22.56 72.608 0.196 8.13 4.87 10.11
6/25/2021 7:00:00 PM 22.45 72.41 0.196 8.08 4.22 9.94
6/25/2021 7:15:00 PM 22.39 72.302 0.196 8.02 4.01 9.84
6/25/2021 7:30:00 PM 22.31 72.158 0.193 7.98 4.48 9.68
6/25/2021 7:45:00 PM 22.23 72.014 0.196 7.94 3.93 9.63
6/25/2021 8:00:00 PM 22.14 71.852 0.196 7.91 4.14 9.53
6/25/2021 8:15:00 PM 22.05 71.69 0.197 7.87 4.11 9.44
6/25/2021 8:30:00 PM 21.97 71.546 0.197 7.83 4.26 9.33
6/25/2021 8:45:00 PM 21.89 71.402 0.197 7.79 4.21 9.22
6/25/2021 9:00:00 PM 21.81 71.258 0.197 7.75 4.38 9.1
6/25/2021 9:15:00 PM 21.7 71.06 0.197 7.71 4.26 8.94
6/25/2021 9:30:00 PM 21.59 70.862 0.198 7.66 4.77 8.78
6/25/2021 9:45:00 PM 21.49 70.682 0.198 7.62 4.89 8.6
6/25/2021 10:00:00 PM 21.39 70.502 0.198 7.58 4.68 8.45
6/25/2021 10:15:00 PM 21.29 70.32201 0.199 7.54 5.21 8.28
6/25/2021 10:30:00 PM 21.19 70.142 0.199 7.51 4.97 8.14
6/25/2021 10:45:00 PM 21.07 69.926 0.199 7.46 5.4 8.01
6/25/2021 11:00:00 PM 20.97 69.746 0.199 7.44 6.1 7.93
6/25/2021 11:15:00 PM 20.85 69.53 0.199 7.42 5.29 7.84
6/25/2021 11:30:00 PM 20.74 69.332 0.2 7.4 5.58 7.75
6/25/2021 11:45:00 PM 20.62 69.116 0.2 7.38 5.3 7.69
6/26/2021 12:00:00 AM 20.5 68.9 0.2 7.35 5.2 7.62
6/26/2021 12:15:00 AM 20.39 68.702 0.2 7.34 5.67 7.61
6/26/2021 12:30:00 AM 20.27 68.486 0.2 7.33 5.75 7.55
6/26/2021 12:45:00 AM 20.16 68.288 0.201 7.31 5.58 7.53
6/26/2021 1:00:00 AM 20.05 68.09 0.201 7.3 5.54 7.48
6/26/2021 1:15:00 AM 19.95 67.91 0.201 7.3 5.73 7.45
6/26/2021 1:30:00 AM 19.84 67.712 0.201 7.29 5.58 7.43
6/26/2021 1:45:00 AM 19.73 67.514 0.202 7.28 5.66 7.39
6/26/2021 2:00:00 AM 19.63 67.334 0.202 7.28 5.51 7.36
6/26/2021 2:15:00 AM 19.54 67.172 0.202 7.27 5.58 7.33
6/26/2021 2:30:00 AM 19.45 67.01 0.203 7.25 5.5 7.29
6/26/2021 2:45:00 AM 19.36 66.848 0.203 7.25 5.81 7.27
6/26/2021 3:00:00 AM 19.28 66.704 0.203 7.25 5.81 7.28
6/26/2021 3:15:00 AM 19.2 66.56 0.203 7.24 6.87 7.23
6/26/2021 3:30:00 AM 19.13 66.434 0.204 7.24 6.11 7.22
6/26/2021 3:45:00 AM 19.08 66.344 0.204 7.24 6.64 7.21
6/26/2021 4:00:00 AM 19.02 66.236 0.204 7.23 5.84 7.19
6/26/2021 4:15:00 AM 18.95 66.11 0.204 7.24 6.08 7.19
6/26/2021 4:30:00 AM 18.9 66.02 0.204 7.23 5.94 7.19
6/26/2021 4:45:00 AM 18.85 65.93 0.205 7.22 6.06 7.18
6/26/2021 5:00:00 AM 18.81 65.858 0.204 7.23 6.39 7.21
6/26/2021 5:15:00 AM 18.78 65.804 0.204 7.22 5.95 7.2
6/26/2021 5:30:00 AM 18.75 65.75 0.204 7.22 5.39 7.21
6/26/2021 5:45:00 AM 18.7 65.66 0.205 7.21 5.9 7.16
6/26/2021 6:00:00 AM 18.68 65.624 0.205 7.21 5.87 7.21
6/26/2021 6:15:00 AM 18.66 65.588 0.205 7.2 5.66 7.21
6/26/2021 6:30:00 AM 18.65 65.57 0.205 7.21 5.74 7.24
6/26/2021 6:45:00 AM 18.65 65.57 0.205 7.21 5.61 7.28
6/26/2021 7:00:00 AM 18.65 65.57 0.205 7.22 5.44 7.32
6/26/2021 7:15:00 AM 18.65 65.57 0.205 7.23 5.21 7.41
6/26/2021 7:30:00 AM 18.66 65.588 0.205 7.23 5.19 7.53
6/26/2021 7:45:00 AM 18.68 65.624 0.204 7.25 5.21 7.66
6/26/2021 8:00:00 AM 18.71 65.67799 0.204 7.25 5.18 7.81
6/26/2021 8:15:00 AM 18.76 65.768 0.205 7.28 4.86 7.94
6/26/2021 8:30:00 AM 18.82 65.876 0.204 7.29 4.77 8.09
6/26/2021 8:45:00 AM 18.88 65.984 0.204 7.32 5.07 8.25
6/26/2021 9:00:00 AM 18.92 66.056 0.204 7.33 4.99 8.39
6/26/2021 9:15:00 AM 19 66.2 0.204 7.37 4.79 8.57
6/26/2021 9:30:00 AM 19.1 66.38 0.203 7.4 4.87 8.82
6/26/2021 9:45:00 AM 19.23 66.614 0.203 7.43 4.78 9.04
6/26/2021 10:00:00 AM 19.35 66.83 0.203 7.47 4.88 9.19
6/26/2021 10:15:00 AM 19.38 66.884 0.203 7.48 5 9.25
6/26/2021 10:30:00 AM 19.45 67.01 0.203 7.5 5.23 9.33
6/26/2021 10:45:00 AM 19.6 67.28 0.203 7.55 4.9 9.49
6/26/2021 11:00:00 AM 19.77 67.586 0.203 7.59 4.81 9.62
6/26/2021 11:15:00 AM 19.94 67.892 0.203 7.63 4.71 9.76
6/26/2021 11:30:00 AM 20.11 68.198 0.203 7.66 4.47 9.92
6/26/2021 11:45:00 AM 20.28 68.504 0.203 7.72 4.39 10.02
6/26/2021 12:00:00 PM 20.48 68.864 0.203 7.78 4.55 10.18
6/26/2021 12:15:00 PM 20.73 69.314 0.203 7.82 4.47 10.31
6/26/2021 12:30:00 PM 20.89 69.602 0.203 7.87 4.39 10.42
6/26/2021 12:45:00 PM 21.02 69.836 0.203 7.93 4.42 10.52
6/26/2021 1:00:00 PM 21.15 70.07 0.203 7.96 4.31 10.59
6/26/2021 1:15:00 PM 21.4 70.52 0.203 8.01 4.28 10.69
6/26/2021 1:30:00 PM 21.67 71.006 0.203 8.08 4.15 10.79
6/26/2021 1:45:00 PM 21.91 71.438 0.203 8.14 4.05 10.82
6/26/2021 2:00:00 PM 21.98 71.564 0.203 8.15 4.23 10.89
6/26/2021 2:15:00 PM 22.12 71.816 0.202 8.19 4.29 10.93
6/26/2021 2:30:00 PM 22.43 72.374 0.202 8.24 4.2 10.97
6/26/2021 2:45:00 PM 22.85 73.13 0.203 8.29 4.17 11.01
6/26/2021 3:00:00 PM 23.03 73.454 0.202 8.31 4.2 11.02
6/26/2021 3:15:00 PM 23.13 73.634 0.202 8.32 4.06 11.02
6/26/2021 3:30:00 PM 23.31 73.958 0.202 8.35 4.06 11.04
6/26/2021 3:45:00 PM 23.47 74.246 0.202 8.36 4.08 11.03
6/26/2021 4:00:00 PM 23.68 74.624 0.202 8.38 3.97 11.01
6/26/2021 4:15:00 PM 23.77 74.786 0.202 8.38 3.92 11.01
6/26/2021 4:30:00 PM 23.79 74.82201 0.202 8.38 4.14 10.95
6/26/2021 4:45:00 PM 23.61 74.498 0.202 8.33 4.11 10.85
6/26/2021 5:00:00 PM 23.74 74.732 0.202 8.38 4.14 10.82
6/26/2021 5:15:00 PM 23.72 74.696 0.201 8.38 4.22 10.76
6/26/2021 5:30:00 PM 23.7 74.66 0.202 8.38 4.24 10.72
6/26/2021 5:45:00 PM 23.68 74.624 0.201 8.37 3.87 10.65
6/26/2021 6:00:00 PM 23.7 74.66 0.201 8.36 4.04 10.59
6/26/2021 6:15:00 PM 23.7 74.66 0.202 8.35 4 10.53
6/26/2021 6:30:00 PM 23.7 74.66 0.202 8.35 4.22 10.48
6/26/2021 6:45:00 PM 23.62 74.516 0.202 8.33 4.12 10.38
6/26/2021 7:00:00 PM 23.55 74.39 0.202 8.29 4.22 10.29
6/26/2021 7:15:00 PM 23.49 74.282 0.202 8.25 4.14 10.17
6/26/2021 7:30:00 PM 23.46 74.228 0.202 8.23 4.39 10.09
6/26/2021 7:45:00 PM 23.42 74.156 0.202 8.22 4.21 9.99
6/26/2021 8:00:00 PM 23.31 73.958 0.202 8.15 5.35 9.84
6/26/2021 8:15:00 PM 23.23 73.814 0.202 8.1 4.4 9.7
6/26/2021 8:30:00 PM 23.16 73.688 0.203 8.04 4.99 9.47
6/26/2021 8:45:00 PM 23.09 73.562 0.203 7.97 4.6 9.3
6/26/2021 9:00:00 PM 23.01 73.418 0.203 7.9 4.21 9.09
6/26/2021 9:15:00 PM 22.94 73.292 0.203 7.84 4.33 8.92
6/26/2021 9:30:00 PM 22.87 73.166 0.204 7.79 4.66 8.75
6/26/2021 9:45:00 PM 22.78 73.004 0.204 7.72 5.42 8.55
6/26/2021 10:00:00 PM 22.71 72.878 0.204 7.68 4.95 8.38
6/26/2021 10:15:00 PM 22.63 72.734 0.204 7.62 4.81 8.21
6/26/2021 10:30:00 PM 22.55 72.59 0.204 7.59 5.45 8.03
6/26/2021 10:45:00 PM 22.48 72.464 0.204 7.55 5.27 7.9
6/26/2021 11:00:00 PM 22.4 72.32 0.204 7.51 5.46 7.78
6/26/2021 11:15:00 PM 22.32 72.176 0.204 7.49 5.37 7.66
6/26/2021 11:30:00 PM 22.24 72.032 0.204 7.46 5.49 7.57
6/26/2021 11:45:00 PM 22.16 71.888 0.204 7.44 5.04 7.47
6/27/2021 12:00:00 AM 22.09 71.762 0.205 7.41 5.23 7.38
6/27/2021 12:15:00 AM 22.01 71.618 0.205 7.39 5.32 7.3
6/27/2021 12:30:00 AM 21.93 71.474 0.205 7.37 5.4 7.23
6/27/2021 12:45:00 AM 21.85 71.33 0.205 7.35 5.92 7.14
6/27/2021 1:00:00 AM 21.78 71.204 0.205 7.34 5.25 7.12
6/27/2021 1:15:00 AM 21.71 71.078 0.205 7.33 5.43 7.07
6/27/2021 1:30:00 AM 21.64 70.952 0.205 7.32 5.43 7.04
6/27/2021 1:45:00 AM 21.57 70.826 0.205 7.3 5.5 6.98
6/27/2021 2:00:00 AM 21.5 70.7 0.206 7.29 5.29 6.94
6/27/2021 2:15:00 AM 21.42 70.556 0.206 7.29 5.5 6.92
6/27/2021 2:30:00 AM 21.35 70.43 0.206 7.27 5.55 6.86
6/27/2021 2:45:00 AM 21.28 70.304 0.206 7.27 5.55 6.82
6/27/2021 3:00:00 AM 21.22 70.196 0.206 7.26 5.67 6.78
6/27/2021 3:15:00 AM 21.16 70.088 0.207 7.25 5.53 6.78
6/27/2021 3:30:00 AM 21.09 69.962 0.207 7.24 5.26 6.73
6/27/2021 3:45:00 AM 21.03 69.854 0.207 7.24 5.88 6.73
6/27/2021 4:00:00 AM 20.97 69.746 0.208 7.24 5.8 6.67
6/27/2021 4:15:00 AM 20.91 69.638 0.208 7.24 5.97 6.67
6/27/2021 4:30:00 AM 20.85 69.53 0.208 7.22 5.96 6.65
6/27/2021 4:45:00 AM 20.8 69.44 0.208 7.23 6.19 6.66
6/27/2021 5:00:00 AM 20.74 69.332 0.208 7.22 5.8 6.61
6/27/2021 5:15:00 AM 20.69 69.242 0.208 7.21 5.79 6.62
6/27/2021 5:30:00 AM 20.64 69.152 0.208 7.21 6.08 6.63
6/27/2021 5:45:00 AM 20.59 69.062 0.209 7.21 5.9 6.61
6/27/2021 6:00:00 AM 20.53 68.954 0.209 7.2 5.98 6.6
6/27/2021 6:15:00 AM 20.49 68.882 0.209 7.2 5.78 6.61
6/27/2021 6:30:00 AM 20.44 68.792 0.209 7.19 5.69 6.63
6/27/2021 6:45:00 AM 20.4 68.72 0.209 7.19 5.42 6.62
6/27/2021 7:00:00 AM 20.36 68.648 0.209 7.2 5.37 6.69
6/27/2021 7:15:00 AM 20.34 68.612 0.21 7.2 5.42 6.72
6/27/2021 7:30:00 AM 20.32 68.576 0.21 7.21 5.15 6.8
6/27/2021 7:45:00 AM 20.31 68.558 0.21 7.22 5.11 6.91
6/27/2021 8:00:00 AM 20.31 68.558 0.21 7.23 4.73 7.1
6/27/2021 8:15:00 AM 20.35 68.63 0.209 7.25 4.72 7.33
6/27/2021 8:30:00 AM 20.4 68.72 0.209 7.27 4.97 7.47
6/27/2021 8:45:00 AM 20.5 68.9 0.208 7.31 5.08 7.74
6/27/2021 9:00:00 AM 20.63 69.134 0.207 7.34 5.39 7.91
6/27/2021 9:15:00 AM 20.79 69.422 0.207 7.37 5.17 8.04
6/27/2021 9:30:00 AM 20.91 69.638 0.206 7.41 5.15 8.14
6/27/2021 9:45:00 AM 21.08 69.944 0.206 7.43 4.93 8.29
6/27/2021 10:00:00 AM 21.29 70.32201 0.205 7.46 4.9 8.43
6/27/2021 10:15:00 AM 21.48 70.664 0.205 7.49 5.21 8.56
6/27/2021 10:30:00 AM 21.73 71.114 0.205 7.53 4.87 8.7
6/27/2021 10:45:00 AM 21.97 71.546 0.204 7.57 4.78 8.84
6/27/2021 11:00:00 AM 22.26 72.068 0.204 7.61 4.69 8.98
6/27/2021 11:15:00 AM 22.41 72.338 0.203 7.64 4.71 9.09
6/27/2021 11:30:00 AM 22.71 72.878 0.203 7.7 4.57 9.24
6/27/2021 11:45:00 AM 22.77 72.986 0.203 7.72 4.73 9.39
6/27/2021 12:00:00 PM 22.86 73.148 0.204 7.77 4.45 9.49
6/27/2021 12:15:00 PM 22.96 73.328 0.205 7.83 4.53 9.63
6/27/2021 12:30:00 PM 23.19 73.742 0.207 7.88 4.42 9.73
6/27/2021 12:45:00 PM 23.43 74.174 0.209 7.95 4.47 9.82
6/27/2021 1:00:00 PM 23.65 74.57 0.212 7.98 4.34 9.92
6/27/2021 1:15:00 PM 23.91 75.038 0.214 8.04 4.31 9.98
6/27/2021 1:30:00 PM 24.23 75.614 0.217 8.09 4.25 10.05
6/27/2021 1:45:00 PM 24.68 76.424 0.221 8.16 4.38 10.16
6/27/2021 2:00:00 PM 24.77 76.586 0.222 8.17 4.26 10.23
6/27/2021 2:15:00 PM 24.94 76.892 0.225 8.21 4.19 10.27
6/27/2021 2:30:00 PM 25.13 77.234 0.227 8.22 4.35 10.32
6/27/2021 2:45:00 PM 25.23 77.414 0.229 8.23 3.98 10.29
6/27/2021 3:00:00 PM 25.27 77.486 0.231 8.24 4.12 10.29
6/27/2021 3:15:00 PM 25.37 77.666 0.233 8.27 4.03 10.28
6/27/2021 3:30:00 PM 25.4 77.72 0.234 8.27 4.09 10.29
6/27/2021 3:45:00 PM 25.44 77.792 0.236 8.28 4.03 10.27
6/27/2021 4:00:00 PM 25.51 77.918 0.237 8.29 3.89 10.23
6/27/2021 4:15:00 PM 25.55 77.99 0.238 8.3 3.97 10.2
6/27/2021 4:30:00 PM 25.69 78.242 0.239 8.32 4.15 10.22
6/27/2021 4:45:00 PM 25.71 78.278 0.24 8.3 4.37 10.15
6/27/2021 5:00:00 PM 25.81 78.458 0.241 8.31 3.97 10.14
6/27/2021 5:15:00 PM 25.79 78.422 0.242 8.3 4.1 10.05
6/27/2021 5:30:00 PM 25.77 78.386 0.242 8.28 4.5 9.97
6/27/2021 5:45:00 PM 25.75 78.35 0.243 8.27 4.21 9.91
6/27/2021 6:00:00 PM 25.66 78.188 0.243 8.24 4.22 9.77
6/27/2021 6:15:00 PM 25.57 78.026 0.243 8.22 4.28 9.66
6/27/2021 6:30:00 PM 25.5 77.9 0.244 8.18 4.35 9.55
6/27/2021 6:45:00 PM 25.42 77.756 0.244 8.15 4.17 9.44
6/27/2021 7:00:00 PM 25.34 77.612 0.245 8.13 4.26 9.32
6/27/2021 7:15:00 PM 25.25 77.45 0.245 8.1 4.21 9.2
6/27/2021 7:30:00 PM 25.16 77.288 0.245 8.07 4.31 9.08
6/27/2021 7:45:00 PM 25.07 77.126 0.246 8.03 4.6 8.95
6/27/2021 8:00:00 PM 25 77 0.246 7.98 4.41 8.8
6/27/2021 8:15:00 PM 24.93 76.874 0.246 7.94 4.44 8.65
6/27/2021 8:30:00 PM 24.85 76.73 0.247 7.9 4.26 8.48
6/27/2021 8:45:00 PM 24.79 76.622 0.247 7.86 4.32 8.35
6/27/2021 9:00:00 PM 24.71 76.478 0.247 7.82 4.44 8.21
6/27/2021 9:15:00 PM 24.63 76.334 0.247 7.78 5.68 8.05
6/27/2021 9:30:00 PM 24.55 76.19 0.247 7.75 5.02 7.9
6/27/2021 9:45:00 PM 24.46 76.028 0.248 7.7 5.25 7.75
6/27/2021 10:00:00 PM 24.38 75.884 0.248 7.66 5.28 7.61
6/27/2021 10:15:00 PM 24.29 75.722 0.248 7.63 5.19 7.5
6/27/2021 10:30:00 PM 24.2 75.56 0.248 7.6 5.68 7.4
6/27/2021 10:45:00 PM 24.12 75.416 0.248 7.58 5.59 7.29
6/27/2021 11:00:00 PM 24.03 75.254 0.249 7.55 5.47 7.21
6/27/2021 11:15:00 PM 23.95 75.11 0.249 7.53 5.45 7.13
6/27/2021 11:30:00 PM 23.87 74.966 0.249 7.51 5.31 7.07
6/27/2021 11:45:00 PM 23.79 74.82201 0.249 7.5 5.52 7
6/28/2021 12:00:00 AM 23.72 74.696 0.249 7.48 5.77 6.95
6/28/2021 12:15:00 AM 23.64 74.552 0.249 7.47 5.81 6.89
6/28/2021 12:30:00 AM 23.58 74.444 0.249 7.45 5.41 6.84
6/28/2021 12:45:00 AM 23.51 74.318 0.249 7.44 5.85 6.78
6/28/2021 1:00:00 AM 23.46 74.228 0.249 7.43 5.75 6.75
6/28/2021 1:15:00 AM 23.4 74.12 0.25 7.42 5.7 6.71
6/28/2021 1:30:00 AM 23.34 74.012 0.25 7.41 5.4 6.68
6/28/2021 1:45:00 AM 23.28 73.904 0.25 7.4 5.64 6.66
6/28/2021 2:00:00 AM 23.23 73.814 0.25 7.4 5.88 6.61
6/28/2021 2:15:00 AM 23.17 73.706 0.25 7.38 5.7 6.6
6/28/2021 2:30:00 AM 23.12 73.616 0.25 7.38 6.06 6.58
6/28/2021 2:45:00 AM 23.07 73.526 0.25 7.37 6.16 6.57
6/28/2021 3:00:00 AM 23.02 73.436 0.249 7.37 5.81 6.55
6/28/2021 3:15:00 AM 22.97 73.346 0.249 7.36 5.75 6.56
6/28/2021 3:30:00 AM 22.92 73.256 0.249 7.36 5.77 6.55
6/28/2021 3:45:00 AM 22.87 73.166 0.249 7.35 5.59 6.55
6/28/2021 4:00:00 AM 22.82 73.076 0.249 7.35 5.86 6.54
6/28/2021 4:15:00 AM 22.77 72.986 0.248 7.34 5.63 6.55
6/28/2021 4:30:00 AM 22.72 72.896 0.248 7.35 6.01 6.53
6/28/2021 4:45:00 AM 22.66 72.788 0.248 7.34 5.83 6.51
6/28/2021 5:00:00 AM 22.62 72.716 0.248 7.33 5.96 6.5
6/28/2021 5:15:00 AM 22.57 72.626 0.247 7.32 6.03 6.51
6/28/2021 5:30:00 AM 22.52 72.536 0.247 7.32 5.95 6.52
6/28/2021 5:45:00 AM 22.46 72.42799 0.247 7.31 5.85 6.55
6/28/2021 6:00:00 AM 22.41 72.338 0.246 7.31 5.79 6.58
6/28/2021 6:15:00 AM 22.35 72.23 0.246 7.31 5.65 6.56
6/28/2021 6:30:00 AM 22.33 72.194 0.245 7.31 5.46 6.62
6/28/2021 6:45:00 AM 22.28 72.104 0.245 7.31 5.41 6.62
6/28/2021 7:00:00 AM 22.25 72.05 0.244 7.31 5.51 6.7
6/28/2021 7:15:00 AM 22.24 72.032 0.244 7.33 5.46 6.79
6/28/2021 7:30:00 AM 22.22 71.996 0.243 7.34 5.46 6.92
6/28/2021 7:45:00 AM 22.21 71.978 0.242 7.34 5.08 7.03
6/28/2021 8:00:00 AM 22.22 71.996 0.242 7.35 5.07 7.14
6/28/2021 8:15:00 AM 22.25 72.05 0.241 7.37 5.15 7.32
6/28/2021 8:30:00 AM 22.29 72.122 0.241 7.39 5.12 7.49
6/28/2021 8:45:00 AM 22.35 72.23 0.24 7.41 5.11 7.59
6/28/2021 9:00:00 AM 22.46 72.42799 0.239 7.43 4.81 7.76
6/28/2021 9:15:00 AM 22.57 72.626 0.239 7.46 4.9 7.91
6/28/2021 9:30:00 AM 22.69 72.842 0.238 7.5 5.06 8.08
6/28/2021 9:45:00 AM 22.84 73.112 0.237 7.53 5.01 8.22
6/28/2021 10:00:00 AM 22.94 73.292 0.237 7.55 4.75 8.37
6/28/2021 10:15:00 AM 23.09 73.562 0.237 7.58 4.85 8.52
6/28/2021 10:30:00 AM 23.34 74.012 0.236 7.63 4.66 8.67
6/28/2021 10:45:00 AM 23.59 74.462 0.236 7.65 4.49 8.81
6/28/2021 11:00:00 AM 23.77 74.786 0.236 7.68 4.48 8.94
6/28/2021 11:15:00 AM 23.94 75.092 0.236 7.72 4.54 9.09
6/28/2021 11:30:00 AM 24.26 75.668 0.235 7.79 4.45 9.28
6/28/2021 11:45:00 AM 24.64 76.352 0.235 7.83 4.24 9.45
6/28/2021 12:00:00 PM 24.93 76.874 0.235 7.86 4.26 9.5
6/28/2021 12:15:00 PM 25.31 77.558 0.234 7.91 4.49 9.68
6/28/2021 12:30:00 PM 25.54 77.972 0.234 7.96 4.35 9.75
6/28/2021 12:45:00 PM 25.76 78.368 0.234 8 4.16 9.81
6/28/2021 1:00:00 PM 26.19 79.142 0.234 8.04 4.19 9.95
6/28/2021 1:15:00 PM 26.33 79.394 0.233 8.07 4.21 9.96
6/28/2021 1:30:00 PM 26.56 79.808 0.233 8.09 3.98 10.1
6/28/2021 1:45:00 PM 26.8 80.24 0.233 8.16 4.13 10.17
6/28/2021 2:00:00 PM 27.03 80.654 0.233 8.2 4 10.23
6/28/2021 2:15:00 PM 27.2 80.96 0.233 8.24 3.97 10.28
6/28/2021 2:30:00 PM 27.27 81.086 0.233 8.22 4.16 10.31
6/28/2021 2:45:00 PM 27.54 81.57201 0.232 8.29 3.83 10.35
6/28/2021 3:00:00 PM 27.71 81.878 0.232 8.32 3.92 10.4
6/28/2021 3:15:00 PM 27.81 82.058 0.231 8.35 4.14 10.35
6/28/2021 3:30:00 PM 27.93 82.274 0.231 8.35 4.01 10.34
6/28/2021 3:45:00 PM 28.19 82.742 0.231 8.39 3.9 10.41
6/28/2021 4:00:00 PM 28.21 82.778 0.23 8.4 3.99 10.34
6/28/2021 4:15:00 PM 28.33 82.994 0.23 8.41 3.74 10.34
6/28/2021 4:30:00 PM 28.39 83.102 0.229 8.42 3.9 10.26
6/28/2021 4:45:00 PM 28.49 83.282 0.229 8.43 3.96 10.22
6/28/2021 5:00:00 PM 28.4 83.12 0.228 8.38 3.92 10.05
6/28/2021 5:15:00 PM 28.33 82.994 0.228 8.38 4.13 10.01
6/28/2021 5:30:00 PM 28.26 82.868 0.228 8.37 3.97 9.91
6/28/2021 5:45:00 PM 28.05 82.49 0.228 8.32 4.03 9.69
6/28/2021 6:00:00 PM 27.86 82.148 0.228 8.26 3.79 9.49
6/28/2021 6:15:00 PM 27.77 81.986 0.227 8.25 4.18 9.44
6/28/2021 6:30:00 PM 27.61 81.698 0.227 8.2 4.22 9.28
6/28/2021 6:45:00 PM 27.47 81.446 0.227 8.16 4.09 9.11
6/28/2021 7:00:00 PM 27.36 81.248 0.226 8.12 4.09 9
6/28/2021 7:15:00 PM 27.22 80.996 0.226 8.08 3.91 8.93
6/28/2021 7:30:00 PM 27.09 80.762 0.226 8.04 4.1 8.84
6/28/2021 7:45:00 PM 26.97 80.546 0.226 8.03 4.03 8.81
6/28/2021 8:00:00 PM 26.84 80.312 0.226 7.97 4.1 8.66
6/28/2021 8:15:00 PM 26.73 80.114 0.225 7.94 4.26 8.53
6/28/2021 8:30:00 PM 26.63 79.934 0.225 7.9 4.32 8.38
6/28/2021 8:45:00 PM 26.52 79.736 0.224 7.85 4.44 8.23
6/28/2021 9:00:00 PM 26.41 79.538 0.224 7.8 4.84 8.05
6/28/2021 9:15:00 PM 26.32 79.376 0.224 7.75 4.7 7.85
6/28/2021 9:30:00 PM 26.22 79.196 0.223 7.7 4.51 7.67
6/28/2021 9:45:00 PM 26.11 78.998 0.223 7.65 4.58 7.48
6/28/2021 10:00:00 PM 26.01 78.818 0.223 7.61 4.83 7.32
6/28/2021 10:15:00 PM 25.9 78.62 0.223 7.57 5.9 7.17
6/28/2021 10:30:00 PM 25.8 78.44 0.222 7.54 4.95 7.02
6/28/2021 10:45:00 PM 25.69 78.242 0.221 7.51 4.69 6.93
6/28/2021 11:00:00 PM 25.58 78.044 0.221 7.48 5.08 6.84
6/28/2021 11:15:00 PM 25.47 77.846 0.221 7.45 5.24 6.71
6/28/2021 11:30:00 PM 25.35 77.63 0.22 7.44 4.86 6.66
6/28/2021 11:45:00 PM 25.25 77.45 0.22 7.41 5.55 6.58
6/29/2021 12:00:00 AM 25.13 77.234 0.219 7.4 7.68 6.54
6/29/2021 12:15:00 AM 25.04 77.07201 0.218 7.38 6.1 6.47
6/29/2021 12:30:00 AM 24.94 76.892 0.218 7.36 5.48 6.42
6/29/2021 12:45:00 AM 24.83 76.694 0.218 7.36 5.54 6.42
6/29/2021 1:00:00 AM 24.74 76.532 0.217 7.34 5.26 6.37
6/29/2021 1:15:00 AM 24.64 76.352 0.217 7.33 5.51 6.29
6/29/2021 1:30:00 AM 24.54 76.172 0.216 7.32 5.46 6.29
6/29/2021 1:45:00 AM 24.45 76.01 0.216 7.31 5.62 6.26
6/29/2021 2:00:00 AM 24.36 75.848 0.216 7.3 5.57 6.21
6/29/2021 2:15:00 AM 24.26 75.668 0.215 7.29 5.63 6.17
6/29/2021 2:30:00 AM 24.18 75.524 0.215 7.28 5.66 6.17
6/29/2021 2:45:00 AM 24.08 75.344 0.214 7.27 5.72 6.18
6/29/2021 3:00:00 AM 24.01 75.218 0.214 7.26 5.72 6.16
6/29/2021 3:15:00 AM 23.94 75.092 0.214 7.26 5.76 6.12
6/29/2021 3:30:00 AM 23.86 74.948 0.213 7.25 6.53 6.05
6/29/2021 3:45:00 AM 23.79 74.82201 0.213 7.24 6 6.08
6/29/2021 4:00:00 AM 23.72 74.696 0.212 7.24 5.58 6.08
6/29/2021 4:15:00 AM 23.64 74.552 0.212 7.23 5.66 6.08
6/29/2021 4:30:00 AM 23.59 74.462 0.212 7.23 5.77 6.05
6/29/2021 4:45:00 AM 23.5 74.3 0.211 7.22 6.03 6.03
6/29/2021 5:00:00 AM 23.45 74.21 0.211 7.23 6.27 6.01
6/29/2021 5:15:00 AM 23.39 74.102 0.211 7.22 6.14 6.01
6/29/2021 5:30:00 AM 23.34 74.012 0.21 7.21 6.36 6.01
6/29/2021 5:45:00 AM 23.27 73.886 0.21 7.21 6.01 6
6/29/2021 6:00:00 AM 23.24 73.832 0.21 7.21 6.15 5.99
6/29/2021 6:15:00 AM 23.18 73.724 0.209 7.21 5.76 5.98
6/29/2021 6:30:00 AM 23.13 73.634 0.209 7.2 5.68 6.02
6/29/2021 6:45:00 AM 23.1 73.58 0.209 7.21 5.67 6.07
6/29/2021 7:00:00 AM 23.07 73.526 0.208 7.21 5.81 6.09
6/29/2021 7:15:00 AM 23.04 73.472 0.208 7.21 5.72 6.12
6/29/2021 7:30:00 AM 23 73.4 0.208 7.21 5.49 6.15
6/29/2021 7:45:00 AM 22.98 73.364 0.207 7.22 5.96 6.24
6/29/2021 8:00:00 AM 22.98 73.364 0.207 7.22 5.62 6.34
6/29/2021 8:15:00 AM 22.95 73.31 0.207 7.24 5.28 6.5
6/29/2021 8:30:00 AM 23 73.4 0.206 7.27 5.01 6.76
6/29/2021 8:45:00 AM 23.05 73.49 0.206 7.28 5.1 6.95
6/29/2021 9:00:00 AM 23.13 73.634 0.205 7.31 4.84 7.15
6/29/2021 9:15:00 AM 23.4 74.12 0.205 7.36 4.86 7.41
6/29/2021 9:30:00 AM 23.7 74.66 0.205 7.39 5.18 7.44
6/29/2021 9:45:00 AM 23.87 74.966 0.204 7.41 4.91 7.72
6/29/2021 10:00:00 AM 23.97 75.146 0.203 7.44 4.76 7.89
6/29/2021 10:15:00 AM 24.15 75.47 0.203 7.49 4.9 8.15
6/29/2021 10:30:00 AM 24.33 75.794 0.202 7.52 4.57 8.35
6/29/2021 10:45:00 AM 24.29 75.722 0.203 7.52 4.54 8.51
6/29/2021 11:00:00 AM 24.42 75.956 0.203 7.53 4.7 8.6
6/29/2021 11:15:00 AM 24.89 76.802 0.203 7.59 5.16 8.68
6/29/2021 11:30:00 AM 24.85 76.73 0.202 7.6 4.75 8.84
6/29/2021 11:45:00 AM 25.03 77.054 0.203 7.61 5.09 8.9
6/29/2021 12:00:00 PM 25.32 77.576 0.203 7.65 5.09 8.98
6/29/2021 12:15:00 PM 25.62 78.116 0.202 7.7 5.11 9.2
6/29/2021 12:30:00 PM 25.79 78.422 0.202 7.73 5.32 9.28
6/29/2021 12:45:00 PM 26.09 78.962 0.202 7.76 5.17 9.37
6/29/2021 1:00:00 PM 26.68 80.024 0.201 7.9 4.39 9.64
6/29/2021 1:15:00 PM 26.4 79.52 0.202 7.86 5.09 9.65
6/29/2021 1:30:00 PM 26.79 80.222 0.202 7.87 4.86 9.69
6/29/2021 1:45:00 PM 27.03 80.654 0.202 7.91 4.87 9.72
6/29/2021 2:00:00 PM 26.85 80.33 0.202 7.85 4.9 9.74
6/29/2021 2:15:00 PM 27.85 82.13 0.201 8.11 4.99 10.07
6/29/2021 2:30:00 PM 27.96 82.328 0.201 8.11 4.93 10.18
6/29/2021 2:45:00 PM 27.91 82.238 0.201 8.14 4.83 10.17
6/29/2021 3:00:00 PM 28.7 83.66 0.2 8.28 4.53 10.32
6/29/2021 3:15:00 PM 28.56 83.408 0.2 8.21 4.21 10.43
6/29/2021 3:30:00 PM 28.76 83.768 0.201 8.28 4.95 10.42
6/29/2021 3:45:00 PM 28.99 84.182 0.2 8.32 4.53 10.36
6/29/2021 4:00:00 PM 28.91 84.038 0.2 8.33 4.36 10.41
6/29/2021 4:15:00 PM 29.19 84.542 0.2 8.37 4.17 10.34
6/29/2021 4:30:00 PM 29.02 84.236 0.2 8.3 4.32 10.23
6/29/2021 4:45:00 PM 29.17 84.506 0.199 8.36 4.12 10.25
6/29/2021 5:00:00 PM 29.34 84.812 0.199 8.37 4.24 10.2
6/29/2021 5:15:00 PM 29.42 84.956 0.199 8.38 4.54 10.18
6/29/2021 5:30:00 PM 29.48 85.064 0.199 8.4 3.96 10.09
6/29/2021 5:45:00 PM 29.31 84.758 0.199 8.35 4.78 9.96
6/29/2021 6:00:00 PM 29.41 84.938 0.199 8.36 4.43 9.88
6/29/2021 6:15:00 PM 29.36 84.848 0.199 8.34 4.74 9.77
6/29/2021 6:30:00 PM 29.25 84.65 0.199 8.31 4.34 9.68
6/29/2021 6:45:00 PM 29.15 84.47 0.199 8.27 4.66 9.53
6/29/2021 7:00:00 PM 29 84.2 0.199 8.2 4.27 9.28
6/29/2021 7:15:00 PM 28.87 83.966 0.199 8.16 4.67 9.14
6/29/2021 7:30:00 PM 28.68 83.624 0.199 8.11 4.43 8.99
6/29/2021 7:45:00 PM 28.55 83.39 0.199 8.06 4.36 8.81
6/29/2021 8:00:00 PM 28.44 83.192 0.199 8 4.64 8.64
6/29/2021 8:15:00 PM 28.34 83.012 0.199 7.94 4.62 8.44
6/29/2021 8:30:00 PM 27.91 82.238 0.194 7.84 9.17 8.18
6/29/2021 8:45:00 PM 27.59 81.662 0.193 7.79 8.54 8.05
6/29/2021 9:00:00 PM 27.35 81.23 0.191 7.72 10.24 7.83
6/29/2021 9:15:00 PM 27.29 81.122 0.194 7.65 9.36 7.55
6/29/2021 9:30:00 PM 26.99 80.582 0.19 7.58 11.77 7.38
6/29/2021 9:45:00 PM 26.67 80.006 0.185 7.54 9.3 7.37
6/29/2021 10:00:00 PM 26.48 79.664 0.184 7.49 11.03 7.2
6/29/2021 10:15:00 PM 26.36 79.448 0.183 7.44 13.6 7.06
6/29/2021 10:30:00 PM 26.19 79.142 0.18 7.41 15.19 6.98
6/29/2021 10:45:00 PM 26.06 78.908 0.177 7.39 14.01 6.91
6/29/2021 11:00:00 PM 26 78.8 0.177 7.37 13.68 6.85
6/29/2021 11:15:00 PM 25.96 78.728 0.178 7.35 14.09 6.73
6/29/2021 11:30:00 PM 25.93 78.674 0.179 7.33 13.05 6.67
6/29/2021 11:45:00 PM 25.89 78.602 0.181 7.32 12.5 6.58
6/30/2021 12:00:00 AM 25.82 78.476 0.183 7.31 11.58 6.52
6/30/2021 12:15:00 AM 25.68 78.224 0.184 7.28 10.92 6.52
6/30/2021 12:30:00 AM 25.54 77.972 0.183 7.26 10.68 6.49
6/30/2021 12:45:00 AM 25.42 77.756 0.182 7.25 9.79 6.43
6/30/2021 1:00:00 AM 25.33 77.594 0.181 7.25 10.21 6.4
6/30/2021 1:15:00 AM 25.26 77.468 0.18 7.23 9.98 6.37
6/30/2021 1:30:00 AM 25.18 77.324 0.179 7.23 9.88 6.4
6/30/2021 1:45:00 AM 25.1 77.18 0.178 7.23 9.69 6.37
6/30/2021 2:00:00 AM 25.01 77.018 0.178 7.23 9.88 6.39
6/30/2021 2:15:00 AM 24.93 76.874 0.178 7.22 9.56 6.36
6/30/2021 2:30:00 AM 24.86 76.748 0.177 7.22 9.94 6.34
6/30/2021 2:45:00 AM 24.78 76.604 0.176 7.21 8.84 6.35
6/30/2021 3:00:00 AM 24.72 76.496 0.176 7.2 9.49 6.31
6/30/2021 3:15:00 AM 24.66 76.388 0.176 7.19 9.74 6.3
6/30/2021 3:30:00 AM 24.6 76.28 0.176 7.18 9.55 6.27
6/30/2021 3:45:00 AM 24.55 76.19 0.176 7.19 9.76 6.27
6/30/2021 4:00:00 AM 24.49 76.082 0.177 7.18 9.57 6.25
6/30/2021 4:15:00 AM 24.45 76.01 0.178 7.18 10.03 6.27
6/30/2021 4:30:00 AM 24.39 75.902 0.178 7.17 9.77 6.27
6/30/2021 4:45:00 AM 24.34 75.812 0.18 7.18 9.23 6.28
6/30/2021 5:00:00 AM 24.3 75.74 0.181 7.18 9.76 6.22
6/30/2021 5:15:00 AM 24.25 75.65 0.182 7.18 9.49 6.26
6/30/2021 5:30:00 AM 24.2 75.56 0.183 7.18 9.73 6.26
6/30/2021 5:45:00 AM 24.14 75.452 0.184 7.18 9 6.29
6/30/2021 6:00:00 AM 24.08 75.344 0.185 7.18 9.12 6.29
6/30/2021 6:15:00 AM 24.03 75.254 0.186 7.18 8.83 6.29
6/30/2021 6:30:00 AM 23.96 75.128 0.187 7.18 9.39 6.34
6/30/2021 6:45:00 AM 23.92 75.056 0.188 7.18 8.98 6.35
6/30/2021 7:00:00 AM 23.87 74.966 0.188 7.18 8.52 6.41
6/30/2021 7:15:00 AM 23.82 74.876 0.189 7.19 9.43 6.49
6/30/2021 7:30:00 AM 23.78 74.804 0.19 7.2 8.96 6.52
6/30/2021 7:45:00 AM 23.74 74.732 0.191 7.21 8.86 6.65
6/30/2021 8:00:00 AM 23.72 74.696 0.191 7.21 8.52 6.72
6/30/2021 8:15:00 AM 23.69 74.642 0.192 7.22 8.53 6.8
6/30/2021 8:30:00 AM 23.69 74.642 0.192 7.24 8.37 6.93
6/30/2021 8:45:00 AM 23.7 74.66 0.193 7.26 8.14 7.04
6/30/2021 9:00:00 AM 23.75 74.75 0.193 7.28 8.23 7.23
6/30/2021 9:15:00 AM 23.8 74.84 0.193 7.29 8.05 7.36
6/30/2021 9:30:00 AM 23.91 75.038 0.194 7.32 8.18 7.51
6/30/2021 9:45:00 AM 24.06 75.308 0.194 7.35 8.03 7.67
6/30/2021 10:00:00 AM 24.2 75.56 0.194 7.37 7.98 7.83
6/30/2021 10:15:00 AM 24.26 75.668 0.195 7.38 7.94 7.95
6/30/2021 10:30:00 AM 24.33 75.794 0.195 7.4 7.74 8.09
6/30/2021 10:45:00 AM 24.44 75.992 0.196 7.43 7.94 8.23
6/30/2021 11:00:00 AM 24.53 76.154 0.195 7.46 7.86 8.37
6/30/2021 11:15:00 AM 24.79 76.622 0.195 7.5 7.68 8.56
6/30/2021 11:30:00 AM 24.96 76.92799 0.195 7.56 7.87 8.76
6/30/2021 11:45:00 AM 25.01 77.018 0.195 7.59 8.11 8.91
6/30/2021 12:00:00 PM 25.37 77.666 0.195 7.65 8.17 9.06
6/30/2021 12:15:00 PM 25.7 78.26 0.196 7.68 8.4 9.17
6/30/2021 12:30:00 PM 25.7 78.26 0.195 7.69 8.68 9.23
6/30/2021 12:45:00 PM 25.83 78.494 0.195 7.75 10.33 9.31
6/30/2021 1:00:00 PM 26.2 79.16 0.195 7.8 10.39 9.45
6/30/2021 1:15:00 PM 26.44 79.592 0.196 7.82 10.11 9.52
6/30/2021 1:30:00 PM 26.61 79.898 0.195 7.87 11.98 9.6
6/30/2021 1:45:00 PM 26.79 80.222 0.195 7.9 12.71 9.7
6/30/2021 2:00:00 PM 27.14 80.852 0.195 7.96 14.34 9.78
6/30/2021 2:15:00 PM 27.39 81.302 0.195 7.99 16.4 9.8
6/30/2021 2:30:00 PM 27.59 81.662 0.195 8.01 18.32 9.85
6/30/2021 2:45:00 PM 27.74 81.932 0.195 8.04 18.63 9.88
6/30/2021 3:00:00 PM 28 82.4 0.195 8.07 20.94 9.94
6/30/2021 3:15:00 PM 28.16 82.688 0.194 8.1 22.11 9.89
6/30/2021 3:30:00 PM 28.31 82.958 0.194 8.12 26.62 9.88
6/30/2021 3:45:00 PM 28.32 82.976 0.193 8.09 30.18 9.78
6/30/2021 4:00:00 PM 28.46 83.228 0.193 8.12 32.29 9.73
6/30/2021 4:15:00 PM 28.45 83.21001 0.193 8.08 36.57 9.64
6/30/2021 4:30:00 PM 28.26 82.868 0.193 8.02 33.99 9.45
6/30/2021 4:45:00 PM 28.27 82.886 0.193 8.01 37.12 9.41
6/30/2021 5:00:00 PM 28.26 82.868 0.193 7.99 39.44 9.3
6/30/2021 5:15:00 PM 28.18 82.724 0.193 7.95 39.96 9.17
6/30/2021 5:30:00 PM 28.05 82.49 0.193 7.88 36.48 8.96
6/30/2021 5:45:00 PM 27.96 82.328 0.193 7.86 48.97 8.92
6/30/2021 6:00:00 PM 27.88 82.184 0.193 7.85 50.69 8.87
6/30/2021 6:15:00 PM 27.68 81.824 0.194 7.79 47.6 8.67
6/30/2021 6:30:00 PM 27.53 81.554 0.194 7.72 45.31 8.42
6/30/2021 6:45:00 PM 27.42 81.356 0.194 7.68 55.69 8.3
6/30/2021 7:00:00 PM 27.29 81.122 0.194 7.64 49.41 8.17
6/30/2021 7:15:00 PM 27.17 80.906 0.194 7.6 54.06 8
6/30/2021 7:30:00 PM 27.06 80.708 0.194 7.57 47.68 7.85
6/30/2021 7:45:00 PM 26.92 80.456 0.195 7.52 53.81 7.68
6/30/2021 8:00:00 PM 26.79 80.222 0.195 7.48 53.34 7.5
6/30/2021 8:15:00 PM 26.67 80.006 0.195 7.46 53.43 7.34
6/30/2021 8:30:00 PM 26.55 79.79 0.196 7.41 48.18 7.16
6/30/2021 8:45:00 PM 26.44 79.592 0.196 7.39 58.53 7.01
6/30/2021 9:00:00 PM 26.32 79.376 0.196 7.36 48.42 6.86
6/30/2021 9:15:00 PM 26.19 79.142 0.196 7.33 52.56 6.74
6/30/2021 9:30:00 PM 26.08 78.944 0.196 7.31 49.62 6.65
6/30/2021 9:45:00 PM 25.95 78.71 0.197 7.3 46.9 6.53
6/30/2021 10:00:00 PM 25.87 78.566 0.197 7.28 38.5 6.47
6/30/2021 10:15:00 PM 25.76 78.368 0.197 7.26 44.72 6.41
6/30/2021 10:30:00 PM 25.66 78.188 0.197 7.26 39.98 6.35
6/30/2021 10:45:00 PM 25.56 78.008 0.198 7.24 43.36 6.27
6/30/2021 11:00:00 PM 25.46 77.828 0.198 7.23 44.37 6.26
6/30/2021 11:15:00 PM 25.36 77.648 0.198 7.23 39.29 6.22
6/30/2021 11:30:00 PM 25.26 77.468 0.198 7.22 40.09 6.19
6/30/2021 11:45:00 PM 25.16 77.288 0.198 7.21 32.59 6.15
7/1/2021 12:00:00 AM 25.08 77.144 0.198 7.2 32.11 6.15
7/1/2021 12:15:00 AM 24.98 76.964 0.199 7.19 30.78 6.1
7/1/2021 12:30:00 AM 24.89 76.802 0.199 7.19 35.61 6.09
7/1/2021 12:45:00 AM 24.81 76.658 0.199 7.19 29.09 6.07
7/1/2021 1:00:00 AM 24.72 76.496 0.2 7.18 28.23 6.05
7/1/2021 1:15:00 AM 24.63 76.334 0.2 7.18 27.24 6.05
7/1/2021 1:30:00 AM 24.55 76.19 0.2 7.17 27.86 6.01
7/1/2021 1:45:00 AM 24.48 76.064 0.2 7.18 24.97 6.02
7/1/2021 2:00:00 AM 24.4 75.92 0.2 7.16 24.53 6.01
7/1/2021 2:15:00 AM 24.32 75.776 0.2 7.16 23.07 6.03
7/1/2021 2:30:00 AM 24.25 75.65 0.2 7.16 22.32 6
7/1/2021 2:45:00 AM 24.17 75.506 0.201 7.15 22.49 5.95
7/1/2021 3:00:00 AM 24.1 75.38 0.201 7.16 20.57 6.02
7/1/2021 3:15:00 AM 24.04 75.272 0.201 7.15 20.63 5.95
7/1/2021 3:30:00 AM 23.97 75.146 0.201 7.15 19.25 6
7/1/2021 3:45:00 AM 23.91 75.038 0.201 7.15 19.08 5.99
7/1/2021 4:00:00 AM 23.85 74.93 0.201 7.14 17.86 6.02
7/1/2021 4:15:00 AM 23.79 74.82201 0.201 7.14 18.45 5.98
7/1/2021 4:30:00 AM 23.74 74.732 0.201 7.14 17.72 6.02
7/1/2021 4:45:00 AM 23.67 74.606 0.201 7.14 17.22 5.96
7/1/2021 5:00:00 AM 23.63 74.534 0.201 7.13 16.79 6
7/1/2021 5:15:00 AM 23.57 74.426 0.201 7.13 14.98 6.01
7/1/2021 5:30:00 AM 23.53 74.354 0.2 7.13 14.76 6.06
7/1/2021 5:45:00 AM 23.48 74.264 0.2 7.15 15.08 6.1
7/1/2021 6:00:00 AM 23.43 74.174 0.2 7.14 14.89 6.06
7/1/2021 6:15:00 AM 23.4 74.12 0.2 7.13 13.83 6.07
7/1/2021 6:30:00 AM 23.36 74.048 0.2 7.15 14.22 6.1
7/1/2021 6:45:00 AM 23.31 73.958 0.2 7.13 14.06 6.1
7/1/2021 7:00:00 AM 23.28 73.904 0.2 7.14 13.24 6.15
7/1/2021 7:15:00 AM 23.25 73.85 0.2 7.14 12.99 6.17
7/1/2021 7:30:00 AM 23.22 73.796 0.199 7.15 12.47 6.26
7/1/2021 7:45:00 AM 23.2 73.76 0.199 7.15 12.36 6.28
7/1/2021 8:00:00 AM 23.17 73.706 0.2 7.15 12.01 6.29
7/1/2021 8:15:00 AM 23.14 73.652 0.199 7.16 11.25 6.4
7/1/2021 8:30:00 AM 23.12 73.616 0.199 7.17 11.11 6.48
7/1/2021 8:45:00 AM 23.13 73.634 0.199 7.19 11.01 6.66
7/1/2021 9:00:00 AM 23.15 73.67 0.199 7.2 10.22 6.79
7/1/2021 9:15:00 AM 23.14 73.652 0.199 7.21 10.37 6.84
7/1/2021 9:30:00 AM 23.15 73.67 0.199 7.22 9.82 6.99
7/1/2021 9:45:00 AM 23.18 73.724 0.199 7.24 9.9 7.17
7/1/2021 10:00:00 AM 23.21 73.778 0.199 7.25 9.66 7.37
7/1/2021 10:15:00 AM 23.24 73.832 0.199 7.28 9.99 7.52
7/1/2021 10:30:00 AM 23.27 73.886 0.198 7.3 9.28 7.67
7/1/2021 10:45:00 AM 23.31 73.958 0.198 7.33 9.23 7.9
7/1/2021 11:00:00 AM 23.35 74.03 0.198 7.35 8.89 8.05
7/1/2021 11:15:00 AM 23.39 74.102 0.198 7.39 8.9 8.24
7/1/2021 11:30:00 AM 23.42 74.156 0.198 7.41 9.27 8.37
7/1/2021 11:45:00 AM 23.44 74.192 0.198 7.43 8.33 8.52
7/1/2021 12:00:00 PM 23.47 74.246 0.198 7.46 8.32 8.6
7/1/2021 12:15:00 PM 23.5 74.3 0.198 7.48 8.48 8.67
7/1/2021 12:30:00 PM 23.52 74.336 0.198 7.5 8.12 8.74
7/1/2021 12:45:00 PM 23.6 74.48 0.198 7.53 8.42 8.83
7/1/2021 1:00:00 PM 23.59 74.462 0.199 7.53 7.99 8.86
7/1/2021 1:15:00 PM 23.63 74.534 0.198 7.57 7.97 8.99
7/1/2021 1:30:00 PM 23.68 74.624 0.198 7.61 7.93 9.09
7/1/2021 1:45:00 PM 23.73 74.714 0.198 7.65 7.91 9.21
7/1/2021 2:00:00 PM 23.71 74.67799 0.198 7.65 7.92 9.23
7/1/2021 2:15:00 PM 23.71 74.67799 0.197 7.68 7.42 9.29
7/1/2021 2:30:00 PM 23.71 74.67799 0.198 7.7 7.35 9.32
7/1/2021 2:45:00 PM 23.66 74.588 0.198 7.69 7.85 9.26
7/1/2021 3:00:00 PM 23.63 74.534 0.197 7.68 7.41 9.18
7/1/2021 3:15:00 PM 23.61 74.498 0.197 7.68 7.17 9.1
7/1/2021 3:30:00 PM 23.59 74.462 0.197 7.67 7.32 9.05
7/1/2021 3:45:00 PM 23.56 74.408 0.196 7.65 7.09 8.96
7/1/2021 4:00:00 PM 23.53 74.354 0.196 7.63 6.92 8.87
7/1/2021 4:15:00 PM 23.49 74.282 0.197 7.63 6.87 8.84
7/1/2021 4:30:00 PM 23.47 74.246 0.197 7.64 6.92 8.88
7/1/2021 4:45:00 PM 23.46 74.228 0.196 7.65 6.81 8.93
7/1/2021 5:00:00 PM 23.43 74.174 0.196 7.65 6.84 8.9
7/1/2021 5:15:00 PM 23.36 74.048 0.196 7.63 7.62 8.86
7/1/2021 5:30:00 PM 23.35 74.03 0.196 7.65 7.24 8.89
7/1/2021 5:45:00 PM 23.34 74.012 0.196 7.66 7.01 8.92
7/1/2021 6:00:00 PM 23.32 73.976 0.196 7.65 6.8 8.89
7/1/2021 6:15:00 PM 23.27 73.886 0.196 7.63 6.87 8.76
7/1/2021 6:30:00 PM 23.22 73.796 0.195 7.61 6.74 8.71
7/1/2021 6:45:00 PM 23.18 73.724 0.195 7.62 6.65 8.7
7/1/2021 7:00:00 PM 23.15 73.67 0.195 7.62 7 8.68
7/1/2021 7:15:00 PM 23.1 73.58 0.195 7.6 6.97 8.63
7/1/2021 7:30:00 PM 23.06 73.508 0.195 7.59 6.92 8.61
7/1/2021 7:45:00 PM 23 73.4 0.195 7.58 6.92 8.55
7/1/2021 8:00:00 PM 22.94 73.292 0.196 7.56 6.88 8.48
7/1/2021 8:15:00 PM 22.89 73.202 0.196 7.55 7.04 8.41
7/1/2021 8:30:00 PM 22.84 73.112 0.196 7.53 7.45 8.29
7/1/2021 8:45:00 PM 22.78 73.004 0.197 7.51 7.37 8.17
7/1/2021 9:00:00 PM 22.72 72.896 0.197 7.49 7.3 8.03
7/1/2021 9:15:00 PM 22.65 72.77 0.197 7.46 7.15 7.88
7/1/2021 9:30:00 PM 22.59 72.662 0.198 7.43 7.7 7.75
7/1/2021 9:45:00 PM 22.54 72.57201 0.198 7.41 7.5 7.62
7/1/2021 10:00:00 PM 22.48 72.464 0.198 7.39 7.9 7.5
7/1/2021 10:15:00 PM 22.42 72.356 0.199 7.36 7.76 7.4
7/1/2021 10:30:00 PM 22.35 72.23 0.199 7.35 8.15 7.29
7/1/2021 10:45:00 PM 22.3 72.14 0.199 7.33 7.97 7.24
7/1/2021 11:00:00 PM 22.24 72.032 0.199 7.31 7.95 7.17
7/1/2021 11:15:00 PM 22.19 71.942 0.2 7.3 8.21 7.14
7/1/2021 11:30:00 PM 22.14 71.852 0.2 7.29 8.11 7.07
7/1/2021 11:45:00 PM 22.09 71.762 0.2 7.28 8.05 7.03
7/2/2021 12:00:00 AM 22.03 71.654 0.2 7.28 8.51 6.99
7/2/2021 12:15:00 AM 21.97 71.546 0.2 7.26 8.25 6.98
7/2/2021 12:30:00 AM 21.91 71.438 0.2 7.26 8.65 6.96
7/2/2021 12:45:00 AM 21.86 71.348 0.201 7.24 8.39 6.92
7/2/2021 1:00:00 AM 21.79 71.222 0.201 7.23 8.53 6.9
7/2/2021 1:15:00 AM 21.73 71.114 0.201 7.22 8.25 6.87
7/2/2021 1:30:00 AM 21.67 71.006 0.201 7.23 8.4 6.84
7/2/2021 1:45:00 AM 21.62 70.916 0.201 7.22 8.82 6.83
7/2/2021 2:00:00 AM 21.56 70.808 0.201 7.21 8.43 6.82
7/2/2021 2:15:00 AM 21.5 70.7 0.202 7.21 8.28 6.8
7/2/2021 2:30:00 AM 21.45 70.61 0.202 7.21 8.45 6.78
7/2/2021 2:45:00 AM 21.41 70.538 0.202 7.21 8.15 6.8
7/2/2021 3:00:00 AM 21.35 70.43 0.202 7.2 8.37 6.77
7/2/2021 3:15:00 AM 21.3 70.34 0.202 7.2 8.2 6.79
7/2/2021 3:30:00 AM 21.26 70.268 0.202 7.2 8.39 6.77
7/2/2021 3:45:00 AM 21.21 70.17799 0.202 7.2 7.81 6.78
7/2/2021 4:00:00 AM 21.17 70.106 0.202 7.19 7.79 6.78
7/2/2021 4:15:00 AM 21.12 70.016 0.203 7.19 8.2 6.77
7/2/2021 4:30:00 AM 21.05 69.89 0.203 7.19 7.83 6.76
7/2/2021 4:45:00 AM 21.01 69.818 0.203 7.18 7.94 6.8
7/2/2021 5:00:00 AM 20.96 69.728 0.203 7.19 7.72 6.8
7/2/2021 5:15:00 AM 20.91 69.638 0.203 7.19 7.67 6.79
7/2/2021 5:30:00 AM 20.86 69.548 0.203 7.18 7.43 6.8
7/2/2021 5:45:00 AM 20.8 69.44 0.203 7.18 7.79 6.82
7/2/2021 6:00:00 AM 20.74 69.332 0.203 7.19 7.32 6.83
7/2/2021 6:15:00 AM 20.67 69.206 0.203 7.19 7.39 6.85
7/2/2021 6:30:00 AM 20.61 69.098 0.203 7.19 7.18 6.88
7/2/2021 6:45:00 AM 20.56 69.008 0.203 7.19 6.83 6.94
7/2/2021 7:00:00 AM 20.51 68.918 0.203 7.21 6.97 6.99
7/2/2021 7:15:00 AM 20.47 68.846 0.203 7.2 7.19 7.04
7/2/2021 7:30:00 AM 20.43 68.774 0.203 7.21 7.1 7.16
7/2/2021 7:45:00 AM 20.4 68.72 0.202 7.23 6.52 7.32
7/2/2021 8:00:00 AM 20.37 68.666 0.203 7.24 6.99 7.39
7/2/2021 8:15:00 AM 20.37 68.666 0.202 7.25 6.4 7.62
7/2/2021 8:30:00 AM 20.39 68.702 0.202 7.26 6.46 7.76
7/2/2021 8:45:00 AM 20.37 68.666 0.202 7.3 6.52 7.9
7/2/2021 9:00:00 AM 20.39 68.702 0.202 7.31 6.67 8.05
7/2/2021 9:15:00 AM 20.45 68.81 0.202 7.34 6.08 8.24
7/2/2021 9:30:00 AM 20.48 68.864 0.202 7.35 5.94 8.34
7/2/2021 9:45:00 AM 20.52 68.936 0.201 7.38 6.01 8.49
7/2/2021 10:00:00 AM 20.58 69.044 0.201 7.41 5.89 8.62
7/2/2021 10:15:00 AM 20.69 69.242 0.201 7.46 5.96 8.82
7/2/2021 10:30:00 AM 20.76 69.368 0.2 7.49 5.96 8.99
7/2/2021 10:45:00 AM 20.88 69.584 0.2 7.53 6.03 9.15
7/2/2021 11:00:00 AM 21.13 70.034 0.2 7.6 5.67 9.33
7/2/2021 11:15:00 AM 21.17 70.106 0.2 7.63 5.64 9.5
7/2/2021 11:30:00 AM 21.25 70.25 0.199 7.66 5.45 9.64
7/2/2021 11:45:00 AM 21.57 70.826 0.199 7.76 5.35 9.77
7/2/2021 12:00:00 PM 21.62 70.916 0.199 7.76 5.28 9.85
7/2/2021 12:15:00 PM 21.9 71.42 0.199 7.85 5.16 9.95
7/2/2021 12:30:00 PM 22.04 71.672 0.198 7.85 5.25 10.04
7/2/2021 12:45:00 PM 22.13 71.834 0.198 7.9 4.97 10.08
7/2/2021 1:00:00 PM 22.54 72.57201 0.198 7.97 4.97 10.17
7/2/2021 1:15:00 PM 22.62 72.716 0.198 7.98 4.94 10.24
7/2/2021 1:30:00 PM 22.67 72.806 0.198 7.98 4.8 10.26
7/2/2021 1:45:00 PM 23.01 73.418 0.198 8.04 4.64 10.35
7/2/2021 2:00:00 PM 23.26 73.868 0.198 8.09 4.72 10.4
7/2/2021 2:15:00 PM 23.5 74.3 0.198 8.14 4.84 10.45
7/2/2021 2:30:00 PM 23.57 74.426 0.198 8.16 4.39 10.48
7/2/2021 2:45:00 PM 23.79 74.82201 0.198 8.2 4.71 10.53
7/2/2021 3:00:00 PM 23.79 74.82201 0.197 8.2 4.49 10.51
7/2/2021 3:15:00 PM 23.96 75.128 0.197 8.23 4.42 10.51
7/2/2021 3:30:00 PM 23.93 75.074 0.197 8.21 4.33 10.47
7/2/2021 3:45:00 PM 24.02 75.236 0.196 8.24 4.32 10.46
7/2/2021 4:00:00 PM 24.1 75.38 0.196 8.25 4.44 10.44
7/2/2021 4:15:00 PM 24.14 75.452 0.196 8.26 4.29 10.41
7/2/2021 4:30:00 PM 24.15 75.47 0.196 8.26 4.36 10.36
7/2/2021 4:45:00 PM 24.18 75.524 0.196 8.26 4.42 10.35
7/2/2021 5:00:00 PM 24.17 75.506 0.196 8.25 4.46 10.33
7/2/2021 5:15:00 PM 24.16 75.488 0.196 8.25 4.12 10.3
7/2/2021 5:30:00 PM 24.17 75.506 0.195 8.26 4.32 10.27
7/2/2021 5:45:00 PM 24.17 75.506 0.196 8.26 4.21 10.27
7/2/2021 6:00:00 PM 24.1 75.38 0.196 8.24 4.29 10.19
7/2/2021 6:15:00 PM 23.95 75.11 0.196 8.21 4.36 10.08
7/2/2021 6:30:00 PM 23.86 74.948 0.195 8.19 4.38 9.95
7/2/2021 6:45:00 PM 23.77 74.786 0.195 8.16 4.35 9.81
7/2/2021 7:00:00 PM 23.66 74.588 0.195 8.1 4.23 9.66
7/2/2021 7:15:00 PM 23.55 74.39 0.196 8.05 4.35 9.51
7/2/2021 7:30:00 PM 23.44 74.192 0.196 8 4.48 9.37
7/2/2021 7:45:00 PM 23.31 73.958 0.196 7.94 4.42 9.15
7/2/2021 8:00:00 PM 23.17 73.706 0.196 7.86 4.58 8.93
7/2/2021 8:15:00 PM 23.04 73.472 0.196 7.78 4.39 8.69
7/2/2021 8:30:00 PM 22.93 73.274 0.197 7.72 4.49 8.5
7/2/2021 8:45:00 PM 22.72 72.896 0.194 7.64 6.31 8.28
7/2/2021 9:00:00 PM 22.61 72.698 0.195 7.6 6.02 8.11
7/2/2021 9:15:00 PM 22.32 72.176 0.192 7.56 7.92 8.04
7/2/2021 9:30:00 PM 22.27 72.086 0.192 7.52 7.99 7.9
7/2/2021 9:45:00 PM 22.05 71.69 0.189 7.49 9.93 7.86
7/2/2021 10:00:00 PM 21.79 71.222 0.185 7.46 9.89 7.87
7/2/2021 10:15:00 PM 21.66 70.988 0.183 7.43 12.17 7.83
7/2/2021 10:30:00 PM 21.57 70.826 0.181 7.41 14.23 7.77
7/2/2021 10:45:00 PM 21.45 70.61 0.179 7.38 13.74 7.71
7/2/2021 11:00:00 PM 21.37 70.466 0.18 7.36 14.39 7.63
7/2/2021 11:15:00 PM 21.33 70.394 0.182 7.35 13.55 7.55
7/2/2021 11:30:00 PM 21.3 70.34 0.184 7.33 12.75 7.48
7/2/2021 11:45:00 PM 21.24 70.232 0.186 7.32 12.91 7.39
7/3/2021 12:00:00 AM 21.22 70.196 0.187 7.31 10.86 7.36
7/3/2021 12:15:00 AM 21.16 70.088 0.188 7.3 11.05 7.31
7/3/2021 12:30:00 AM 21.1 69.98 0.188 7.29 10.37 7.27
7/3/2021 12:45:00 AM 21.03 69.854 0.188 7.27 10.36 7.23
7/3/2021 1:00:00 AM 20.97 69.746 0.188 7.26 10.25 7.21
7/3/2021 1:15:00 AM 20.9 69.62 0.188 7.25 9.62 7.2
7/3/2021 1:30:00 AM 20.85 69.53 0.188 7.25 9.57 7.17
7/3/2021 1:45:00 AM 20.8 69.44 0.188 7.24 9.27 7.16
7/3/2021 2:00:00 AM 20.76 69.368 0.189 7.23 8.87 7.13
7/3/2021 2:15:00 AM 20.73 69.314 0.19 7.23 9.07 7.1
7/3/2021 2:30:00 AM 20.69 69.242 0.19 7.22 8.65 7.1
7/3/2021 2:45:00 AM 20.67 69.206 0.19 7.22 8.15 7.09
7/3/2021 3:00:00 AM 20.64 69.152 0.19 7.22 8.18 7.1
7/3/2021 3:15:00 AM 20.61 69.098 0.191 7.22 8.15 7.09
7/3/2021 3:30:00 AM 20.59 69.062 0.191 7.21 8.41 7.1
7/3/2021 3:45:00 AM 20.57 69.026 0.191 7.21 8.27 7.13
7/3/2021 4:00:00 AM 20.55 68.99 0.191 7.21 8.47 7.15
7/3/2021 4:15:00 AM 20.53 68.954 0.191 7.22 9.44 7.18
7/3/2021 4:30:00 AM 20.51 68.918 0.192 7.22 8.32 7.2
7/3/2021 4:45:00 AM 20.5 68.9 0.192 7.22 8.62 7.24
7/3/2021 5:00:00 AM 20.48 68.864 0.193 7.23 8.49 7.26
7/3/2021 5:15:00 AM 20.44 68.792 0.194 7.23 8.69 7.27
7/3/2021 5:30:00 AM 20.42 68.756 0.195 7.23 8.46 7.3
7/3/2021 5:45:00 AM 20.39 68.702 0.195 7.24 8.18 7.31
7/3/2021 6:00:00 AM 20.36 68.648 0.195 7.24 8.41 7.34
7/3/2021 6:15:00 AM 20.32 68.576 0.195 7.24 8.24 7.35
7/3/2021 6:30:00 AM 20.29 68.522 0.194 7.24 8.52 7.4
7/3/2021 6:45:00 AM 20.24 68.432 0.193 7.24 7.64 7.41
7/3/2021 7:00:00 AM 20.21 68.378 0.191 7.25 7.32 7.47
7/3/2021 7:15:00 AM 20.16 68.288 0.188 7.24 6.87 7.54
7/3/2021 7:30:00 AM 20.13 68.234 0.187 7.25 7.32 7.58
7/3/2021 7:45:00 AM 20.1 68.18 0.185 7.25 7.05 7.68
7/3/2021 8:00:00 AM 20.08 68.144 0.183 7.26 7.08 7.76
7/3/2021 8:15:00 AM 20.06 68.108 0.182 7.26 6.62 7.86
7/3/2021 8:30:00 AM 20.05 68.09 0.18 7.28 6.76 8.01
7/3/2021 8:45:00 AM 20.04 68.07201 0.181 7.28 6.71 8.07
7/3/2021 9:00:00 AM 20.04 68.07201 0.179 7.3 6.86 8.19
7/3/2021 9:15:00 AM 20.04 68.07201 0.18 7.32 6.58 8.27
7/3/2021 9:30:00 AM 20.05 68.09 0.179 7.34 6.38 8.4
7/3/2021 9:45:00 AM 20.07 68.126 0.18 7.36 6.41 8.45
7/3/2021 10:00:00 AM 20.15 68.27 0.18 7.38 6.11 8.62
7/3/2021 10:15:00 AM 20.18 68.324 0.18 7.4 6.03 8.74
7/3/2021 10:30:00 AM 20.33 68.594 0.181 7.44 5.77 8.89
7/3/2021 10:45:00 AM 20.43 68.774 0.181 7.49 5.95 9.02
7/3/2021 11:00:00 AM 20.56 69.008 0.182 7.54 5.85 9.2
7/3/2021 11:15:00 AM 20.64 69.152 0.183 7.55 5.78 9.29
7/3/2021 11:30:00 AM 20.77 69.386 0.184 7.59 5.69 9.39
7/3/2021 11:45:00 AM 20.91 69.638 0.185 7.63 5.61 9.48
7/3/2021 12:00:00 PM 21.18 70.124 0.186 7.68 5.83 9.59
7/3/2021 12:15:00 PM 21.3 70.34 0.187 7.71 5.78 9.69
7/3/2021 12:30:00 PM 21.38 70.484 0.189 7.75 5.94 9.77
7/3/2021 12:45:00 PM 21.55 70.79 0.19 7.79 5.73 9.83
7/3/2021 1:00:00 PM 21.54 70.772 0.191 7.79 5.93 9.79
7/3/2021 1:15:00 PM 21.63 70.934 0.193 7.8 5.84 9.83
7/3/2021 1:30:00 PM 21.61 70.898 0.194 7.81 6.06 9.86
7/3/2021 1:45:00 PM 21.87 71.366 0.195 7.86 6.28 9.94
7/3/2021 2:00:00 PM 21.91 71.438 0.196 7.85 6.65 9.98
7/3/2021 2:15:00 PM 21.83 71.294 0.197 7.84 7.16 9.85
7/3/2021 2:30:00 PM 22.02 71.636 0.198 7.87 7.4 9.93
7/3/2021 2:45:00 PM 21.84 71.312 0.199 7.83 8.5 9.63
7/3/2021 3:00:00 PM 21.93 71.474 0.199 7.84 9.13 9.7
7/3/2021 3:15:00 PM 21.88 71.384 0.199 7.83 10.26 9.61
7/3/2021 3:30:00 PM 21.79 71.222 0.199 7.81 10.74 9.62
7/3/2021 3:45:00 PM 21.94 71.492 0.199 7.86 12.37 9.76
7/3/2021 4:00:00 PM 21.94 71.492 0.199 7.87 12.6 9.78
7/3/2021 4:15:00 PM 21.92 71.456 0.199 7.88 13.98 9.8
7/3/2021 4:30:00 PM 21.9 71.42 0.198 7.9 15.15 9.77
7/3/2021 4:45:00 PM 21.84 71.312 0.199 7.88 14.61 9.7
7/3/2021 5:00:00 PM 21.77 71.186 0.198 7.84 15.29 9.53
7/3/2021 5:15:00 PM 21.7 71.06 0.198 7.81 15.8 9.45
7/3/2021 5:30:00 PM 21.68 71.024 0.198 7.8 16.05 9.45
7/3/2021 5:45:00 PM 21.67 71.006 0.197 7.81 15.39 9.5
7/3/2021 6:00:00 PM 21.65 70.97 0.197 7.82 16.25 9.5
7/3/2021 6:15:00 PM 21.64 70.952 0.197 7.82 15.65 9.45
7/3/2021 6:30:00 PM 21.61 70.898 0.197 7.8 14.74 9.38
7/3/2021 6:45:00 PM 21.57 70.826 0.197 7.78 15.83 9.3
7/3/2021 7:00:00 PM 21.54 70.772 0.197 7.76 13.58 9.23
7/3/2021 7:15:00 PM 21.51 70.718 0.197 7.73 13.92 9.12
7/3/2021 7:30:00 PM 21.46 70.628 0.197 7.7 13.68 9
7/3/2021 7:45:00 PM 21.42 70.556 0.197 7.67 12.55 8.93
7/3/2021 8:00:00 PM 21.37 70.466 0.197 7.65 12.47 8.84
7/3/2021 8:15:00 PM 21.32 70.376 0.197 7.62 11.85 8.75
7/3/2021 8:30:00 PM 21.27 70.286 0.197 7.6 11.33 8.66
7/3/2021 8:45:00 PM 21.21 70.17799 0.197 7.57 11.14 8.54
7/3/2021 9:00:00 PM 21.15 70.07 0.197 7.54 10.69 8.41
7/3/2021 9:15:00 PM 21.09 69.962 0.197 7.49 11.2 8.28
7/3/2021 9:30:00 PM 21.08 69.944 0.198 7.46 17.27 8.23
7/3/2021 9:45:00 PM 21.04 69.872 0.197 7.44 22.72 8.2
7/3/2021 10:00:00 PM 21.02 69.836 0.203 7.42 25.89 8.19
7/3/2021 10:15:00 PM 21.04 69.872 0.216 7.42 25.85 8.16
7/3/2021 10:30:00 PM 21.03 69.854 0.228 7.42 34.72 8.1
7/3/2021 10:45:00 PM 21.02 69.836 0.231 7.42 46.32 8.06
7/3/2021 11:00:00 PM 21 69.8 0.231 7.43 37.58 8.03
7/3/2021 11:15:00 PM 20.98 69.764 0.23 7.43 43.75 8.02
7/3/2021 11:30:00 PM 20.95 69.71 0.229 7.43 44.77 8
7/3/2021 11:45:00 PM 20.9 69.62 0.227 7.42 34.81 8
7/4/2021 12:00:00 AM 20.83 69.494 0.226 7.42 30.44 8
7/4/2021 12:15:00 AM 20.76 69.368 0.226 7.41 26.7 8
7/4/2021 12:30:00 AM 20.7 69.26 0.225 7.41 23.63 7.98
7/4/2021 12:45:00 AM 20.65 69.17 0.224 7.4 20.48 7.97
7/4/2021 1:00:00 AM 20.59 69.062 0.223 7.4 18.67 7.97
7/4/2021 1:15:00 AM 20.53 68.954 0.221 7.39 17.2 7.96
7/4/2021 1:30:00 AM 20.47 68.846 0.22 7.38 16.31 7.96
7/4/2021 1:45:00 AM 20.4 68.72 0.218 7.37 15.15 7.95
7/4/2021 2:00:00 AM 20.32 68.576 0.216 7.37 14.24 7.95
7/4/2021 2:15:00 AM 20.25 68.45 0.214 7.36 14.06 7.94
7/4/2021 2:30:00 AM 20.17 68.306 0.212 7.35 13.75 7.93
7/4/2021 2:45:00 AM 20.1 68.18 0.211 7.34 13.64 7.93
7/4/2021 3:00:00 AM 20.02 68.036 0.209 7.33 14.32 7.93
7/4/2021 3:15:00 AM 19.94 67.892 0.207 7.32 14.59 7.93
7/4/2021 3:30:00 AM 19.87 67.766 0.205 7.31 14.77 7.92
7/4/2021 3:45:00 AM 19.78 67.604 0.202 7.3 16.06 7.93
7/4/2021 4:00:00 AM 19.7 67.46 0.201 7.29 18.01 7.92
7/4/2021 4:15:00 AM 19.62 67.316 0.198 7.28 21.56 7.93
7/4/2021 4:30:00 AM 19.53 67.154 0.195 7.27 20.5 7.94
7/4/2021 4:45:00 AM 19.44 66.992 0.193 7.26 28.64 7.94
7/4/2021 5:00:00 AM 19.35 66.83 0.19 7.26 37.82 7.94
7/4/2021 5:15:00 AM 19.26 66.668 0.188 7.25 50.97 7.94
7/4/2021 5:30:00 AM 19.17 66.506 0.185 7.24 55.1 7.96
7/4/2021 5:45:00 AM 19.08 66.344 0.182 7.22 45.15 7.96
7/4/2021 6:00:00 AM 18.98 66.164 0.18 7.22 55.79 7.98
7/4/2021 6:15:00 AM 18.9 66.02 0.178 7.2 68.82 7.99
7/4/2021 6:30:00 AM 18.82 65.876 0.176 7.2 68 8.01
7/4/2021 6:45:00 AM 18.75 65.75 0.174 7.2 72.1 8.04
7/4/2021 7:00:00 AM 18.68 65.624 0.173 7.19 73.52 8.07
7/4/2021 7:15:00 AM 18.61 65.498 0.172 7.19 68.39 8.11
7/4/2021 7:30:00 AM 18.56 65.408 0.171 7.19 61.11 8.14
7/4/2021 7:45:00 AM 18.51 65.318 0.171 7.19 52.96 8.19
7/4/2021 8:00:00 AM 18.48 65.264 0.17 7.19 70.52 8.24
7/4/2021 8:15:00 AM 18.45 65.21 0.17 7.19 72.97 8.31
7/4/2021 8:30:00 AM 18.42 65.156 0.17 7.2 60.9 8.36
7/4/2021 8:45:00 AM 18.42 65.156 0.17 7.21 58.94 8.41
7/4/2021 9:00:00 AM 18.42 65.156 0.171 7.21 52.23 8.44
7/4/2021 9:15:00 AM 18.44 65.192 0.171 7.22 50.24 8.49
7/4/2021 9:30:00 AM 18.51 65.318 0.172 7.23 45.64 8.58
7/4/2021 9:45:00 AM 18.56 65.408 0.172 7.25 53.42 8.66
7/4/2021 10:00:00 AM 18.65 65.57 0.173 7.26 46.48 8.71
7/4/2021 10:15:00 AM 18.82 65.876 0.173 7.29 44.57 8.81
7/4/2021 10:30:00 AM 18.91 66.038 0.174 7.29 43.81 8.88
7/4/2021 10:45:00 AM 19.07 66.326 0.175 7.32 33.67 8.96
7/4/2021 11:00:00 AM 19.2 66.56 0.175 7.34 37.97 9.03
7/4/2021 11:15:00 AM 19.39 66.902 0.176 7.38 29.15 9.12
7/4/2021 11:30:00 AM 19.59 67.262 0.177 7.4 33.92 9.2
7/4/2021 11:45:00 AM 19.73 67.514 0.177 7.41 43.23 9.27
7/4/2021 12:00:00 PM 19.91 67.838 0.177 7.45 30.29 9.35
7/4/2021 12:15:00 PM 19.94 67.892 0.178 7.44 28.02 9.33
7/4/2021 12:30:00 PM 20.05 68.09 0.179 7.46 26.76 9.4
7/4/2021 12:45:00 PM 20.13 68.234 0.179 7.46 26.28 9.45
7/4/2021 1:00:00 PM 20.33 68.594 0.179 7.52 25.74 9.53
7/4/2021 1:15:00 PM 20.36 68.648 0.18 7.52 25.02 9.53
7/4/2021 1:30:00 PM 20.46 68.828 0.18 7.51 22.95 9.55
7/4/2021 1:45:00 PM 20.66 69.188 0.18 7.55 23.36 9.63
7/4/2021 2:00:00 PM 20.64 69.152 0.181 7.54 20.81 9.56
7/4/2021 2:15:00 PM 20.91 69.638 0.181 7.58 21.38 9.64
7/4/2021 2:30:00 PM 21 69.8 0.181 7.6 21.8 9.66
7/4/2021 2:45:00 PM 21.3 70.34 0.181 7.64 20.84 9.77
7/4/2021 3:00:00 PM 21.54 70.772 0.181 7.67 20.24 9.83
7/4/2021 3:15:00 PM 21.68 71.024 0.181 7.68 20.01 9.82
7/4/2021 3:30:00 PM 21.78 71.204 0.181 7.69 20.21 9.77
7/4/2021 3:45:00 PM 21.81 71.258 0.181 7.67 20.08 9.73
7/4/2021 4:00:00 PM 21.91 71.438 0.181 7.7 19.5 9.74
7/4/2021 4:15:00 PM 22.01 71.618 0.182 7.7 18.69 9.74
7/4/2021 4:30:00 PM 22.12 71.816 0.182 7.71 18.35 9.73
7/4/2021 4:45:00 PM 22.21 71.978 0.182 7.72 18.31 9.71
7/4/2021 5:00:00 PM 22.25 72.05 0.181 7.7 18.34 9.65
7/4/2021 5:15:00 PM 22.28 72.104 0.181 7.7 18.44 9.57
7/4/2021 5:30:00 PM 22.27 72.086 0.181 7.68 17.81 9.48
7/4/2021 5:45:00 PM 22.26 72.068 0.181 7.65 18.27 9.37
7/4/2021 6:00:00 PM 22.27 72.086 0.181 7.64 17.1 9.28
7/4/2021 6:15:00 PM 22.26 72.068 0.181 7.62 17.07 9.18
7/4/2021 6:30:00 PM 22.26 72.068 0.182 7.6 16.5 9.09
7/4/2021 6:45:00 PM 22.25 72.05 0.182 7.58 16.33 8.98
7/4/2021 7:00:00 PM 22.23 72.014 0.182 7.55 16.22 8.86
7/4/2021 7:15:00 PM 22.22 71.996 0.182 7.53 16.11 8.76
7/4/2021 7:30:00 PM 22.21 71.978 0.182 7.5 15.6 8.66
7/4/2021 7:45:00 PM 22.19 71.942 0.183 7.49 15.48 8.58
7/4/2021 8:00:00 PM 22.17 71.906 0.183 7.47 15.32 8.47
7/4/2021 8:15:00 PM 22.14 71.852 0.183 7.46 15.03 8.38
7/4/2021 8:30:00 PM 22.12 71.816 0.183 7.43 14.77 8.29
7/4/2021 8:45:00 PM 22.06 71.708 0.183 7.41 14.51 8.18
7/4/2021 9:00:00 PM 22 71.6 0.183 7.39 14.42 8.1
7/4/2021 9:15:00 PM 21.91 71.438 0.183 7.36 14.26 8
7/4/2021 9:30:00 PM 21.82 71.276 0.183 7.35 14.38 7.92
7/4/2021 9:45:00 PM 21.74 71.132 0.183 7.32 15 7.84
7/4/2021 10:00:00 PM 21.64 70.952 0.183 7.31 14.59 7.77
7/4/2021 10:15:00 PM 21.55 70.79 0.183 7.29 14.16 7.72
7/4/2021 10:30:00 PM 21.45 70.61 0.183 7.28 14.02 7.67
7/4/2021 10:45:00 PM 21.37 70.466 0.184 7.27 14.16 7.61
7/4/2021 11:00:00 PM 21.28 70.304 0.183 7.25 13.32 7.59
7/4/2021 11:15:00 PM 21.19 70.142 0.184 7.25 13.35 7.54
7/4/2021 11:30:00 PM 21.1 69.98 0.184 7.24 13.13 7.52
7/4/2021 11:45:00 PM 21.02 69.836 0.183 7.24 13.02 7.52
7/5/2021 12:00:00 AM 20.93 69.674 0.184 7.23 13.09 7.49
7/5/2021 12:15:00 AM 20.84 69.512 0.184 7.22 12.68 7.47
7/5/2021 12:30:00 AM 20.75 69.35 0.183 7.21 12.59 7.48
7/5/2021 12:45:00 AM 20.66 69.188 0.184 7.21 12.36 7.45
7/5/2021 1:00:00 AM 20.58 69.044 0.184 7.2 12.52 7.46
7/5/2021 1:15:00 AM 20.49 68.882 0.184 7.2 12.34 7.44
7/5/2021 1:30:00 AM 20.39 68.702 0.184 7.2 12.46 7.46
7/5/2021 1:45:00 AM 20.3 68.54 0.185 7.19 12.34 7.43
7/5/2021 2:00:00 AM 20.21 68.378 0.184 7.19 11.72 7.45
7/5/2021 2:15:00 AM 20.11 68.198 0.184 7.19 11.33 7.46
7/5/2021 2:30:00 AM 20.02 68.036 0.184 7.19 11.67 7.47
7/5/2021 2:45:00 AM 19.92 67.856 0.185 7.18 11.48 7.46
7/5/2021 3:00:00 AM 19.84 67.712 0.185 7.18 11.35 7.47
7/5/2021 3:15:00 AM 19.75 67.55 0.185 7.17 11.04 7.49
7/5/2021 3:30:00 AM 19.67 67.406 0.185 7.17 10.84 7.49
7/5/2021 3:45:00 AM 19.59 67.262 0.185 7.17 10.67 7.5
7/5/2021 4:00:00 AM 19.51 67.118 0.185 7.17 11.4 7.51
7/5/2021 4:15:00 AM 19.44 66.992 0.186 7.17 11.34 7.52
7/5/2021 4:30:00 AM 19.37 66.866 0.186 7.16 10.48 7.54
7/5/2021 4:45:00 AM 19.28 66.704 0.186 7.16 12.16 7.54
7/5/2021 5:00:00 AM 19.2 66.56 0.186 7.17 10.83 7.55
7/5/2021 5:15:00 AM 19.13 66.434 0.186 7.16 10.76 7.58
7/5/2021 5:30:00 AM 19.05 66.29 0.186 7.16 11.05 7.57
7/5/2021 5:45:00 AM 18.98 66.164 0.186 7.17 11.13 7.57
7/5/2021 6:00:00 AM 18.89 66.002 0.186 7.16 10.08 7.61
7/5/2021 6:15:00 AM 18.82 65.876 0.186 7.15 10.17 7.63
7/5/2021 6:30:00 AM 18.74 65.732 0.186 7.16 9.84 7.69
7/5/2021 6:45:00 AM 18.67 65.606 0.186 7.16 9.84 7.74
7/5/2021 7:00:00 AM 18.62 65.516 0.187 7.17 9.97 7.78
7/5/2021 7:15:00 AM 18.55 65.39 0.186 7.18 9.39 7.92
7/5/2021 7:30:00 AM 18.51 65.318 0.186 7.19 9.38 8.02
7/5/2021 7:45:00 AM 18.46 65.228 0.186 7.21 9.2 8.15
7/5/2021 8:00:00 AM 18.43 65.174 0.187 7.22 8.94 8.29
7/5/2021 8:15:00 AM 18.4 65.12 0.187 7.22 9.11 8.31
7/5/2021 8:30:00 AM 18.37 65.066 0.187 7.25 8.76 8.48
7/5/2021 8:45:00 AM 18.37 65.066 0.187 7.26 8.38 8.59
7/5/2021 9:00:00 AM 18.4 65.12 0.187 7.29 8.42 8.73
7/5/2021 9:15:00 AM 18.45 65.21 0.187 7.31 7.77 8.85
7/5/2021 9:30:00 AM 18.52 65.336 0.187 7.33 7.99 8.96
7/5/2021 9:45:00 AM 18.63 65.534 0.187 7.35 7.59 9.12
7/5/2021 10:00:00 AM 18.76 65.768 0.188 7.38 7.22 9.25
7/5/2021 10:15:00 AM 18.91 66.038 0.188 7.41 7.13 9.38
7/5/2021 10:30:00 AM 19.08 66.344 0.188 7.44 6.73 9.53
7/5/2021 10:45:00 AM 19.3 66.74 0.188 7.48 6.79 9.66
7/5/2021 11:00:00 AM 19.5 67.1 0.188 7.51 6.8 9.79
7/5/2021 11:15:00 AM 19.76 67.568 0.188 7.56 6.71 9.92
7/5/2021 11:30:00 AM 19.98 67.964 0.188 7.59 6.72 10.03
7/5/2021 11:45:00 AM 20.25 68.45 0.188 7.63 6.39 10.14
7/5/2021 12:00:00 PM 20.53 68.954 0.187 7.67 6.23 10.24
7/5/2021 12:15:00 PM 20.75 69.35 0.187 7.71 6.29 10.32
7/5/2021 12:30:00 PM 21.03 69.854 0.186 7.75 6.23 10.39
7/5/2021 12:45:00 PM 21.32 70.376 0.185 7.81 5.79 10.46
7/5/2021 1:00:00 PM 21.5 70.7 0.185 7.84 5.96 10.53
7/5/2021 1:15:00 PM 21.75 71.15 0.184 7.88 5.81 10.58
7/5/2021 1:30:00 PM 21.96 71.528 0.183 7.92 5.71 10.62
7/5/2021 1:45:00 PM 22.09 71.762 0.182 7.95 5.58 10.66
7/5/2021 2:00:00 PM 22.32 72.176 0.182 8 5.59 10.71
7/5/2021 2:15:00 PM 22.45 72.41 0.181 8.02 5.31 10.73
7/5/2021 2:30:00 PM 22.61 72.698 0.181 8.06 5.48 10.78
7/5/2021 2:45:00 PM 22.79 73.022 0.18 8.11 5.16 10.8
7/5/2021 3:00:00 PM 22.98 73.364 0.18 8.14 5.14 10.85
7/5/2021 3:15:00 PM 23.15 73.67 0.18 8.17 5.15 10.85
7/5/2021 3:30:00 PM 23.25 73.85 0.179 8.2 5.25 10.82
7/5/2021 3:45:00 PM 23.42 74.156 0.179 8.23 5.05 10.82
7/5/2021 4:00:00 PM 23.51 74.318 0.179 8.23 5.07 10.8
7/5/2021 4:15:00 PM 23.62 74.516 0.18 8.25 4.88 10.76
7/5/2021 4:30:00 PM 23.69 74.642 0.18 8.24 4.96 10.7
7/5/2021 4:45:00 PM 23.72 74.696 0.181 8.23 5.06 10.62
7/5/2021 5:00:00 PM 23.75 74.75 0.181 8.23 5.02 10.57
7/5/2021 5:15:00 PM 23.77 74.786 0.182 8.21 5.03 10.49
7/5/2021 5:30:00 PM 23.74 74.732 0.182 8.2 4.9 10.4
7/5/2021 5:45:00 PM 23.69 74.642 0.183 8.17 5.09 10.3
7/5/2021 6:00:00 PM 23.65 74.57 0.183 8.14 5.11 10.18
7/5/2021 6:15:00 PM 23.57 74.426 0.184 8.09 4.94 10.05
7/5/2021 6:30:00 PM 23.51 74.318 0.184 8.05 5.24 9.93
7/5/2021 6:45:00 PM 23.43 74.174 0.185 8 4.86 9.77
7/5/2021 7:00:00 PM 23.36 74.048 0.185 7.95 4.89 9.63
7/5/2021 7:15:00 PM 23.28 73.904 0.186 7.9 4.89 9.49
7/5/2021 7:30:00 PM 23.21 73.778 0.186 7.85 5.12 9.36
7/5/2021 7:45:00 PM 23.15 73.67 0.186 7.81 4.99 9.22
7/5/2021 8:00:00 PM 23.08 73.544 0.187 7.76 5.07 9.08
7/5/2021 8:15:00 PM 23.01 73.418 0.187 7.71 5.02 8.94
7/5/2021 8:30:00 PM 22.94 73.292 0.187 7.67 5.19 8.8
7/5/2021 8:45:00 PM 22.86 73.148 0.188 7.62 5.04 8.64
7/5/2021 9:00:00 PM 22.78 73.004 0.188 7.58 5.1 8.48
7/5/2021 9:15:00 PM 22.7 72.86 0.188 7.54 5.56 8.31
7/5/2021 9:30:00 PM 22.61 72.698 0.189 7.5 5.4 8.17
7/5/2021 9:45:00 PM 22.53 72.554 0.189 7.47 5.72 8.03
7/5/2021 10:00:00 PM 22.44 72.392 0.189 7.43 5.78 7.91
7/5/2021 10:15:00 PM 22.35 72.23 0.19 7.41 5.84 7.81
7/5/2021 10:30:00 PM 22.27 72.086 0.19 7.38 5.65 7.72
7/5/2021 10:45:00 PM 22.19 71.942 0.19 7.36 5.55 7.64
7/5/2021 11:00:00 PM 22.12 71.816 0.191 7.35 6.1 7.55
7/5/2021 11:15:00 PM 22.05 71.69 0.191 7.32 5.59 7.5
7/5/2021 11:30:00 PM 21.98 71.564 0.191 7.31 6.21 7.42
7/5/2021 11:45:00 PM 21.92 71.456 0.192 7.29 6 7.37
7/6/2021 12:00:00 AM 21.87 71.366 0.192 7.28 5.71 7.31
7/6/2021 12:15:00 AM 21.81 71.258 0.192 7.26 5.87 7.25
7/6/2021 12:30:00 AM 21.77 71.186 0.193 7.26 5.89 7.21
7/6/2021 12:45:00 AM 21.72 71.096 0.193 7.25 5.53 7.15
7/6/2021 1:00:00 AM 21.67 71.006 0.194 7.23 5.91 7.11
7/6/2021 1:15:00 AM 21.64 70.952 0.194 7.23 5.79 7.08
7/6/2021 1:30:00 AM 21.6 70.88 0.194 7.22 5.61 7.06
7/6/2021 1:45:00 AM 21.56 70.808 0.195 7.21 5.7 7.01
7/6/2021 2:00:00 AM 21.53 70.754 0.195 7.21 5.62 6.98
7/6/2021 2:15:00 AM 21.51 70.718 0.195 7.21 5.96 6.97
7/6/2021 2:30:00 AM 21.48 70.664 0.195 7.2 5.64 6.96
7/6/2021 2:45:00 AM 21.44 70.592 0.196 7.19 5.71 6.93
7/6/2021 3:00:00 AM 21.42 70.556 0.195 7.19 5.57 6.92
7/6/2021 3:15:00 AM 21.4 70.52 0.195 7.18 5.57 6.91
7/6/2021 3:30:00 AM 21.36 70.448 0.195 7.18 5.62 6.9
7/6/2021 3:45:00 AM 21.33 70.394 0.195 7.17 5.71 6.87
7/6/2021 4:00:00 AM 21.31 70.358 0.195 7.18 5.69 6.88
7/6/2021 4:15:00 AM 21.28 70.304 0.195 7.17 5.54 6.87
7/6/2021 4:30:00 AM 21.24 70.232 0.195 7.17 5.47 6.87
7/6/2021 4:45:00 AM 21.2 70.16 0.195 7.16 5.31 6.86
7/6/2021 5:00:00 AM 21.17 70.106 0.195 7.16 6.33 6.87
7/6/2021 5:15:00 AM 21.13 70.034 0.195 7.16 5.93 6.85
7/6/2021 5:30:00 AM 21.09 69.962 0.195 7.16 5.87 6.87
7/6/2021 5:45:00 AM 21.05 69.89 0.194 7.16 5.96 6.87
7/6/2021 6:00:00 AM 21.01 69.818 0.194 7.15 5.9 6.88
7/6/2021 6:15:00 AM 20.97 69.746 0.194 7.15 5.76 6.9
7/6/2021 6:30:00 AM 20.94 69.692 0.194 7.15 5.6 6.94
7/6/2021 6:45:00 AM 20.91 69.638 0.194 7.16 5.36 6.98
7/6/2021 7:00:00 AM 20.88 69.584 0.194 7.16 5.62 7.03
7/6/2021 7:15:00 AM 20.88 69.584 0.193 7.17 5.69 7.18
7/6/2021 7:30:00 AM 20.88 69.584 0.193 7.18 5.38 7.29
7/6/2021 7:45:00 AM 20.88 69.584 0.193 7.2 5.14 7.45
7/6/2021 8:00:00 AM 20.94 69.692 0.193 7.22 5.36 7.62
7/6/2021 8:15:00 AM 20.97 69.746 0.193 7.24 5.15 7.79
7/6/2021 8:30:00 AM 21.02 69.836 0.192 7.26 5.19 7.98
7/6/2021 8:45:00 AM 21.09 69.962 0.192 7.29 4.93 8.16
7/6/2021 9:00:00 AM 21.16 70.088 0.192 7.31 4.89 8.32
7/6/2021 9:15:00 AM 21.21 70.17799 0.193 7.33 5 8.42
7/6/2021 9:30:00 AM 21.29 70.32201 0.193 7.37 4.72 8.58
7/6/2021 9:45:00 AM 21.38 70.484 0.192 7.4 4.55 8.74
7/6/2021 10:00:00 AM 21.47 70.646 0.192 7.43 4.81 8.9
7/6/2021 10:15:00 AM 21.57 70.826 0.192 7.48 4.51 9.07
7/6/2021 10:30:00 AM 21.79 71.222 0.192 7.51 4.54 9.27
7/6/2021 10:45:00 AM 21.98 71.564 0.192 7.57 4.35 9.45
7/6/2021 11:00:00 AM 22.22 71.996 0.192 7.65 4.31 9.62
7/6/2021 11:15:00 AM 22.46 72.42799 0.192 7.71 4.25 9.8
7/6/2021 11:30:00 AM 22.58 72.644 0.192 7.74 4.35 9.91
7/6/2021 11:45:00 AM 22.85 73.13 0.192 7.82 4.18 10.03
7/6/2021 12:00:00 PM 23 73.4 0.192 7.86 4.2 10.14
7/6/2021 12:15:00 PM 23.28 73.904 0.192 7.93 4.64 10.22
7/6/2021 12:30:00 PM 23.5 74.3 0.192 7.99 4.15 10.34
7/6/2021 12:45:00 PM 23.7 74.66 0.192 8.02 4.12 10.41
7/6/2021 1:00:00 PM 23.86 74.948 0.192 8.05 4.16 10.49
7/6/2021 1:15:00 PM 23.98 75.164 0.192 8.1 4.23 10.52
7/6/2021 1:30:00 PM 24.12 75.416 0.192 8.15 4.16 10.57
7/6/2021 1:45:00 PM 24.22 75.596 0.192 8.16 4.19 10.56
7/6/2021 2:00:00 PM 24 75.2 0.19 8.1 6.52 10.31
7/6/2021 2:15:00 PM 24.18 75.524 0.19 8.14 5.41 10.29
7/6/2021 2:30:00 PM 24.15 75.47 0.189 8.08 5.71 10.07
7/6/2021 2:45:00 PM 23.95 75.11 0.188 7.99 5.5 9.79
7/6/2021 3:00:00 PM 24.06 75.308 0.187 8 6.26 9.77
7/6/2021 3:15:00 PM 24.05 75.29 0.188 7.98 6.24 9.79
7/6/2021 3:30:00 PM 23.86 74.948 0.188 7.94 6 9.54
7/6/2021 3:45:00 PM 23.7 74.66 0.187 7.84 5.66 9.22
7/6/2021 4:00:00 PM 23.62 74.516 0.187 7.79 5.4 9.07
7/6/2021 4:15:00 PM 23.59 74.462 0.188 7.75 5.41 8.97
7/6/2021 4:30:00 PM 23.52 74.336 0.189 7.72 5 8.91
7/6/2021 4:45:00 PM 23.51 74.318 0.189 7.72 4.95 8.98
7/6/2021 5:00:00 PM 23.54 74.372 0.19 7.76 4.81 9.14
7/6/2021 5:15:00 PM 23.57 74.426 0.19 7.82 4.91 9.36
7/6/2021 5:30:00 PM 23.62 74.516 0.191 7.85 4.69 9.46
7/6/2021 5:45:00 PM 23.64 74.552 0.19 7.87 8.11 9.43
7/6/2021 6:00:00 PM 23.59 74.462 0.187 7.92 6.98 9.46
7/6/2021 6:15:00 PM 23.55 74.39 0.187 7.86 8.9 9.26
7/6/2021 6:30:00 PM 23.27 73.886 0.182 7.65 37.37 8.87
7/6/2021 6:45:00 PM 23.23 73.814 0.175 7.5 53.44 8.35
7/6/2021 7:00:00 PM 23.1 73.58 0.175 7.38 44.83 8.16
7/6/2021 7:15:00 PM 23.16 73.688 0.178 7.39 47.6 8.13
7/6/2021 7:30:00 PM 23.24 73.832 0.178 7.4 48.02 8.09
7/6/2021 7:45:00 PM 23.1 73.58 0.177 7.36 47.37 8.03
7/6/2021 8:00:00 PM 22.87 73.166 0.176 7.33 47.88 7.98
7/6/2021 8:15:00 PM 22.65 72.77 0.172 7.3 54.05 7.93
7/6/2021 8:30:00 PM 22.47 72.446 0.166 7.26 53.45 7.89
7/6/2021 8:45:00 PM 22.3 72.14 0.155 7.22 70.59 7.85
7/6/2021 9:00:00 PM 22.12 71.816 0.142 7.16 83.11 7.84
7/6/2021 9:15:00 PM 21.94 71.492 0.128 7.11 98.11 7.84
7/6/2021 9:30:00 PM 21.81 71.258 0.119 7.07 93.21 7.83
7/6/2021 9:45:00 PM 21.71 71.078 0.114 7.08 109.8 7.83
7/6/2021 10:00:00 PM 21.62 70.916 0.111 7.08 69.02 7.84
7/6/2021 10:15:00 PM 21.54 70.772 0.11 7.07 66.83 7.84
7/6/2021 10:30:00 PM 21.44 70.592 0.109 7.06 76.05 7.85
7/6/2021 10:45:00 PM 21.35 70.43 0.109 7.05 82.11 7.85
7/6/2021 11:00:00 PM 21.26 70.268 0.108 7.05 70.31 7.86
7/6/2021 11:15:00 PM 21.17 70.106 0.108 7.04 55.36 7.87
7/6/2021 11:30:00 PM 21.09 69.962 0.108 7.04 64.18 7.87
7/6/2021 11:45:00 PM 21 69.8 0.108 7.04 53.95 7.88
7/7/2021 12:00:00 AM 20.93 69.674 0.109 7.04 47.96 7.89
7/7/2021 12:15:00 AM 20.86 69.548 0.109 7.04 58.57 7.89
7/7/2021 12:30:00 AM 20.79 69.422 0.109 7.04 50.74 7.91
7/7/2021 12:45:00 AM 20.73 69.314 0.11 7.05 53.94 7.91
7/7/2021 1:00:00 AM 20.67 69.206 0.11 7.04 57.14 7.94
7/7/2021 1:15:00 AM 20.61 69.098 0.111 7.05 49.29 7.94
7/7/2021 1:30:00 AM 20.55 68.99 0.111 7.04 59.52 7.96
7/7/2021 1:45:00 AM 20.49 68.882 0.112 7.05 47.94 7.96
7/7/2021 2:00:00 AM 20.44 68.792 0.113 7.06 43.03 7.96
7/7/2021 2:15:00 AM 20.39 68.702 0.114 7.06 46.55 7.98
7/7/2021 2:30:00 AM 20.34 68.612 0.115 7.06 50.61 7.97
7/7/2021 2:45:00 AM 20.3 68.54 0.116 7.07 42.46 7.99
7/7/2021 3:00:00 AM 20.26 68.468 0.117 7.06 38.7 7.99
7/7/2021 3:15:00 AM 20.23 68.414 0.118 7.07 34.84 7.99
7/7/2021 3:30:00 AM 20.19 68.342 0.119 7.07 34.6 7.99
7/7/2021 3:45:00 AM 20.16 68.288 0.12 7.05 31.43 8
7/7/2021 4:00:00 AM 20.12 68.216 0.121 7.06 33.91 8
7/7/2021 4:15:00 AM 20.09 68.162 0.122 7.07 27.82 8
7/7/2021 4:30:00 AM 20.05 68.09 0.123 7.06 26.39 8.01
7/7/2021 4:45:00 AM 20.02 68.036 0.124 7.06 32.47 8.01
7/7/2021 5:00:00 AM 19.98 67.964 0.125 7.07 27.27 8.01
7/7/2021 5:15:00 AM 19.94 67.892 0.126 7.07 23.87 8.01
7/7/2021 5:30:00 AM 19.91 67.838 0.127 7.08 23.95 8.02
7/7/2021 5:45:00 AM 19.88 67.784 0.128 7.08 22.7 8.01
7/7/2021 6:00:00 AM 19.85 67.73 0.129 7.09 22.37 8.02
7/7/2021 6:15:00 AM 19.82 67.676 0.13 7.08 18.38 8.04
7/7/2021 6:30:00 AM 19.8 67.64 0.131 7.09 21.79 8.05
7/7/2021 6:45:00 AM 19.77 67.586 0.132 7.1 19.59 8.08
7/7/2021 7:00:00 AM 19.76 67.568 0.133 7.1 21.14 8.1
7/7/2021 7:15:00 AM 19.75 67.55 0.133 7.1 19.77 8.14
7/7/2021 7:30:00 AM 19.74 67.532 0.134 7.13 20.29 8.17
7/7/2021 7:45:00 AM 19.74 67.532 0.135 7.13 18.79 8.21
7/7/2021 8:00:00 AM 19.73 67.514 0.135 7.14 19.48 8.24
7/7/2021 8:15:00 AM 19.75 67.55 0.136 7.15 19.54 8.3
7/7/2021 8:30:00 AM 19.76 67.568 0.136 7.14 18.72 8.34
7/7/2021 8:45:00 AM 19.77 67.586 0.137 7.17 19.9 8.39
7/7/2021 9:00:00 AM 19.83 67.694 0.137 7.19 18.04 8.44
7/7/2021 9:15:00 AM 19.87 67.766 0.137 7.2 17.42 8.51
7/7/2021 9:30:00 AM 19.92 67.856 0.138 7.2 17.07 8.54
7/7/2021 9:45:00 AM 20 68 0.138 7.22 17.07 8.61
7/7/2021 10:00:00 AM 20.08 68.144 0.139 7.23 15.99 8.66
7/7/2021 10:15:00 AM 20.2 68.36 0.139 7.26 15.79 8.72
7/7/2021 10:30:00 AM 20.32 68.576 0.139 7.26 15.26 8.8
7/7/2021 10:45:00 AM 20.47 68.846 0.14 7.31 15.51 8.87
7/7/2021 11:00:00 AM 20.59 69.062 0.14 7.32 14.64 8.92
7/7/2021 11:15:00 AM 20.73 69.314 0.14 7.34 14.15 8.99
7/7/2021 11:30:00 AM 20.87 69.566 0.141 7.36 13.76 9.03
7/7/2021 11:45:00 AM 21.06 69.908 0.141 7.38 13.39 9.09
7/7/2021 12:00:00 PM 21.26 70.268 0.141 7.42 12.82 9.17
7/7/2021 12:15:00 PM 21.42 70.556 0.142 7.45 12.8 9.2
7/7/2021 12:30:00 PM 21.53 70.754 0.142 7.45 12.55 9.24
7/7/2021 12:45:00 PM 21.63 70.934 0.143 7.44 11.91 9.14
7/7/2021 1:00:00 PM 21.9 71.42 0.143 7.48 11.54 9.22
7/7/2021 1:15:00 PM 22.14 71.852 0.143 7.51 11.4 9.31
7/7/2021 1:30:00 PM 22.39 72.302 0.143 7.55 10.99 9.37
7/7/2021 1:45:00 PM 22.56 72.608 0.144 7.57 10.54 9.41
7/7/2021 2:00:00 PM 22.67 72.806 0.144 7.59 10.36 9.38
7/7/2021 2:15:00 PM 22.8 73.04 0.144 7.58 10.39 9.36
7/7/2021 2:30:00 PM 22.97 73.346 0.144 7.6 10.39 9.39
7/7/2021 2:45:00 PM 23.15 73.67 0.145 7.61 10.05 9.42
7/7/2021 3:00:00 PM 23.37 74.066 0.145 7.64 9.82 9.41
7/7/2021 3:15:00 PM 23.56 74.408 0.145 7.66 9.88 9.42
7/7/2021 3:30:00 PM 23.68 74.624 0.146 7.67 9.47 9.39
7/7/2021 3:45:00 PM 23.76 74.768 0.146 7.66 9.54 9.32
7/7/2021 4:00:00 PM 23.86 74.948 0.146 7.67 9.14 9.28
7/7/2021 4:15:00 PM 23.93 75.074 0.146 7.67 9.07 9.24
7/7/2021 4:30:00 PM 23.98 75.164 0.147 7.67 9 9.18
7/7/2021 4:45:00 PM 24.05 75.29 0.147 7.66 8.92 9.12
7/7/2021 5:00:00 PM 24.09 75.362 0.148 7.65 8.76 9.05
7/7/2021 5:15:00 PM 24.14 75.452 0.148 7.62 8.74 8.95
7/7/2021 5:30:00 PM 24.2 75.56 0.148 7.61 8.54 8.9
7/7/2021 5:45:00 PM 24.25 75.65 0.149 7.6 8.42 8.85
7/7/2021 6:00:00 PM 24.28 75.704 0.149 7.59 8.33 8.77
7/7/2021 6:15:00 PM 24.3 75.74 0.149 7.57 8.43 8.69
7/7/2021 6:30:00 PM 24.29 75.722 0.15 7.55 8.23 8.59
7/7/2021 6:45:00 PM 24.29 75.722 0.15 7.52 8.36 8.49
7/7/2021 7:00:00 PM 24.27 75.686 0.15 7.49 8.14 8.39
7/7/2021 7:15:00 PM 24.25 75.65 0.151 7.47 8.05 8.3
7/7/2021 7:30:00 PM 24.22 75.596 0.151 7.44 8.09 8.19
7/7/2021 7:45:00 PM 24.18 75.524 0.151 7.42 8.05 8.07
7/7/2021 8:00:00 PM 24.14 75.452 0.151 7.39 8.14 7.96
7/7/2021 8:15:00 PM 24.09 75.362 0.152 7.37 8.05 7.87
7/7/2021 8:30:00 PM 24.05 75.29 0.152 7.35 8.03 7.79
7/7/2021 8:45:00 PM 24 75.2 0.152 7.33 8.12 7.73
7/7/2021 9:00:00 PM 23.94 75.092 0.153 7.31 7.96 7.66
7/7/2021 9:15:00 PM 23.88 74.984 0.153 7.3 8.19 7.6
7/7/2021 9:30:00 PM 23.83 74.894 0.153 7.28 8.61 7.55
7/7/2021 9:45:00 PM 23.77 74.786 0.153 7.27 8.57 7.52
7/7/2021 10:00:00 PM 23.71 74.67799 0.154 7.26 8.41 7.49
7/7/2021 10:15:00 PM 23.49 74.282 0.15 7.26 10.62 7.58
7/7/2021 10:30:00 PM 23.19 73.742 0.146 7.27 13.47 7.7
7/7/2021 10:45:00 PM 23.02 73.436 0.143 7.25 15.68 7.69
7/7/2021 11:00:00 PM 22.97 73.346 0.145 7.24 15.24 7.63
7/7/2021 11:15:00 PM 22.92 73.256 0.146 7.23 14.72 7.58
7/7/2021 11:30:00 PM 22.84 73.112 0.146 7.22 14.61 7.57
7/7/2021 11:45:00 PM 22.77 72.986 0.145 7.21 14.19 7.55
7/8/2021 12:00:00 AM 22.71 72.878 0.145 7.21 14.47 7.53
7/8/2021 12:15:00 AM 22.65 72.77 0.146 7.21 13.87 7.53
7/8/2021 12:30:00 AM 22.53 72.554 0.144 7.18 15.41 7.52
7/8/2021 12:45:00 AM 22.4 72.32 0.143 7.17 15.86 7.52
7/8/2021 1:00:00 AM 22.3 72.14 0.144 7.16 17.14 7.53
7/8/2021 1:15:00 AM 22.21 71.978 0.146 7.17 22.06 7.58
7/8/2021 1:30:00 AM 21.73 71.114 0.143 7.13 62.09 7.71
7/8/2021 1:45:00 AM 21.28 70.304 0.126 7.04 126.72 7.83
7/8/2021 2:00:00 AM 20.99 69.782 0.109 6.94 195.62 7.87
7/8/2021 2:15:00 AM 20.75 69.35 0.101 6.85 247.32 7.89
7/8/2021 2:30:00 AM 20.63 69.134 0.106 6.87 250.86 7.88
7/8/2021 2:45:00 AM 20.49 68.882 0.116 6.89 182.53 7.9
7/8/2021 3:00:00 AM 20.29 68.522 0.112 6.88 159.57 7.91
7/8/2021 3:15:00 AM 20.03 68.054 0.105 6.82 210.42 7.94
7/8/2021 3:30:00 AM 19.85 67.73 0.102 6.82 207.26 7.96
7/8/2021 3:45:00 AM 19.73 67.514 0.101 6.8 236.11 7.97
7/8/2021 4:00:00 AM 19.64 67.352 0.099 6.8 217.27 7.98
7/8/2021 4:15:00 AM 19.57 67.226 0.098 6.79 217.65 7.99
7/8/2021 4:30:00 AM 19.51 67.118 0.098 6.8 202.93 7.99
7/8/2021 4:45:00 AM 19.46 67.028 0.099 6.8 175.79 8.01
7/8/2021 5:00:00 AM 19.41 66.938 0.099 6.8 164.52 8.03
7/8/2021 5:15:00 AM 19.37 66.866 0.1 6.81 138.77 8.04
7/8/2021 5:30:00 AM 19.34 66.812 0.1 6.81 122.99 8.05
7/8/2021 5:45:00 AM 19.31 66.758 0.101 6.81 109.68 8.07
7/8/2021 6:00:00 AM 19.28 66.704 0.102 6.82 109.25 8.08
7/8/2021 6:15:00 AM 19.25 66.65 0.102 6.82 150.46 8.08
7/8/2021 6:30:00 AM 19.22 66.596 0.103 6.83 140.43 8.1
7/8/2021 6:45:00 AM 19.19 66.542 0.103 6.84 82.88 8.12
7/8/2021 7:00:00 AM 19.17 66.506 0.104 6.86 132.89 8.13
7/8/2021 7:15:00 AM 19.15 66.47 0.105 6.86 74.65 8.14
7/8/2021 7:30:00 AM 19.14 66.452 0.105 6.87 72.33 8.16
7/8/2021 7:45:00 AM 19.14 66.452 0.106 6.88 81.73 8.18
7/8/2021 8:00:00 AM 19.13 66.434 0.107 6.88 174.66 8.19
7/8/2021 8:15:00 AM 19.13 66.434 0.107 6.89 126.66 8.21
7/8/2021 8:30:00 AM 19.13 66.434 0.108 6.9 148.91 8.23
7/8/2021 8:45:00 AM 19.14 66.452 0.108 6.91 90.36 8.25
7/8/2021 9:00:00 AM 19.16 66.488 0.109 6.93 40.65 8.26
7/8/2021 9:15:00 AM 19.22 66.596 0.109 6.94 178.47 8.29
7/8/2021 9:30:00 AM 19.26 66.668 0.11 6.96 36.31 8.31
7/8/2021 9:45:00 AM 19.31 66.758 0.11 6.97 42.45 8.32
7/8/2021 10:00:00 AM 19.37 66.866 0.11 6.98 36.78 8.34
7/8/2021 10:15:00 AM 19.41 66.938 0.111 6.98 38.91 8.35
7/8/2021 10:30:00 AM 19.47 67.046 0.111 6.99 35.78 8.37
7/8/2021 10:45:00 AM 19.56 67.208 0.111 7 26.82 8.39
7/8/2021 11:00:00 AM 19.64 67.352 0.112 7.01 27.73 8.42
7/8/2021 11:15:00 AM 19.72 67.496 0.112 7.02 30.18 8.43
7/8/2021 11:30:00 AM 19.82 67.676 0.112 7.04 27.96 8.45
7/8/2021 11:45:00 AM 19.92 67.856 0.112 7.04 28.48 8.47
7/8/2021 12:00:00 PM 19.99 67.982 0.113 7.05 26.98 8.47
7/8/2021 12:15:00 PM 20.04 68.07201 0.113 7.05 26.61 8.47
7/8/2021 12:30:00 PM 20.1 68.18 0.113 7.07 26.67 8.48
7/8/2021 12:45:00 PM 20.18 68.324 0.114 7.08 24.84 8.49
7/8/2021 1:00:00 PM 20.25 68.45 0.114 7.08 24.28 8.49
7/8/2021 1:15:00 PM 20.31 68.558 0.114 7.09 32.06 8.47
7/8/2021 1:30:00 PM 20.36 68.648 0.114 7.09 22.42 8.48
7/8/2021 1:45:00 PM 20.39 68.702 0.115 7.09 25.42 8.45
7/8/2021 2:00:00 PM 20.44 68.792 0.115 7.09 21.92 8.44
7/8/2021 2:15:00 PM 20.51 68.918 0.115 7.11 21.85 8.47
7/8/2021 2:30:00 PM 20.59 69.062 0.115 7.11 22.22 8.49
7/8/2021 2:45:00 PM 20.66 69.188 0.115 7.12 21.97 8.5
7/8/2021 3:00:00 PM 20.69 69.242 0.116 7.12 18.76 8.48
7/8/2021 3:15:00 PM 20.72 69.296 0.116 7.12 20.7 8.46
7/8/2021 3:30:00 PM 20.74 69.332 0.116 7.11 20.93 8.43
7/8/2021 3:45:00 PM 20.77 69.386 0.116 7.12 21.83 8.42
7/8/2021 4:00:00 PM 20.82 69.476 0.116 7.13 20.75 8.44
7/8/2021 4:15:00 PM 20.9 69.62 0.116 7.14 20.22 8.45
7/8/2021 4:30:00 PM 20.96 69.728 0.116 7.14 20.91 8.45
7/8/2021 4:45:00 PM 21.02 69.836 0.117 7.15 19.59 8.44
7/8/2021 5:00:00 PM 21.05 69.89 0.117 7.14 18.84 8.41
7/8/2021 5:15:00 PM 21.07 69.926 0.117 7.14 17.29 8.37
7/8/2021 5:30:00 PM 21.09 69.962 0.117 7.14 19.12 8.34
7/8/2021 5:45:00 PM 21.11 69.998 0.117 7.14 20.18 8.32
7/8/2021 6:00:00 PM 21.12 70.016 0.117 7.13 19.58 8.3
7/8/2021 6:15:00 PM 21.13 70.034 0.117 7.14 24.18 8.28
7/8/2021 6:30:00 PM 21.15 70.07 0.117 7.14 18.63 8.25
7/8/2021 6:45:00 PM 21.15 70.07 0.118 7.14 19.26 8.23
7/8/2021 7:00:00 PM 21.15 70.07 0.118 7.13 19.02 8.21
7/8/2021 7:15:00 PM 21.14 70.052 0.118 7.12 18.91 8.19
7/8/2021 7:30:00 PM 21.13 70.034 0.118 7.12 18.72 8.16
7/8/2021 7:45:00 PM 21.11 69.998 0.118 7.12 19.01 8.14
7/8/2021 8:00:00 PM 21.08 69.944 0.118 7.11 19.29 8.11
7/8/2021 8:15:00 PM 21.05 69.89 0.118 7.12 19.22 8.09
7/8/2021 8:30:00 PM 21.02 69.836 0.119 7.1 19.51 8.07
7/8/2021 8:45:00 PM 20.99 69.782 0.118 7.1 19.88 8.05
7/8/2021 9:00:00 PM 20.96 69.728 0.118 7.1 20.23 8.04
7/8/2021 9:15:00 PM 20.92 69.656 0.118 7.09 21.03 8.03
7/8/2021 9:30:00 PM 20.88 69.584 0.118 7.09 20.9 8.02
7/8/2021 9:45:00 PM 20.84 69.512 0.119 7.08 20.39 8.01
7/8/2021 10:00:00 PM 20.8 69.44 0.119 7.07 20.31 7.99
7/8/2021 10:15:00 PM 20.76 69.368 0.119 7.07 20.38 7.99
7/8/2021 10:30:00 PM 20.72 69.296 0.119 7.08 20.65 8
7/8/2021 10:45:00 PM 20.68 69.224 0.119 7.07 20.06 7.98
7/8/2021 11:00:00 PM 20.64 69.152 0.119 7.06 19.9 7.97
7/8/2021 11:15:00 PM 20.6 69.08 0.119 7.07 19.92 7.97
7/8/2021 11:30:00 PM 20.55 68.99 0.119 7.07 19.71 7.97
7/8/2021 11:45:00 PM 20.51 68.918 0.12 7.06 19.44 7.97
7/9/2021 12:00:00 AM 20.47 68.846 0.12 7.07 19.16 7.98
7/9/2021 12:15:00 AM 20.43 68.774 0.12 7.07 19.65 7.98
7/9/2021 12:30:00 AM 20.39 68.702 0.12 7.07 19.31 7.99
7/9/2021 12:45:00 AM 20.35 68.63 0.12 7.06 19.24 8
7/9/2021 1:00:00 AM 20.31 68.558 0.12 7.05 18.72 8
7/9/2021 1:15:00 AM 20.27 68.486 0.12 7.05 19.31 8.02
7/9/2021 1:30:00 AM 20.24 68.432 0.12 7.05 19.63 8.03
7/9/2021 1:45:00 AM 20.2 68.36 0.12 7.05 19.51 8.04
7/9/2021 2:00:00 AM 20.16 68.288 0.12 7.05 19.95 8.04
7/9/2021 2:15:00 AM 20.12 68.216 0.12 7.06 20.02 8.05
7/9/2021 2:30:00 AM 20.08 68.144 0.12 7.05 20.04 8.06
7/9/2021 2:45:00 AM 20.04 68.07201 0.12 7.05 19.92 8.08
7/9/2021 3:00:00 AM 19.99 67.982 0.12 7.05 19.7 8.09
7/9/2021 3:15:00 AM 19.93 67.874 0.12 7.05 19.54 8.1
7/9/2021 3:30:00 AM 19.88 67.784 0.121 7.05 19.1 8.11
7/9/2021 3:45:00 AM 19.83 67.694 0.121 7.04 19.66 8.12
7/9/2021 4:00:00 AM 19.77 67.586 0.122 7.05 19.59 8.13
7/9/2021 4:15:00 AM 19.71 67.478 0.122 7.04 19.22 8.14
7/9/2021 4:30:00 AM 19.65 67.37 0.122 7.04 19.33 8.15
7/9/2021 4:45:00 AM 19.59 67.262 0.122 7.04 19.02 8.16
7/9/2021 5:00:00 AM 19.54 67.172 0.123 7.05 19.02 8.16
7/9/2021 5:15:00 AM 19.5 67.1 0.123 7.05 18.36 8.17
7/9/2021 5:30:00 AM 19.45 67.01 0.123 7.05 18.82 8.18
7/9/2021 5:45:00 AM 19.41 66.938 0.123 7.05 18.88 8.18
7/9/2021 6:00:00 AM 19.36 66.848 0.123 7.05 18.72 8.2
7/9/2021 6:15:00 AM 19.32 66.776 0.123 7.05 16.24 8.21
7/9/2021 6:30:00 AM 19.28 66.704 0.123 7.05 17.49 8.22
7/9/2021 6:45:00 AM 19.25 66.65 0.123 7.05 17.42 8.24
7/9/2021 7:00:00 AM 19.22 66.596 0.123 7.04 17.09 8.24
7/9/2021 7:15:00 AM 19.19 66.542 0.123 7.05 15.6 8.27
7/9/2021 7:30:00 AM 19.17 66.506 0.123 7.05 16.88 8.28
7/9/2021 7:45:00 AM 19.16 66.488 0.123 7.05 16.41 8.31
7/9/2021 8:00:00 AM 19.15 66.47 0.123 7.06 16.32 8.34
7/9/2021 8:15:00 AM 19.14 66.452 0.124 7.06 15.48 8.36
7/9/2021 8:30:00 AM 19.14 66.452 0.124 7.07 15.56 8.4
7/9/2021 8:45:00 AM 19.16 66.488 0.124 7.08 15.13 8.42
7/9/2021 9:00:00 AM 19.2 66.56 0.125 7.09 14.84 8.47
7/9/2021 9:15:00 AM 19.25 66.65 0.125 7.11 14.58 8.53
7/9/2021 9:30:00 AM 19.28 66.704 0.125 7.12 14.22 8.55
7/9/2021 9:45:00 AM 19.32 66.776 0.126 7.13 13.97 8.6
7/9/2021 10:00:00 AM 19.42 66.956 0.126 7.14 13.44 8.66
7/9/2021 10:15:00 AM 19.48 67.064 0.126 7.16 13 8.7
7/9/2021 10:30:00 AM 19.57 67.226 0.126 7.17 13.32 8.75
7/9/2021 10:45:00 AM 19.65 67.37 0.126 7.18 12.76 8.79
7/9/2021 11:00:00 AM 19.71 67.478 0.127 7.19 12.85 8.8
7/9/2021 11:15:00 AM 19.84 67.712 0.127 7.22 12.42 8.84
7/9/2021 11:30:00 AM 20.01 68.018 0.127 7.24 12.5 8.89
7/9/2021 11:45:00 AM 20.11 68.198 0.127 7.23 11.64 8.91
7/9/2021 12:00:00 PM 20.2 68.36 0.127 7.25 11.59 8.9
7/9/2021 12:15:00 PM 20.39 68.702 0.127 7.28 11.41 8.97
7/9/2021 12:30:00 PM 20.48 68.864 0.128 7.27 11.33 8.96
7/9/2021 12:45:00 PM 20.66 69.188 0.128 7.31 11.09 9.01
7/9/2021 1:00:00 PM 20.81 69.458 0.128 7.32 11.04 9.04
7/9/2021 1:15:00 PM 20.91 69.638 0.128 7.33 10.94 9.04
7/9/2021 1:30:00 PM 21.08 69.944 0.128 7.35 10.87 9.03
7/9/2021 1:45:00 PM 21.35 70.43 0.128 7.37 10.58 9.08
7/9/2021 2:00:00 PM 21.57 70.826 0.128 7.38 10.76 9.09
7/9/2021 2:15:00 PM 21.78 71.204 0.128 7.4 10.43 9.09
7/9/2021 2:30:00 PM 21.92 71.456 0.128 7.4 10.32 9.08
7/9/2021 2:45:00 PM 21.99 71.582 0.128 7.39 10.19 8.97
7/9/2021 3:00:00 PM 22.15 71.87 0.128 7.39 10.23 8.99
7/9/2021 3:15:00 PM 22.22 71.996 0.128 7.39 10.34 8.93
7/9/2021 3:30:00 PM 22.22 71.996 0.128 7.37 10.12 8.83
7/9/2021 3:45:00 PM 22.14 71.852 0.127 7.34 10.85 8.66
7/9/2021 4:00:00 PM 22.09 71.762 0.127 7.31 11.22 8.56
7/9/2021 4:15:00 PM 22.1 71.78 0.127 7.3 10.72 8.48
7/9/2021 4:30:00 PM 22.14 71.852 0.127 7.3 10.65 8.43
7/9/2021 4:45:00 PM 22.22 71.996 0.127 7.3 10.64 8.47
7/9/2021 5:00:00 PM 22.27 72.086 0.127 7.31 10.59 8.42
7/9/2021 5:15:00 PM 22.31 72.158 0.127 7.31 10.71 8.41
7/9/2021 5:30:00 PM 22.28 72.104 0.126 7.3 12.15 8.39
7/9/2021 5:45:00 PM 22.2 71.96 0.125 7.28 13.59 8.35
7/9/2021 6:00:00 PM 22.08 71.744 0.125 7.25 18.35 8.28
7/9/2021 6:15:00 PM 21.96 71.528 0.126 7.21 59.72 8.2
7/9/2021 6:30:00 PM 21.85 71.33 0.126 7.18 203.69 8.11
7/9/2021 6:45:00 PM 21.78 71.204 0.127 7.15 145 8.1
7/9/2021 7:00:00 PM 21.58 70.844 0.126 7.13 117.87 8.09
7/9/2021 7:15:00 PM 21.36 70.448 0.122 7.11 130.07 8.09
7/9/2021 7:30:00 PM 21.25 70.25 0.118 7.08 96.82 8.06
7/9/2021 7:45:00 PM 21.21 70.17799 0.114 7.05 98.51 8.03
7/9/2021 8:00:00 PM 21.17 70.106 0.109 7.03 92.1 8.01
7/9/2021 8:15:00 PM 21.09 69.962 0.102 7 102.97 8
7/9/2021 8:30:00 PM 21 69.8 0.097 6.97 125.08 8
7/9/2021 8:45:00 PM 20.91 69.638 0.095 6.96 97.07 8.01
7/9/2021 9:00:00 PM 20.84 69.512 0.095 6.95 91.62 8.01
7/9/2021 9:15:00 PM 20.78 69.404 0.096 6.95 66.34 8.03
7/9/2021 9:30:00 PM 20.72 69.296 0.097 6.95 69.09 8.03
7/9/2021 9:45:00 PM 20.65 69.17 0.099 6.95 56.2 8.04
7/9/2021 10:00:00 PM 20.56 69.008 0.1 6.95 51.58 8.04
7/9/2021 10:15:00 PM 20.48 68.864 0.102 6.95 49.49 8.06
7/9/2021 10:30:00 PM 20.4 68.72 0.103 6.95 48.71 8.07
7/9/2021 10:45:00 PM 20.33 68.594 0.104 6.95 56.22 8.07
7/9/2021 11:00:00 PM 20.26 68.468 0.104 6.95 44.64 8.08
7/9/2021 11:15:00 PM 20.2 68.36 0.105 6.95 44.46 8.09
7/9/2021 11:30:00 PM 20.15 68.27 0.107 6.96 44.21 8.09
7/9/2021 11:45:00 PM 20.1 68.18 0.108 6.96 42.02 8.1
7/10/2021 12:00:00 AM 20.05 68.09 0.109 6.96 39.82 8.1
7/10/2021 12:15:00 AM 20 68 0.11 6.97 39.27 8.11
7/10/2021 12:30:00 AM 19.95 67.91 0.111 6.98 37.34 8.11
7/10/2021 12:45:00 AM 19.9 67.82 0.111 6.98 37.19 8.12
7/10/2021 1:00:00 AM 19.85 67.73 0.112 6.98 36.11 8.13
7/10/2021 1:15:00 AM 19.8 67.64 0.112 6.98 33.25 8.14
7/10/2021 1:30:00 AM 19.75 67.55 0.113 6.98 40.74 8.15
7/10/2021 1:45:00 AM 19.7 67.46 0.113 6.99 31.87 8.15
7/10/2021 2:00:00 AM 19.65 67.37 0.113 6.99 30.87 8.16
7/10/2021 2:15:00 AM 19.61 67.298 0.113 6.99 32.61 8.17
7/10/2021 2:30:00 AM 19.56 67.208 0.114 6.99 25.91 8.18
7/10/2021 2:45:00 AM 19.52 67.136 0.114 6.99 24.06 8.19
7/10/2021 3:00:00 AM 19.47 67.046 0.114 7 24.61 8.2
7/10/2021 3:15:00 AM 19.43 66.974 0.114 7 23.77 8.21
7/10/2021 3:30:00 AM 19.39 66.902 0.115 7 26.07 8.21
7/10/2021 3:45:00 AM 19.36 66.848 0.115 7.01 22.46 8.22
7/10/2021 4:00:00 AM 19.32 66.776 0.115 7 20.95 8.23
7/10/2021 4:15:00 AM 19.28 66.704 0.115 7 20.97 8.24
7/10/2021 4:30:00 AM 19.25 66.65 0.116 7 20.23 8.24
7/10/2021 4:45:00 AM 19.21 66.578 0.116 7.01 19.85 8.25
7/10/2021 5:00:00 AM 19.18 66.524 0.116 7.01 19.65 8.25
7/10/2021 5:15:00 AM 19.15 66.47 0.116 7.01 19.74 8.26
7/10/2021 5:30:00 AM 19.11 66.398 0.116 7.01 19.01 8.27
7/10/2021 5:45:00 AM 19.08 66.344 0.116 7.01 18.49 8.28
7/10/2021 6:00:00 AM 19.04 66.272 0.116 7.01 18.49 8.28
7/10/2021 6:15:00 AM 19.01 66.218 0.116 7.02 18.11 8.3
7/10/2021 6:30:00 AM 18.98 66.164 0.116 7.01 18.06 8.31
7/10/2021 6:45:00 AM 18.94 66.092 0.117 7.02 17.57 8.32
7/10/2021 7:00:00 AM 18.92 66.056 0.117 7.02 16.29 8.33
7/10/2021 7:15:00 AM 18.89 66.002 0.117 7.02 16.95 8.35
7/10/2021 7:30:00 AM 18.87 65.966 0.117 7.02 16.43 8.37
7/10/2021 7:45:00 AM 18.84 65.912 0.117 7.03 15.9 8.38
7/10/2021 8:00:00 AM 18.82 65.876 0.117 7.03 15.92 8.4
7/10/2021 8:15:00 AM 18.8 65.84 0.117 7.03 15.54 8.42
7/10/2021 8:30:00 AM 18.79 65.82201 0.117 7.04 15.08 8.43
7/10/2021 8:45:00 AM 18.76 65.768 0.117 7.04 14.72 8.44
7/10/2021 9:00:00 AM 18.74 65.732 0.117 7.04 14.14 8.45
7/10/2021 9:15:00 AM 18.73 65.714 0.117 7.05 13.87 8.47
7/10/2021 9:30:00 AM 18.73 65.714 0.117 7.05 14.11 8.5
7/10/2021 9:45:00 AM 18.73 65.714 0.117 7.06 13.31 8.52
7/10/2021 10:00:00 AM 18.73 65.714 0.118 7.07 12.95 8.54
7/10/2021 10:15:00 AM 18.74 65.732 0.118 7.07 13.15 8.59
7/10/2021 10:30:00 AM 18.74 65.732 0.118 7.07 12.93 8.6
7/10/2021 10:45:00 AM 18.75 65.75 0.118 7.09 12.49 8.64
7/10/2021 11:00:00 AM 18.79 65.82201 0.118 7.1 12.11 8.71
7/10/2021 11:15:00 AM 18.79 65.82201 0.118 7.1 11.97 8.72
7/10/2021 11:30:00 AM 18.83 65.894 0.118 7.11 12.09 8.75
7/10/2021 11:45:00 AM 18.87 65.966 0.118 7.13 12.5 8.82
7/10/2021 12:00:00 PM 18.89 66.002 0.118 7.13 12.7 8.81
7/10/2021 12:15:00 PM 18.91 66.038 0.118 7.14 12.41 8.84
7/10/2021 12:30:00 PM 18.93 66.074 0.119 7.14 11.79 8.85
7/10/2021 12:45:00 PM 18.96 66.128 0.119 7.15 11.37 8.88
7/10/2021 1:00:00 PM 19.02 66.236 0.119 7.16 11.14 8.91
7/10/2021 1:15:00 PM 19.17 66.506 0.119 7.19 10.86 8.99
7/10/2021 1:30:00 PM 19.35 66.83 0.119 7.21 10.78 9.07
7/10/2021 1:45:00 PM 19.56 67.208 0.119 7.24 10.53 9.14
7/10/2021 2:00:00 PM 19.71 67.478 0.119 7.25 10.32 9.19
7/10/2021 2:15:00 PM 19.84 67.712 0.119 7.27 10.37 9.22
7/10/2021 2:30:00 PM 19.96 67.92799 0.119 7.28 10.21 9.24
7/10/2021 2:45:00 PM 20.07 68.126 0.119 7.29 10.32 9.26
7/10/2021 3:00:00 PM 20.14 68.252 0.12 7.29 10 9.26
7/10/2021 3:15:00 PM 20.24 68.432 0.12 7.3 10.27 9.26
7/10/2021 3:30:00 PM 20.32 68.576 0.12 7.3 10.18 9.25
7/10/2021 3:45:00 PM 20.44 68.792 0.12 7.33 9.91 9.25
7/10/2021 4:00:00 PM 20.59 69.062 0.12 7.33 10.21 9.24
7/10/2021 4:15:00 PM 20.7 69.26 0.12 7.33 10.09 9.22
7/10/2021 4:30:00 PM 20.81 69.458 0.12 7.33 9.99 9.2
7/10/2021 4:45:00 PM 20.9 69.62 0.121 7.34 9.93 9.15
7/10/2021 5:00:00 PM 21 69.8 0.121 7.34 9.99 9.14
7/10/2021 5:15:00 PM 21.08 69.944 0.121 7.33 9.72 9.09
7/10/2021 5:30:00 PM 21.12 70.016 0.121 7.33 9.65 9.03
7/10/2021 5:45:00 PM 21.15 70.07 0.121 7.31 9.61 8.97
7/10/2021 6:00:00 PM 21.16 70.088 0.121 7.3 9.73 8.89
7/10/2021 6:15:00 PM 21.17 70.106 0.122 7.29 9.84 8.83
7/10/2021 6:30:00 PM 21.17 70.106 0.122 7.29 9.61 8.78
7/10/2021 6:45:00 PM 21.16 70.088 0.122 7.27 9.56 8.72
7/10/2021 7:00:00 PM 21.15 70.07 0.122 7.26 9.71 8.66
7/10/2021 7:15:00 PM 21.13 70.034 0.123 7.25 9.81 8.61
7/10/2021 7:30:00 PM 21.1 69.98 0.123 7.24 9.6 8.55
7/10/2021 7:45:00 PM 21.06 69.908 0.123 7.22 9.63 8.49
7/10/2021 8:00:00 PM 21.01 69.818 0.123 7.21 9.68 8.44
7/10/2021 8:15:00 PM 20.94 69.692 0.123 7.19 9.64 8.39
7/10/2021 8:30:00 PM 20.86 69.548 0.124 7.18 9.7 8.35
7/10/2021 8:45:00 PM 20.78 69.404 0.124 7.17 9.71 8.31
7/10/2021 9:00:00 PM 20.69 69.242 0.124 7.16 10.16 8.28
7/10/2021 9:15:00 PM 20.6 69.08 0.124 7.14 10.17 8.23
7/10/2021 9:30:00 PM 20.51 68.918 0.124 7.14 10.57 8.21
7/10/2021 9:45:00 PM 20.43 68.774 0.124 7.14 10.39 8.2
7/10/2021 10:00:00 PM 20.34 68.612 0.124 7.13 10.46 8.18
7/10/2021 10:15:00 PM 20.25 68.45 0.125 7.12 10.51 8.17
7/10/2021 10:30:00 PM 20.16 68.288 0.125 7.11 10.67 8.16
7/10/2021 10:45:00 PM 20.06 68.108 0.125 7.11 10.36 8.15
7/10/2021 11:00:00 PM 19.97 67.946 0.125 7.1 10.46 8.15
7/10/2021 11:15:00 PM 19.88 67.784 0.125 7.1 10.35 8.15
7/10/2021 11:30:00 PM 19.78 67.604 0.125 7.09 9.98 8.14
7/10/2021 11:45:00 PM 19.7 67.46 0.126 7.08 9.86 8.14
7/11/2021 12:00:00 AM 19.61 67.298 0.126 7.08 10.04 8.14
7/11/2021 12:15:00 AM 19.53 67.154 0.126 7.09 9.78 8.16
7/11/2021 12:30:00 AM 19.46 67.028 0.126 7.08 10 8.15
7/11/2021 12:45:00 AM 19.38 66.884 0.126 7.08 9.68 8.16
7/11/2021 1:00:00 AM 19.31 66.758 0.126 7.07 9.78 8.17
7/11/2021 1:15:00 AM 19.25 66.65 0.126 7.07 9.73 8.18
7/11/2021 1:30:00 AM 19.19 66.542 0.126 7.07 9.44 8.18
7/11/2021 1:45:00 AM 19.12 66.416 0.127 7.07 9.56 8.2
7/11/2021 2:00:00 AM 19.06 66.308 0.127 7.07 9.49 8.2
7/11/2021 2:15:00 AM 18.99 66.182 0.127 7.07 9.41 8.21
7/11/2021 2:30:00 AM 18.92 66.056 0.127 7.07 9.62 8.22
7/11/2021 2:45:00 AM 18.86 65.948 0.127 7.07 9.34 8.23
7/11/2021 3:00:00 AM 18.8 65.84 0.127 7.07 9.4 8.23
7/11/2021 3:15:00 AM 18.74 65.732 0.127 7.07 9.36 8.25
7/11/2021 3:30:00 AM 18.68 65.624 0.128 7.06 9.3 8.26
7/11/2021 3:45:00 AM 18.63 65.534 0.128 7.07 9.68 8.27
7/11/2021 4:00:00 AM 18.57 65.426 0.128 7.06 9.73 8.28
7/11/2021 4:15:00 AM 18.51 65.318 0.128 7.06 9.01 8.29
7/11/2021 4:30:00 AM 18.45 65.21 0.128 7.06 9.15 8.31
7/11/2021 4:45:00 AM 18.4 65.12 0.128 7.06 9.09 8.31
7/11/2021 5:00:00 AM 18.34 65.012 0.129 7.07 9.25 8.33
7/11/2021 5:15:00 AM 18.28 64.904 0.129 7.06 9.48 8.34
7/11/2021 5:30:00 AM 18.22 64.796 0.129 7.07 9.34 8.36
7/11/2021 5:45:00 AM 18.16 64.688 0.129 7.07 9.25 8.37
7/11/2021 6:00:00 AM 18.1 64.58 0.129 7.06 9.29 8.37
7/11/2021 6:15:00 AM 18.04 64.472 0.129 7.07 9.26 8.39
7/11/2021 6:30:00 AM 17.98 64.364 0.129 7.07 8.97 8.42
7/11/2021 6:45:00 AM 17.92 64.256 0.129 7.07 9.24 8.45
7/11/2021 7:00:00 AM 17.87 64.166 0.13 7.07 8.91 8.46
7/11/2021 7:15:00 AM 17.82 64.076 0.13 7.07 8.64 8.5
7/11/2021 7:30:00 AM 17.78 64.004 0.13 7.08 8.45 8.54
7/11/2021 7:45:00 AM 17.75 63.95 0.13 7.08 8.34 8.59
7/11/2021 8:00:00 AM 17.72 63.896 0.13 7.09 8.32 8.65
7/11/2021 8:15:00 AM 17.7 63.86 0.13 7.1 8.29 8.72
7/11/2021 8:30:00 AM 17.67 63.806 0.13 7.1 8.03 8.78
7/11/2021 8:45:00 AM 17.65 63.77 0.13 7.11 7.81 8.81
7/11/2021 9:00:00 AM 17.63 63.734 0.13 7.11 7.74 8.84
7/11/2021 9:15:00 AM 17.62 63.716 0.131 7.13 7.77 8.9
7/11/2021 9:30:00 AM 17.63 63.734 0.13 7.14 7.52 8.97
7/11/2021 9:45:00 AM 17.64 63.752 0.131 7.15 7.42 9.03
7/11/2021 10:00:00 AM 17.66 63.788 0.131 7.16 7.29 9.1
7/11/2021 10:15:00 AM 17.68 63.824 0.131 7.17 7.19 9.16
7/11/2021 10:30:00 AM 17.71 63.878 0.131 7.19 7.33 9.22
7/11/2021 10:45:00 AM 17.75 63.95 0.131 7.2 7.09 9.27
7/11/2021 11:00:00 AM 17.8 64.04 0.131 7.22 7.13 9.34
7/11/2021 11:15:00 AM 17.84 64.112 0.131 7.23 6.75 9.39
7/11/2021 11:30:00 AM 17.9 64.22 0.131 7.25 6.78 9.42
7/11/2021 11:45:00 AM 17.96 64.328 0.131 7.26 6.63 9.49
7/11/2021 12:00:00 PM 18 64.4 0.131 7.28 6.34 9.5
7/11/2021 12:15:00 PM 18.03 64.454 0.131 7.29 6.41 9.49
7/11/2021 12:30:00 PM 18.05 64.49 0.131 7.28 6.23 9.48
7/11/2021 12:45:00 PM 18.07 64.526 0.131 7.28 6.21 9.44
7/11/2021 1:00:00 PM 18.08 64.544 0.131 7.28 6.21 9.41
7/11/2021 1:15:00 PM 18.1 64.58 0.131 7.28 6.22 9.37
7/11/2021 1:30:00 PM 18.12 64.616 0.131 7.27 6.23 9.35
7/11/2021 1:45:00 PM 18.15 64.67 0.13 7.27 6.31 9.29
7/11/2021 2:00:00 PM 18.17 64.706 0.13 7.27 6.32 9.26
7/11/2021 2:15:00 PM 18.2 64.76 0.13 7.26 6.61 9.22
7/11/2021 2:30:00 PM 18.22 64.796 0.13 7.25 6.8 9.17
7/11/2021 2:45:00 PM 18.25 64.85 0.13 7.25 6.51 9.13
7/11/2021 3:00:00 PM 18.27 64.886 0.13 7.25 6.38 9.1
7/11/2021 3:15:00 PM 18.28 64.904 0.13 7.25 6.38 9.08
7/11/2021 3:30:00 PM 18.3 64.94 0.13 7.24 6.35 9.07
7/11/2021 3:45:00 PM 18.3 64.94 0.13 7.24 6.52 9.04
7/11/2021 4:00:00 PM 18.3 64.94 0.13 7.23 6.77 9
7/11/2021 4:15:00 PM 18.3 64.94 0.13 7.23 6.55 8.97
7/11/2021 4:30:00 PM 18.29 64.922 0.129 7.22 6.77 8.93
7/11/2021 4:45:00 PM 18.28 64.904 0.13 7.21 7.01 8.9
7/11/2021 5:00:00 PM 18.27 64.886 0.129 7.2 7.53 8.9
7/11/2021 5:15:00 PM 18.26 64.868 0.13 7.2 7.67 8.88
7/11/2021 5:30:00 PM 18.25 64.85 0.13 7.19 8.04 8.86
7/11/2021 5:45:00 PM 18.23 64.814 0.131 7.19 8.19 8.83
7/11/2021 6:00:00 PM 18.21 64.778 0.131 7.18 9.14 8.82
7/11/2021 6:15:00 PM 18.2 64.76 0.13 7.17 12.03 8.8
7/11/2021 6:30:00 PM 18.17 64.706 0.13 7.16 20.07 8.76
7/11/2021 6:45:00 PM 18.14 64.652 0.128 7.14 57.1 8.76
7/11/2021 7:00:00 PM 18.14 64.652 0.124 7.13 78.84 8.74
7/11/2021 7:15:00 PM 18.1 64.58 0.123 7.1 98.44 8.75
7/11/2021 7:30:00 PM 18.02 64.436 0.121 7.08 89.08 8.76
7/11/2021 7:45:00 PM 17.96 64.328 0.116 7.07 120.22 8.73
7/11/2021 8:00:00 PM 17.9 64.22 0.103 7.02 160.08 8.72
7/11/2021 8:15:00 PM 17.86 64.148 0.093 6.97 228.85 8.71
7/11/2021 8:30:00 PM 17.85 64.13 0.089 6.93 216.28 8.68
7/11/2021 8:45:00 PM 17.83 64.094 0.086 6.91 214.6 8.64
7/11/2021 9:00:00 PM 17.81 64.058 0.085 6.88 196.27 8.6
7/11/2021 9:15:00 PM 17.79 64.022 0.083 6.85 212.04 8.57
7/11/2021 9:30:00 PM 17.78 64.004 0.082 6.85 178.39 8.54
7/11/2021 9:45:00 PM 17.77 63.986 0.08 6.82 172.98 8.51
7/11/2021 10:00:00 PM 17.75 63.95 0.078 6.81 284.56 8.47
7/11/2021 10:15:00 PM 17.72 63.896 0.076 6.79 187.51 8.45
7/11/2021 10:30:00 PM 17.68 63.824 0.075 6.76 246.34 8.45
7/11/2021 10:45:00 PM 17.65 63.77 0.073 6.76 209.66 8.44
7/11/2021 11:00:00 PM 17.63 63.734 0.072 6.76 173.56 8.43
7/11/2021 11:15:00 PM 17.61 63.698 0.071 6.7 139.91 8.43
7/11/2021 11:30:00 PM 17.58 63.644 0.071 6.71 150.97 8.42
7/11/2021 11:45:00 PM 17.56 63.608 0.071 6.7 119.53 8.42
7/12/2021 12:00:00 AM 17.54 63.572 0.07 6.7 113.6 8.4
7/12/2021 12:15:00 AM 17.52 63.536 0.07 6.68 122.15 8.39
7/12/2021 12:30:00 AM 17.5 63.5 0.07 6.58 134.9 8.38
7/12/2021 12:45:00 AM 17.49 63.482 0.07 6.6 105.59 8.36
7/12/2021 1:00:00 AM 17.48 63.464 0.069 6.61 99.92 8.36
7/12/2021 1:15:00 AM 17.46 63.428 0.069 6.63 105.21 8.36
7/12/2021 1:30:00 AM 17.45 63.41 0.069 6.63 99.98 8.35
7/12/2021 1:45:00 AM 17.44 63.392 0.068 6.63 91.84 8.35
7/12/2021 2:00:00 AM 17.44 63.392 0.069 6.63 115.23 8.33
7/12/2021 2:15:00 AM 17.43 63.374 0.069 6.62 107.73 8.32
7/12/2021 2:30:00 AM 17.42 63.356 0.069 6.62 89.98 8.31
7/12/2021 2:45:00 AM 17.41 63.338 0.07 6.62 101.42 8.3
7/12/2021 3:00:00 AM 17.4 63.32 0.071 6.62 95.77 8.29
7/12/2021 3:15:00 AM 17.4 63.32 0.071 6.62 72.94 8.28
7/12/2021 3:30:00 AM 17.38 63.284 0.072 6.62 74.18 8.27
7/12/2021 3:45:00 AM 17.37 63.266 0.073 6.58 68.31 8.27
7/12/2021 4:00:00 AM 17.36 63.248 0.074 6.56 64.75 8.26
7/12/2021 4:15:00 AM 17.35 63.23 0.075 6.57 69.22 8.25
7/12/2021 4:30:00 AM 17.34 63.212 0.075 6.58 65.01 8.24
7/12/2021 4:45:00 AM 17.32 63.176 0.076 6.56 58.05 8.24
7/12/2021 5:00:00 AM 17.31 63.158 0.076 6.58 55.79 8.24
7/12/2021 5:15:00 AM 17.3 63.14 0.077 6.56 51.21 8.25
7/12/2021 5:30:00 AM 17.28 63.104 0.077 6.54 52.69 8.27
7/12/2021 5:45:00 AM 17.27 63.086 0.078 6.55 59.53 8.3
7/12/2021 6:00:00 AM 17.26 63.068 0.078 6.55 63.8 8.33
7/12/2021 6:15:00 AM 17.25 63.05 0.079 6.56 55.03 8.37
7/12/2021 6:30:00 AM 17.23 63.014 0.079 6.56 59.98 8.39
7/12/2021 6:45:00 AM 17.23 63.014 0.08 6.57 46.23 8.42
7/12/2021 7:00:00 AM 17.22 62.996 0.08 6.57 44.15 8.45
7/12/2021 7:15:00 AM 17.21 62.978 0.08 6.57 43.95 8.48
7/12/2021 7:30:00 AM 17.21 62.978 0.081 6.57 40.06 8.5
7/12/2021 7:45:00 AM 17.21 62.978 0.081 6.57 37.23 8.52
7/12/2021 8:00:00 AM 17.21 62.978 0.082 6.57 46.01 8.54
7/12/2021 8:15:00 AM 17.21 62.978 0.082 6.57 50.72 8.56
7/12/2021 8:30:00 AM 17.21 62.978 0.082 6.58 33.09 8.57
7/12/2021 8:45:00 AM 17.22 62.996 0.082 6.59 46.19 8.59
7/12/2021 9:00:00 AM 17.22 62.996 0.083 6.59 33.05 8.6
7/12/2021 9:15:00 AM 17.23 63.014 0.083 6.6 31.64 8.62
7/12/2021 9:30:00 AM 17.24 63.032 0.083 6.6 33.79 8.63
7/12/2021 9:45:00 AM 17.26 63.068 0.083 6.61 34.04 8.63
7/12/2021 10:00:00 AM 17.28 63.104 0.084 6.61 46.46 8.64
7/12/2021 10:15:00 AM 17.3 63.14 0.084 6.62 31.36 8.65
7/12/2021 10:30:00 AM 17.33 63.194 0.084 6.62 34.9 8.66
7/12/2021 10:45:00 AM 17.36 63.248 0.084 6.63 40 8.67
7/12/2021 11:00:00 AM 17.38 63.284 0.085 6.63 35.2 8.68
7/12/2021 11:15:00 AM 17.41 63.338 0.085 6.63 38.78 8.69
7/12/2021 11:30:00 AM 17.45 63.41 0.085 6.65 34.54 8.7
7/12/2021 11:45:00 AM 17.51 63.518 0.085 6.65 34.13 8.71
7/12/2021 12:00:00 PM 17.58 63.644 0.085 6.68 33.97 8.71
7/12/2021 12:15:00 PM 17.69 63.842 0.086 6.68 25.73 8.73
7/12/2021 12:30:00 PM 17.79 64.022 0.086 6.68 40.81 8.73
7/12/2021 12:45:00 PM 17.86 64.148 0.086 6.69 29.08 8.74
7/12/2021 1:00:00 PM 17.99 64.382 0.086 6.7 29.72 8.74
7/12/2021 1:15:00 PM 18.09 64.562 0.086 6.7 30.28 8.74
7/12/2021 1:30:00 PM 18.21 64.778 0.087 6.7 30.38 8.73
7/12/2021 1:45:00 PM 18.34 65.012 0.087 6.71 27.15 8.73
7/12/2021 2:00:00 PM 18.4 65.12 0.087 6.71 31.92 8.72
7/12/2021 2:15:00 PM 18.47 65.246 0.087 6.72 28.49 8.71
7/12/2021 2:30:00 PM 18.58 65.444 0.087 6.72 26.69 8.71
7/12/2021 2:45:00 PM 18.64 65.552 0.087 6.72 24.51 8.7
7/12/2021 3:00:00 PM 18.75 65.75 0.088 6.73 27.14 8.69
7/12/2021 3:15:00 PM 18.81 65.858 0.088 6.72 23.61 8.67
7/12/2021 3:30:00 PM 18.87 65.966 0.088 6.73 26.17 8.65
7/12/2021 3:45:00 PM 18.97 66.146 0.088 6.73 26.57 8.64
7/12/2021 4:00:00 PM 19.02 66.236 0.088 6.73 25.59 8.62
7/12/2021 4:15:00 PM 19.05 66.29 0.088 6.72 26.91 8.61
7/12/2021 4:30:00 PM 19.07 66.326 0.088 6.73 26.17 8.59
7/12/2021 4:45:00 PM 19.1 66.38 0.088 6.72 26.38 8.58
7/12/2021 5:00:00 PM 19.14 66.452 0.088 6.72 27.23 8.56
7/12/2021 5:15:00 PM 19.18 66.524 0.088 6.72 27.62 8.55
7/12/2021 5:30:00 PM 19.2 66.56 0.088 6.71 24.55 8.53
7/12/2021 5:45:00 PM 19.21 66.578 0.087 6.7 23.59 8.52
7/12/2021 6:00:00 PM 19.2 66.56 0.087 6.71 24.2 8.51
7/12/2021 6:15:00 PM 19.18 66.524 0.087 6.72 24.46 8.5
7/12/2021 6:30:00 PM 19.17 66.506 0.087 6.71 23.54 8.5
7/12/2021 6:45:00 PM 19.14 66.452 0.087 6.71 27.48 8.5
7/12/2021 7:00:00 PM 19.12 66.416 0.087 6.71 23.19 8.49
7/12/2021 7:15:00 PM 19.11 66.398 0.087 6.71 24.01 8.48
7/12/2021 7:30:00 PM 19.1 66.38 0.087 6.71 23.33 8.47
7/12/2021 7:45:00 PM 19.09 66.362 0.087 6.7 23.32 8.46
7/12/2021 8:00:00 PM 19.08 66.344 0.087 6.7 23.59 8.45
7/12/2021 8:15:00 PM 19.06 66.308 0.087 6.7 22.64 8.44
7/12/2021 8:30:00 PM 19.04 66.272 0.087 6.69 24.76 8.43
7/12/2021 8:45:00 PM 19 66.2 0.087 6.69 24.11 8.43
7/12/2021 9:00:00 PM 18.96 66.128 0.087 6.69 23.38 8.43
7/12/2021 9:15:00 PM 18.92 66.056 0.087 6.68 23.32 8.42
7/12/2021 9:30:00 PM 18.88 65.984 0.088 6.68 23.53 8.42
7/12/2021 9:45:00 PM 18.84 65.912 0.088 6.68 23.09 8.42
7/12/2021 10:00:00 PM 18.79 65.82201 0.088 6.68 23.24 8.42
7/12/2021 10:15:00 PM 18.75 65.75 0.088 6.68 22.84 8.42
7/12/2021 10:30:00 PM 18.71 65.67799 0.088 6.67 21.2 8.42
7/12/2021 10:45:00 PM 18.66 65.588 0.088 6.67 23.32 8.43
7/12/2021 11:00:00 PM 18.62 65.516 0.088 6.67 23.19 8.44
7/12/2021 11:15:00 PM 18.57 65.426 0.088 6.67 22.97 8.44
7/12/2021 11:30:00 PM 18.53 65.354 0.088 6.67 22.71 8.45
7/12/2021 11:45:00 PM 18.49 65.282 0.089 6.66 23.86 8.46
7/13/2021 12:00:00 AM 18.45 65.21 0.089 6.65 23.01 8.47
7/13/2021 12:15:00 AM 18.41 65.138 0.089 6.65 23.19 8.47
7/13/2021 12:30:00 AM 18.37 65.066 0.089 6.66 23.29 8.48
7/13/2021 12:45:00 AM 18.34 65.012 0.089 6.66 22.71 8.49
7/13/2021 1:00:00 AM 18.3 64.94 0.089 6.66 22.4 8.49
7/13/2021 1:15:00 AM 18.26 64.868 0.089 6.67 22.7 8.5
7/13/2021 1:30:00 AM 18.22 64.796 0.089 6.66 21.07 8.51
7/13/2021 1:45:00 AM 18.19 64.742 0.089 6.66 22.02 8.52
7/13/2021 2:00:00 AM 18.16 64.688 0.089 6.66 22.03 8.53
7/13/2021 2:15:00 AM 18.14 64.652 0.089 6.66 21.9 8.52
7/13/2021 2:30:00 AM 18.11 64.598 0.089 6.66 21.83 8.53
7/13/2021 2:45:00 AM 18.09 64.562 0.089 6.66 21.29 8.53
7/13/2021 3:00:00 AM 18.07 64.526 0.089 6.66 21.29 8.53
7/13/2021 3:15:00 AM 18.05 64.49 0.089 6.67 20.92 8.54
7/13/2021 3:30:00 AM 18.03 64.454 0.089 6.65 20.98 8.54
7/13/2021 3:45:00 AM 18.02 64.436 0.089 6.65 20.62 8.55
7/13/2021 4:00:00 AM 18 64.4 0.089 6.65 20.93 8.55
7/13/2021 4:15:00 AM 17.98 64.364 0.089 6.66 20.83 8.55
7/13/2021 4:30:00 AM 17.97 64.346 0.089 6.69 21.52 8.55
7/13/2021 4:45:00 AM 17.96 64.328 0.089 6.68 21.43 8.55
7/13/2021 5:00:00 AM 17.95 64.31 0.09 6.68 21.21 8.56
7/13/2021 5:15:00 AM 17.93 64.274 0.09 6.68 21.62 8.56
7/13/2021 5:30:00 AM 17.92 64.256 0.09 6.69 21.8 8.56
7/13/2021 5:45:00 AM 17.9 64.22 0.09 6.67 21.45 8.57
7/13/2021 6:00:00 AM 17.89 64.202 0.09 6.67 21.82 8.57
7/13/2021 6:15:00 AM 17.88 64.184 0.09 6.67 21.1 8.57
7/13/2021 6:30:00 AM 17.87 64.166 0.09 6.67 21.06 8.58
7/13/2021 6:45:00 AM 17.86 64.148 0.09 6.67 20.62 8.58
7/13/2021 7:00:00 AM 17.85 64.13 0.09 6.66 20.32 8.59
7/13/2021 7:15:00 AM 17.85 64.13 0.09 6.68 18.35 8.6
7/13/2021 7:30:00 AM 17.84 64.112 0.09 6.68 19.63 8.61
7/13/2021 7:45:00 AM 17.84 64.112 0.09 6.68 19.14 8.61
7/13/2021 8:00:00 AM 17.84 64.112 0.09 6.68 19.16 8.62
7/13/2021 8:15:00 AM 17.85 64.13 0.09 6.69 18.84 8.64
7/13/2021 8:30:00 AM 17.87 64.166 0.09 6.69 18.23 8.65
7/13/2021 8:45:00 AM 17.89 64.202 0.09 6.69 18.35 8.66
7/13/2021 9:00:00 AM 17.93 64.274 0.09 6.7 17.84 8.68
7/13/2021 9:15:00 AM 17.97 64.346 0.09 6.71 17.43 8.69
7/13/2021 9:30:00 AM 18.01 64.418 0.091 6.73 17.41 8.7
7/13/2021 9:45:00 AM 18.07 64.526 0.091 6.74 15.11 8.71
7/13/2021 10:00:00 AM 18.18 64.724 0.091 6.75 17.11 8.74
7/13/2021 10:15:00 AM 18.3 64.94 0.091 6.76 16.78 8.76
7/13/2021 10:30:00 AM 18.36 65.048 0.091 6.77 16.75 8.76
7/13/2021 10:45:00 AM 18.42 65.156 0.091 6.78 16.82 8.76
7/13/2021 11:00:00 AM 18.48 65.264 0.091 6.78 16.67 8.75
7/13/2021 11:15:00 AM 18.53 65.354 0.091 6.79 16.53 8.74
7/13/2021 11:30:00 AM 18.58 65.444 0.091 6.79 16.08 8.73
7/13/2021 11:45:00 AM 18.63 65.534 0.091 6.8 15.91 8.73
7/13/2021 12:00:00 PM 18.69 65.642 0.091 6.8 15.83 8.73
7/13/2021 12:15:00 PM 18.77 65.786 0.091 6.82 15.57 8.74
7/13/2021 12:30:00 PM 18.89 66.002 0.091 6.82 15.51 8.76
7/13/2021 12:45:00 PM 18.99 66.182 0.091 6.83 15.28 8.77
7/13/2021 1:00:00 PM 19.11 66.398 0.091 6.84 15.33 8.78
7/13/2021 1:15:00 PM 19.25 66.65 0.091 6.85 14.92 8.8
7/13/2021 1:30:00 PM 19.37 66.866 0.091 6.85 14.5 8.79
7/13/2021 1:45:00 PM 19.49 67.082 0.092 6.86 14.99 8.78
7/13/2021 2:00:00 PM 19.68 67.424 0.092 6.88 14.71 8.79
7/13/2021 2:15:00 PM 19.84 67.712 0.092 6.88 14.53 8.77
7/13/2021 2:30:00 PM 19.93 67.874 0.092 6.88 14.29 8.73
7/13/2021 2:45:00 PM 19.95 67.91 0.092 6.87 14.65 8.68
7/13/2021 3:00:00 PM 19.98 67.964 0.092 6.87 14.57 8.63
7/13/2021 3:15:00 PM 20.03 68.054 0.092 6.87 14.59 8.59
7/13/2021 3:30:00 PM 20.13 68.234 0.092 6.88 14.53 8.58
7/13/2021 3:45:00 PM 20.2 68.36 0.092 6.87 14.39 8.56
7/13/2021 4:00:00 PM 20.23 68.414 0.092 6.86 14.51 8.54
7/13/2021 4:15:00 PM 20.26 68.468 0.092 6.87 14.75 8.52
7/13/2021 4:30:00 PM 20.31 68.558 0.092 6.87 14.33 8.51
7/13/2021 4:45:00 PM 20.34 68.612 0.092 6.86 14.83 8.5
7/13/2021 5:00:00 PM 20.39 68.702 0.092 6.87 15.09 8.49
7/13/2021 5:15:00 PM 20.44 68.792 0.092 6.87 15.59 8.48
7/13/2021 5:30:00 PM 20.48 68.864 0.092 6.87 16.99 8.46
7/13/2021 5:45:00 PM 20.5 68.9 0.092 6.87 18.38 8.44
7/13/2021 6:00:00 PM 20.53 68.954 0.093 6.87 18.78 8.42
7/13/2021 6:15:00 PM 20.56 69.008 0.093 6.88 18.5 8.41
7/13/2021 6:30:00 PM 20.58 69.044 0.093 6.88 18.68 8.41
7/13/2021 6:45:00 PM 20.59 69.062 0.094 6.88 19.16 8.4
7/13/2021 7:00:00 PM 20.58 69.044 0.094 6.88 19.16 8.37
7/13/2021 7:15:00 PM 20.56 69.008 0.094 6.88 19.16 8.35
7/13/2021 7:30:00 PM 20.54 68.972 0.094 6.87 19.77 8.35
7/13/2021 7:45:00 PM 20.5 68.9 0.093 6.87 19.38 8.33
7/13/2021 8:00:00 PM 20.46 68.828 0.093 6.86 20.11 8.31
7/13/2021 8:15:00 PM 20.41 68.738 0.093 6.86 20.79 8.29
7/13/2021 8:30:00 PM 20.36 68.648 0.092 6.85 21.86 8.28
7/13/2021 8:45:00 PM 20.3 68.54 0.092 6.85 22.52 8.27
7/13/2021 9:00:00 PM 20.24 68.432 0.092 6.85 21.01 8.27
7/13/2021 9:15:00 PM 20.18 68.324 0.091 6.84 22.39 8.26
7/13/2021 9:30:00 PM 20.12 68.216 0.091 6.83 23.39 8.25
7/13/2021 9:45:00 PM 20.06 68.108 0.091 6.82 21.44 8.25
7/13/2021 10:00:00 PM 20 68 0.091 6.82 20.65 8.25
7/13/2021 10:15:00 PM 19.94 67.892 0.091 6.82 20.1 8.26
7/13/2021 10:30:00 PM 19.87 67.766 0.091 6.82 19.39 8.27
7/13/2021 10:45:00 PM 19.81 67.658 0.091 6.82 18.64 8.26
7/13/2021 11:00:00 PM 19.75 67.55 0.092 6.81 20.92 8.26
7/13/2021 11:15:00 PM 19.69 67.442 0.092 6.81 22.87 8.27
7/13/2021 11:30:00 PM 19.64 67.352 0.093 6.81 21.17 8.27
7/13/2021 11:45:00 PM 19.59 67.262 0.093 6.81 21.06 8.28
7/14/2021 12:00:00 AM 19.53 67.154 0.093 6.81 21.57 8.29
7/14/2021 12:15:00 AM 19.48 67.064 0.094 6.81 17.4 8.29
7/14/2021 12:30:00 AM 19.43 66.974 0.094 6.81 19.31 8.3
7/14/2021 12:45:00 AM 19.38 66.884 0.094 6.81 22.2 8.31
7/14/2021 1:00:00 AM 19.33 66.794 0.094 6.81 24.98 8.32
7/14/2021 1:15:00 AM 19.27 66.686 0.094 6.81 25.71 8.34
7/14/2021 1:30:00 AM 19.21 66.578 0.094 6.81 24.65 8.35
7/14/2021 1:45:00 AM 19.15 66.47 0.094 6.82 24.1 8.36
7/14/2021 2:00:00 AM 19.09 66.362 0.094 6.82 25.86 8.38
7/14/2021 2:15:00 AM 19.04 66.272 0.094 6.82 30.01 8.39
7/14/2021 2:30:00 AM 18.99 66.182 0.094 6.82 31.82 8.4
7/14/2021 2:45:00 AM 18.94 66.092 0.094 6.82 36.5 8.42
7/14/2021 3:00:00 AM 18.9 66.02 0.094 6.82 31.7 8.42
7/14/2021 3:15:00 AM 18.85 65.93 0.093 6.82 29.59 8.43
7/14/2021 3:30:00 AM 18.82 65.876 0.093 6.82 30.86 8.44
7/14/2021 3:45:00 AM 18.8 65.84 0.092 6.82 31.1 8.45
7/14/2021 4:00:00 AM 18.78 65.804 0.092 6.83 32.9 8.45
7/14/2021 4:15:00 AM 18.77 65.786 0.092 6.83 32.43 8.45
7/14/2021 4:30:00 AM 18.76 65.768 0.091 6.83 32.82 8.46
7/14/2021 4:45:00 AM 18.74 65.732 0.091 6.83 32.23 8.46
7/14/2021 5:00:00 AM 18.73 65.714 0.091 6.83 31.9 8.46
7/14/2021 5:15:00 AM 18.7 65.66 0.091 6.85 32.52 8.46
7/14/2021 5:30:00 AM 18.68 65.624 0.091 6.84 32.02 8.46
7/14/2021 5:45:00 AM 18.66 65.588 0.091 6.83 26.54 8.46
7/14/2021 6:00:00 AM 18.63 65.534 0.092 6.84 30.59 8.46
7/14/2021 6:15:00 AM 18.61 65.498 0.093 6.84 29.64 8.46
7/14/2021 6:30:00 AM 18.59 65.462 0.093 6.84 28.71 8.46
7/14/2021 6:45:00 AM 18.57 65.426 0.094 6.84 29.81 8.46
7/14/2021 7:00:00 AM 18.56 65.408 0.095 6.85 26.52 8.46
7/14/2021 7:15:00 AM 18.55 65.39 0.096 6.85 26.87 8.46
7/14/2021 7:30:00 AM 18.55 65.39 0.096 6.85 25.07 8.47
7/14/2021 7:45:00 AM 18.54 65.372 0.097 6.85 24.09 8.48
7/14/2021 8:00:00 AM 18.54 65.372 0.097 6.85 24.03 8.49
7/14/2021 8:15:00 AM 18.56 65.408 0.097 6.85 22.61 8.51
7/14/2021 8:30:00 AM 18.57 65.426 0.097 6.86 21.3 8.52
7/14/2021 8:45:00 AM 18.59 65.462 0.097 6.87 20.51 8.54
7/14/2021 9:00:00 AM 18.62 65.516 0.097 6.87 19.31 8.55
7/14/2021 9:15:00 AM 18.64 65.552 0.097 6.87 18.52 8.57
7/14/2021 9:30:00 AM 18.68 65.624 0.097 6.87 17.57 8.57
7/14/2021 9:45:00 AM 18.72 65.696 0.097 6.88 16.89 8.59
7/14/2021 10:00:00 AM 18.77 65.786 0.097 6.88 16.39 8.6
7/14/2021 10:15:00 AM 18.81 65.858 0.097 6.88 16.21 8.61
7/14/2021 10:30:00 AM 18.86 65.948 0.097 6.89 15.48 8.62
7/14/2021 10:45:00 AM 18.91 66.038 0.097 6.89 15.16 8.63
7/14/2021 11:00:00 AM 18.99 66.182 0.097 6.9 14.84 8.65
7/14/2021 11:15:00 AM 19.07 66.326 0.097 6.91 14.39 8.66
7/14/2021 11:30:00 AM 19.19 66.542 0.097 6.92 13.88 8.69
7/14/2021 11:45:00 AM 19.29 66.722 0.097 6.92 13.68 8.7
7/14/2021 12:00:00 PM 19.4 66.92 0.097 6.93 13.47 8.7
7/14/2021 12:15:00 PM 19.54 67.172 0.097 6.94 12.97 8.71
7/14/2021 12:30:00 PM 19.72 67.496 0.097 6.95 13.01 8.72
7/14/2021 12:45:00 PM 19.89 67.802 0.097 6.96 12.48 8.72
7/14/2021 1:00:00 PM 20.03 68.054 0.097 6.96 12.38 8.7
7/14/2021 1:15:00 PM 20.16 68.288 0.097 6.97 12.36 8.69
7/14/2021 1:30:00 PM 20.31 68.558 0.097 6.98 12.21 8.69
7/14/2021 1:45:00 PM 20.46 68.828 0.097 6.98 12.09 8.68
7/14/2021 2:00:00 PM 20.61 69.098 0.097 6.99 12.04 8.69
7/14/2021 2:15:00 PM 20.71 69.278 0.097 6.98 11.94 8.66
7/14/2021 2:30:00 PM 20.79 69.422 0.097 6.98 11.79 8.65
7/14/2021 2:45:00 PM 20.78 69.404 0.098 6.97 11.58 8.61
7/14/2021 3:00:00 PM 20.72 69.296 0.097 6.95 11.69 8.56
7/14/2021 3:15:00 PM 20.73 69.314 0.097 6.96 11.86 8.52
7/14/2021 3:30:00 PM 20.75 69.35 0.098 6.95 11.66 8.47
7/14/2021 3:45:00 PM 20.76 69.368 0.098 6.95 11.67 8.44
7/14/2021 4:00:00 PM 20.75 69.35 0.098 6.94 11.78 8.41
7/14/2021 4:15:00 PM 20.73 69.314 0.097 6.93 11.84 8.41
7/14/2021 4:30:00 PM 20.71 69.278 0.097 6.93 12.41 8.38
7/14/2021 4:45:00 PM 20.68 69.224 0.098 6.93 12.82 8.38
7/14/2021 5:00:00 PM 20.64 69.152 0.098 6.93 19.44 8.35
7/14/2021 5:15:00 PM 20.61 69.098 0.098 6.92 35.33 8.31
7/14/2021 5:30:00 PM 20.59 69.062 0.098 6.91 38.59 8.29
7/14/2021 5:45:00 PM 20.61 69.098 0.098 6.92 32.01 8.31
7/14/2021 6:00:00 PM 20.63 69.134 0.098 6.93 24.41 8.32
7/14/2021 6:15:00 PM 20.62 69.116 0.099 6.93 19.95 8.32
7/14/2021 6:30:00 PM 20.61 69.098 0.099 6.92 16.95 8.33
7/14/2021 6:45:00 PM 20.57 69.026 0.099 6.92 15.64 8.32
7/14/2021 7:00:00 PM 20.54 68.972 0.099 6.92 15.45 8.31
7/14/2021 7:15:00 PM 20.51 68.918 0.099 6.91 15.14 8.31
7/14/2021 7:30:00 PM 20.48 68.864 0.099 6.91 14.53 8.3
7/14/2021 7:45:00 PM 20.44 68.792 0.099 6.9 14.62 8.3
7/14/2021 8:00:00 PM 20.39 68.702 0.099 6.9 14.7 8.29
7/14/2021 8:15:00 PM 20.34 68.612 0.099 6.89 14.24 8.27
7/14/2021 8:30:00 PM 20.28 68.504 0.099 6.88 13.88 8.26
7/14/2021 8:45:00 PM 20.22 68.396 0.099 6.87 13.61 8.25
7/14/2021 9:00:00 PM 20.15 68.27 0.099 6.86 13.16 8.24
7/14/2021 9:15:00 PM 20.08 68.144 0.099 6.85 13.03 8.24
7/14/2021 9:30:00 PM 20.01 68.018 0.099 6.84 12.86 8.24
7/14/2021 9:45:00 PM 19.94 67.892 0.099 6.84 12.77 8.23
7/14/2021 10:00:00 PM 19.87 67.766 0.099 6.84 12.75 8.23
7/14/2021 10:15:00 PM 19.82 67.676 0.099 6.84 13.22 8.23
7/14/2021 10:30:00 PM 19.77 67.586 0.099 6.83 13.05 8.23
7/14/2021 10:45:00 PM 19.72 67.496 0.099 6.83 12.68 8.23
7/14/2021 11:00:00 PM 19.69 67.442 0.099 6.82 12.73 8.23
7/14/2021 11:15:00 PM 19.65 67.37 0.099 6.82 12.32 8.23
7/14/2021 11:30:00 PM 19.63 67.334 0.099 6.82 12.19 8.22
7/14/2021 11:45:00 PM 19.6 67.28 0.099 6.82 12.39 8.23
7/15/2021 12:00:00 AM 19.57 67.226 0.099 6.82 12.34 8.23
7/15/2021 12:15:00 AM 19.53 67.154 0.099 6.83 12.46 8.24
7/15/2021 12:30:00 AM 19.49 67.082 0.099 6.82 12.39 8.24
7/15/2021 12:45:00 AM 19.45 67.01 0.098 6.82 12.32 8.25
7/15/2021 1:00:00 AM 19.41 66.938 0.099 6.82 12.16 8.25
7/15/2021 1:15:00 AM 19.36 66.848 0.1 6.82 11.81 8.27
7/15/2021 1:30:00 AM 19.32 66.776 0.1 6.83 12.32 8.27
7/15/2021 1:45:00 AM 19.28 66.704 0.1 6.82 11.85 8.27
7/15/2021 2:00:00 AM 19.24 66.632 0.1 6.83 11.77 8.28
7/15/2021 2:15:00 AM 19.2 66.56 0.1 6.82 11.83 8.29
7/15/2021 2:30:00 AM 19.17 66.506 0.1 6.83 11.73 8.29
7/15/2021 2:45:00 AM 19.14 66.452 0.101 6.83 11.41 8.3
7/15/2021 3:00:00 AM 19.1 66.38 0.101 6.83 11.61 8.3
7/15/2021 3:15:00 AM 19.07 66.326 0.101 6.83 11.52 8.3
7/15/2021 3:30:00 AM 19.04 66.272 0.101 6.83 11.36 8.31
7/15/2021 3:45:00 AM 19.01 66.218 0.101 6.83 11.3 8.32
7/15/2021 4:00:00 AM 18.97 66.146 0.101 6.83 11.55 8.32
7/15/2021 4:15:00 AM 18.94 66.092 0.101 6.84 11.39 8.33
7/15/2021 4:30:00 AM 18.91 66.038 0.102 6.83 11.34 8.33
7/15/2021 4:45:00 AM 18.88 65.984 0.102 6.84 11.56 8.33
7/15/2021 5:00:00 AM 18.86 65.948 0.102 6.84 11.31 8.34
7/15/2021 5:15:00 AM 18.84 65.912 0.102 6.84 11.64 8.34
7/15/2021 5:30:00 AM 18.82 65.876 0.102 6.85 11.7 8.35
7/15/2021 5:45:00 AM 18.8 65.84 0.103 6.85 11.7 8.35
7/15/2021 6:00:00 AM 18.78 65.804 0.103 6.85 11.41 8.35
7/15/2021 6:15:00 AM 18.76 65.768 0.103 6.86 11.58 8.35
7/15/2021 6:30:00 AM 18.75 65.75 0.103 6.86 11 8.36
7/15/2021 6:45:00 AM 18.73 65.714 0.103 6.86 11.1 8.37
7/15/2021 7:00:00 AM 18.72 65.696 0.103 6.87 10.97 8.38
7/15/2021 7:15:00 AM 18.71 65.67799 0.103 6.87 10.47 8.4
7/15/2021 7:30:00 AM 18.7 65.66 0.103 6.87 10.68 8.41
7/15/2021 7:45:00 AM 18.7 65.66 0.103 6.87 10.33 8.43
7/15/2021 8:00:00 AM 18.7 65.66 0.103 6.87 10.15 8.45
7/15/2021 8:15:00 AM 18.7 65.66 0.103 6.88 9.9 8.47
7/15/2021 8:30:00 AM 18.71 65.67799 0.103 6.88 9.75 8.5
7/15/2021 8:45:00 AM 18.73 65.714 0.103 6.89 9.68 8.52
7/15/2021 9:00:00 AM 18.75 65.75 0.103 6.89 9.5 8.54
7/15/2021 9:15:00 AM 18.79 65.82201 0.103 6.9 9.27 8.58
7/15/2021 9:30:00 AM 18.84 65.912 0.103 6.9 9.1 8.61
7/15/2021 9:45:00 AM 18.91 66.038 0.103 6.92 9.14 8.64
7/15/2021 10:00:00 AM 18.98 66.164 0.103 6.93 8.78 8.67
7/15/2021 10:15:00 AM 19.08 66.344 0.103 6.93 8.54 8.7
7/15/2021 10:30:00 AM 19.17 66.506 0.103 6.94 8.56 8.73
7/15/2021 10:45:00 AM 19.27 66.686 0.103 6.95 8.45 8.75
7/15/2021 11:00:00 AM 19.39 66.902 0.104 6.96 8.41 8.78
7/15/2021 11:15:00 AM 19.53 67.154 0.103 6.97 8.57 8.8
7/15/2021 11:30:00 AM 19.65 67.37 0.104 6.98 8.66 8.8
7/15/2021 11:45:00 AM 19.77 67.586 0.104 6.98 8.45 8.8
7/15/2021 12:00:00 PM 19.93 67.874 0.104 7 8.19 8.82
7/15/2021 12:15:00 PM 20.09 68.162 0.104 7.01 8.21 8.82
7/15/2021 12:30:00 PM 20.24 68.432 0.104 7.02 8.18 8.83
7/15/2021 12:45:00 PM 20.44 68.792 0.104 7.03 8.27 8.84
7/15/2021 1:00:00 PM 20.62 69.116 0.105 7.04 8.18 8.84
7/15/2021 1:15:00 PM 20.83 69.494 0.105 7.05 8.23 8.86
7/15/2021 1:30:00 PM 21 69.8 0.105 7.05 8.08 8.84
7/15/2021 1:45:00 PM 21.18 70.124 0.105 7.07 8.11 8.84
7/15/2021 2:00:00 PM 21.33 70.394 0.105 7.07 8.12 8.83
7/15/2021 2:15:00 PM 21.49 70.682 0.105 7.07 8.21 8.8
7/15/2021 2:30:00 PM 21.63 70.934 0.105 7.08 8.03 8.79
7/15/2021 2:45:00 PM 21.79 71.222 0.105 7.09 7.79 8.77
7/15/2021 3:00:00 PM 21.94 71.492 0.105 7.08 7.83 8.74
7/15/2021 3:15:00 PM 22.04 71.672 0.105 7.08 7.81 8.69
7/15/2021 3:30:00 PM 22.17 71.906 0.105 7.09 8.14 8.68
7/15/2021 3:45:00 PM 22.27 72.086 0.105 7.09 8.01 8.65
7/15/2021 4:00:00 PM 22.36 72.248 0.105 7.09 7.99 8.61
7/15/2021 4:15:00 PM 22.44 72.392 0.105 7.08 7.91 8.58
7/15/2021 4:30:00 PM 22.48 72.464 0.106 7.08 7.75 8.53
7/15/2021 4:45:00 PM 22.55 72.59 0.105 7.08 7.64 8.51
7/15/2021 5:00:00 PM 22.62 72.716 0.106 7.07 7.83 8.47
7/15/2021 5:15:00 PM 22.66 72.788 0.106 7.07 7.75 8.43
7/15/2021 5:30:00 PM 22.67 72.806 0.106 7.07 7.62 8.39
7/15/2021 5:45:00 PM 22.66 72.788 0.106 7.06 7.68 8.34
7/15/2021 6:00:00 PM 22.64 72.752 0.106 7.05 7.72 8.3
7/15/2021 6:15:00 PM 22.63 72.734 0.106 7.04 8.08 8.26
7/15/2021 6:30:00 PM 22.61 72.698 0.106 7.04 8.22 8.23
7/15/2021 6:45:00 PM 22.59 72.662 0.107 7.04 7.94 8.19
7/15/2021 7:00:00 PM 22.55 72.59 0.107 7.03 7.53 8.16
7/15/2021 7:15:00 PM 22.51 72.518 0.107 7.02 7.49 8.12
7/15/2021 7:30:00 PM 22.46 72.42799 0.107 7.01 8.18 8.08
7/15/2021 7:45:00 PM 22.41 72.338 0.107 7 7.39 8.04
7/15/2021 8:00:00 PM 22.36 72.248 0.107 7 7.3 8.01
7/15/2021 8:15:00 PM 22.3 72.14 0.108 6.98 7.37 7.97
7/15/2021 8:30:00 PM 22.23 72.014 0.108 6.97 7.3 7.95
7/15/2021 8:45:00 PM 22.16 71.888 0.108 6.97 7.45 7.91
7/15/2021 9:00:00 PM 22.08 71.744 0.108 6.95 7.74 7.89
7/15/2021 9:15:00 PM 22.01 71.618 0.108 6.95 7.77 7.86
7/15/2021 9:30:00 PM 21.93 71.474 0.108 6.94 7.84 7.85
7/15/2021 9:45:00 PM 21.85 71.33 0.108 6.94 7.91 7.83
7/15/2021 10:00:00 PM 21.76 71.168 0.108 6.93 8.13 7.82
7/15/2021 10:15:00 PM 21.67 71.006 0.108 6.91 7.85 7.82
7/15/2021 10:30:00 PM 21.58 70.844 0.108 6.91 8.01 7.81
7/15/2021 10:45:00 PM 21.5 70.7 0.108 6.91 7.91 7.81
7/15/2021 11:00:00 PM 21.4 70.52 0.108 6.9 7.8 7.81
7/15/2021 11:15:00 PM 21.32 70.376 0.109 6.9 7.96 7.81
7/15/2021 11:30:00 PM 21.22 70.196 0.109 6.89 8.08 7.82
7/15/2021 11:45:00 PM 21.14 70.052 0.109 6.9 7.95 7.82
7/16/2021 12:00:00 AM 21.05 69.89 0.109 6.89 8.15 7.83
7/16/2021 12:15:00 AM 20.96 69.728 0.109 6.89 7.85 7.84
7/16/2021 12:30:00 AM 20.88 69.584 0.109 6.89 7.89 7.84
7/16/2021 12:45:00 AM 20.79 69.422 0.11 6.88 8.03 7.86
7/16/2021 1:00:00 AM 20.71 69.278 0.11 6.88 7.9 7.87
7/16/2021 1:15:00 AM 20.63 69.134 0.11 6.89 7.88 7.88
7/16/2021 1:30:00 AM 20.55 68.99 0.11 6.88 7.49 7.88
7/16/2021 1:45:00 AM 20.47 68.846 0.111 6.88 7.43 7.9
7/16/2021 2:00:00 AM 20.39 68.702 0.111 6.88 7.63 7.91
7/16/2021 2:15:00 AM 20.31 68.558 0.111 6.88 7.79 7.92
7/16/2021 2:30:00 AM 20.23 68.414 0.111 6.87 7.48 7.93
7/16/2021 2:45:00 AM 20.15 68.27 0.112 6.88 7.56 7.94
7/16/2021 3:00:00 AM 20.07 68.126 0.112 6.88 7.45 7.96
7/16/2021 3:15:00 AM 20 68 0.112 6.89 7.9 7.97
7/16/2021 3:30:00 AM 19.92 67.856 0.112 6.89 7.64 7.99
7/16/2021 3:45:00 AM 19.85 67.73 0.113 6.88 7.47 8
7/16/2021 4:00:00 AM 19.78 67.604 0.113 6.88 7.64 8.01
7/16/2021 4:15:00 AM 19.71 67.478 0.113 6.88 7.44 8.02
7/16/2021 4:30:00 AM 19.64 67.352 0.113 6.88 7.47 8.04
7/16/2021 4:45:00 AM 19.57 67.226 0.113 6.88 7.52 8.05
7/16/2021 5:00:00 AM 19.51 67.118 0.114 6.89 7.58 8.06
7/16/2021 5:15:00 AM 19.45 67.01 0.114 6.88 7.56 8.07
7/16/2021 5:30:00 AM 19.39 66.902 0.114 6.88 7.77 8.08
7/16/2021 5:45:00 AM 19.34 66.812 0.114 6.88 7.74 8.09
7/16/2021 6:00:00 AM 19.28 66.704 0.114 6.89 7.64 8.11
7/16/2021 6:15:00 AM 19.23 66.614 0.115 6.89 7.59 8.12
7/16/2021 6:30:00 AM 19.18 66.524 0.115 6.88 7.58 8.14
7/16/2021 6:45:00 AM 19.14 66.452 0.115 6.89 7.23 8.16
7/16/2021 7:00:00 AM 19.09 66.362 0.115 6.89 7.52 8.17
7/16/2021 7:15:00 AM 19.06 66.308 0.115 6.9 7.36 8.2
7/16/2021 7:30:00 AM 19.03 66.254 0.116 6.9 7.47 8.22
7/16/2021 7:45:00 AM 19.01 66.218 0.115 6.9 7.29 8.26
7/16/2021 8:00:00 AM 18.99 66.182 0.116 6.9 7.3 8.29
7/16/2021 8:15:00 AM 18.99 66.182 0.116 6.91 7.11 8.33
7/16/2021 8:30:00 AM 18.99 66.182 0.116 6.92 6.78 8.36
7/16/2021 8:45:00 AM 19.01 66.218 0.116 6.93 6.46 8.42
7/16/2021 9:00:00 AM 19.04 66.272 0.116 6.95 6.41 8.47
7/16/2021 9:15:00 AM 19.1 66.38 0.116 6.96 6.26 8.54
7/16/2021 9:30:00 AM 19.15 66.47 0.116 6.97 6.25 8.6
7/16/2021 9:45:00 AM 19.19 66.542 0.116 6.98 5.84 8.63
7/16/2021 10:00:00 AM 19.23 66.614 0.116 6.99 6.02 8.66
7/16/2021 10:15:00 AM 19.28 66.704